<?xml version="1.0" encoding="UTF-8"?><gpx xmlns="http://www.topografix.com/GPX/1/1" xmlns:xsi="http://www.w3.org/2001/XMLSchema-instance" creator="komoot gpx writer" version="1.1" xsi:schemaLocation="http://www.topografix.com/GPX/1/1 http://www.topografix.com/GPX/1/1/gpx.xsd">

	<metadata>
		<name>Habstetten-Krauchthal-Biembach</name>
		<desc/>
		<link href="http://www.komoot.de">
			<text>komoot homepage</text>
			<type>text/html</type>
		</link>
	</metadata>
	
<trk>
<name>Habstetten-Krauchthal-Biembach</name>
<trkseg>
<trkpt lat="46.95721201855922" lon="7.433068732677904">
<ele>555.969482421875</ele>
<time>2014-06-03T14:55:57Z</time>
</trkpt>
<trkpt lat="46.95746201855922" lon="7.433551732677904">
<ele>556.548482421875</ele>
<time>2014-06-03T14:56:06Z</time>
</trkpt>
<trkpt lat="46.95752601855922" lon="7.433675732677903">
<ele>556.6594824218749</ele>
<time>2014-06-03T14:56:08Z</time>
</trkpt>
<trkpt lat="46.957542018559224" lon="7.433707732677903">
<ele>556.6694824218749</ele>
<time>2014-06-03T14:56:09Z</time>
</trkpt>
<trkpt lat="46.95773401855922" lon="7.434098732677903">
<ele>556.899482421875</ele>
<time>2014-06-03T14:56:15Z</time>
</trkpt>
<trkpt lat="46.95705901855922" lon="7.435017732677903">
<ele>553.379482421875</ele>
<time>2014-06-03T14:56:28Z</time>
</trkpt>
<trkpt lat="46.95673101855922" lon="7.435387732677903">
<ele>551.729482421875</ele>
<time>2014-06-03T14:56:33Z</time>
</trkpt>
<trkpt lat="46.95642101855922" lon="7.435706732677903">
<ele>551.109482421875</ele>
<time>2014-06-03T14:56:39Z</time>
</trkpt>
<trkpt lat="46.95641201855922" lon="7.435717732677903">
<ele>551.099482421875</ele>
<time>2014-06-03T14:56:39Z</time>
</trkpt>
<trkpt lat="46.95608101855922" lon="7.436083732677902">
<ele>549.669482421875</ele>
<time>2014-06-03T14:56:45Z</time>
</trkpt>
<trkpt lat="46.956265018559215" lon="7.436560732677902">
<ele>547.539482421875</ele>
<time>2014-06-03T14:56:49Z</time>
</trkpt>
<trkpt lat="46.95628401855922" lon="7.4366057326779025">
<ele>547.3694824218751</ele>
<time>2014-06-03T14:56:50Z</time>
</trkpt>
<trkpt lat="46.95672001855922" lon="7.437726732677903">
<ele>531.0194824218751</ele>
<time>2014-06-03T14:56:59Z</time>
</trkpt>
<trkpt lat="46.956594018559215" lon="7.437850732677902">
<ele>528.5894824218751</ele>
<time>2014-06-03T14:57:00Z</time>
</trkpt>
<trkpt lat="46.956645018559215" lon="7.437976732677902">
<ele>526.3894824218751</ele>
<time>2014-06-03T14:57:01Z</time>
</trkpt>
<trkpt lat="46.95665801855922" lon="7.438004732677903">
<ele>525.8894824218751</ele>
<time>2014-06-03T14:57:01Z</time>
</trkpt>
<trkpt lat="46.95670601855922" lon="7.438044732677903">
<ele>525.2494824218751</ele>
<time>2014-06-03T14:57:02Z</time>
</trkpt>
<trkpt lat="46.95714201855922" lon="7.438186732677903">
<ele>523.2984824218751</ele>
<time>2014-06-03T14:57:07Z</time>
</trkpt>
<trkpt lat="46.95734901855922" lon="7.4382907326779035">
<ele>521.6184824218751</ele>
<time>2014-06-03T14:57:09Z</time>
</trkpt>
<trkpt lat="46.95771601855922" lon="7.438629732677904">
<ele>517.1484824218751</ele>
<time>2014-06-03T14:57:14Z</time>
</trkpt>
<trkpt lat="46.957821018559216" lon="7.438726732677904">
<ele>512.6784824218751</ele>
<time>2014-06-03T14:57:16Z</time>
</trkpt>
<trkpt lat="46.95812101855922" lon="7.439022732677904">
<ele>506.70948242187507</ele>
<time>2014-06-03T14:57:20Z</time>
</trkpt>
<trkpt lat="46.95818801855922" lon="7.439089732677903">
<ele>505.40948242187505</ele>
<time>2014-06-03T14:57:21Z</time>
</trkpt>
<trkpt lat="46.95844501855922" lon="7.439330732677903">
<ele>503.1394824218751</ele>
<time>2014-06-03T14:57:24Z</time>
</trkpt>
<trkpt lat="46.95877901855922" lon="7.439527732677903">
<ele>502.30848242187506</ele>
<time>2014-06-03T14:57:29Z</time>
</trkpt>
<trkpt lat="46.95881201855922" lon="7.439593732677904">
<ele>501.76848242187504</ele>
<time>2014-06-03T14:57:29Z</time>
</trkpt>
<trkpt lat="46.95880901855922" lon="7.439617732677903">
<ele>501.52948242187506</ele>
<time>2014-06-03T14:57:30Z</time>
</trkpt>
<trkpt lat="46.95880401855922" lon="7.439655732677903">
<ele>501.17948242187504</ele>
<time>2014-06-03T14:57:30Z</time>
</trkpt>
<trkpt lat="46.95893201855922" lon="7.439710732677903">
<ele>500.829482421875</ele>
<time>2014-06-03T14:57:32Z</time>
</trkpt>
<trkpt lat="46.95932601855922" lon="7.439880732677903">
<ele>499.608482421875</ele>
<time>2014-06-03T14:57:37Z</time>
</trkpt>
<trkpt lat="46.95958501855922" lon="7.439991732677903">
<ele>498.609482421875</ele>
<time>2014-06-03T14:57:41Z</time>
</trkpt>
<trkpt lat="46.959673018559215" lon="7.440029732677903">
<ele>498.548482421875</ele>
<time>2014-06-03T14:57:43Z</time>
</trkpt>
<trkpt lat="46.96018101855922" lon="7.440213732677903">
<ele>499.129482421875</ele>
<time>2014-06-03T14:57:54Z</time>
</trkpt>
<trkpt lat="46.96041601855922" lon="7.440305732677904">
<ele>499.529482421875</ele>
<time>2014-06-03T14:57:59Z</time>
</trkpt>
<trkpt lat="46.96095401855922" lon="7.4406037326779035">
<ele>499.028482421875</ele>
<time>2014-06-03T14:58:08Z</time>
</trkpt>
<trkpt lat="46.96130401855922" lon="7.440750732677904">
<ele>498.48948242187504</ele>
<time>2014-06-03T14:58:14Z</time>
</trkpt>
<trkpt lat="46.961792018559215" lon="7.440998732677904">
<ele>498.009482421875</ele>
<time>2014-06-03T14:58:22Z</time>
</trkpt>
<trkpt lat="46.96232201855921" lon="7.441241732677904">
<ele>497.91948242187505</ele>
<time>2014-06-03T14:58:31Z</time>
</trkpt>
<trkpt lat="46.962566018559215" lon="7.441385732677904">
<ele>497.55848242187506</ele>
<time>2014-06-03T14:58:35Z</time>
</trkpt>
<trkpt lat="46.96297201855921" lon="7.441627732677904">
<ele>496.8794824218751</ele>
<time>2014-06-03T14:58:42Z</time>
</trkpt>
<trkpt lat="46.963064018559216" lon="7.441717732677904">
<ele>496.67848242187506</ele>
<time>2014-06-03T14:58:44Z</time>
</trkpt>
<trkpt lat="46.963304018559214" lon="7.441913732677904">
<ele>496.6994824218751</ele>
<time>2014-06-03T14:58:48Z</time>
</trkpt>
<trkpt lat="46.96358601855921" lon="7.442129732677904">
<ele>496.57948242187507</ele>
<time>2014-06-03T14:58:54Z</time>
</trkpt>
<trkpt lat="46.96433001855921" lon="7.442645732677904">
<ele>496.29848242187506</ele>
<time>2014-06-03T14:59:11Z</time>
</trkpt>
<trkpt lat="46.96469101855921" lon="7.442854732677904">
<ele>496.5184824218751</ele>
<time>2014-06-03T14:59:19Z</time>
</trkpt>
<trkpt lat="46.965058018559205" lon="7.4430307326779035">
<ele>496.4094824218751</ele>
<time>2014-06-03T14:59:27Z</time>
</trkpt>
<trkpt lat="46.965539018559205" lon="7.4432277326779035">
<ele>496.2894824218751</ele>
<time>2014-06-03T14:59:37Z</time>
</trkpt>
<trkpt lat="46.9664520185592" lon="7.443546732677904">
<ele>496.5484824218751</ele>
<time>2014-06-03T14:59:56Z</time>
</trkpt>
<trkpt lat="46.966870018559206" lon="7.443662732677904">
<ele>497.5784824218751</ele>
<time>2014-06-03T15:00:05Z</time>
</trkpt>
<trkpt lat="46.967346018559205" lon="7.443743732677904">
<ele>499.3894824218751</ele>
<time>2014-06-03T15:00:15Z</time>
</trkpt>
<trkpt lat="46.967596018559206" lon="7.443766732677903">
<ele>500.4994824218751</ele>
<time>2014-06-03T15:00:20Z</time>
</trkpt>
<trkpt lat="46.96784901855921" lon="7.443811732677903">
<ele>501.6994824218751</ele>
<time>2014-06-03T15:00:27Z</time>
</trkpt>
<trkpt lat="46.968151018559205" lon="7.443889732677904">
<ele>502.6294824218751</ele>
<time>2014-06-03T15:00:36Z</time>
</trkpt>
<trkpt lat="46.968261018559204" lon="7.443930732677904">
<ele>502.7294824218751</ele>
<time>2014-06-03T15:00:39Z</time>
</trkpt>
<trkpt lat="46.9684610185592" lon="7.4440037326779045">
<ele>503.38948242187513</ele>
<time>2014-06-03T15:00:45Z</time>
</trkpt>
<trkpt lat="46.968671018559206" lon="7.444110732677904">
<ele>503.7384824218751</ele>
<time>2014-06-03T15:00:50Z</time>
</trkpt>
<trkpt lat="46.96889301855921" lon="7.4442517326779045">
<ele>504.0184824218751</ele>
<time>2014-06-03T15:00:55Z</time>
</trkpt>
<trkpt lat="46.969066018559204" lon="7.444373732677905">
<ele>504.2894824218751</ele>
<time>2014-06-03T15:00:59Z</time>
</trkpt>
<trkpt lat="46.9692640185592" lon="7.444530732677904">
<ele>504.4194824218751</ele>
<time>2014-06-03T15:01:03Z</time>
</trkpt>
<trkpt lat="46.9699870185592" lon="7.445195732677904">
<ele>502.5184824218751</ele>
<time>2014-06-03T15:01:16Z</time>
</trkpt>
<trkpt lat="46.970805018559204" lon="7.446003732677904">
<ele>500.0784824218751</ele>
<time>2014-06-03T15:01:31Z</time>
</trkpt>
<trkpt lat="46.971111018559206" lon="7.446403732677904">
<ele>500.5394824218751</ele>
<time>2014-06-03T15:01:37Z</time>
</trkpt>
<trkpt lat="46.9714360185592" lon="7.4469647326779045">
<ele>498.9194824218751</ele>
<time>2014-06-03T15:01:45Z</time>
</trkpt>
<trkpt lat="46.9715440185592" lon="7.447178732677904">
<ele>498.6594824218751</ele>
<time>2014-06-03T15:01:48Z</time>
</trkpt>
<trkpt lat="46.9715550185592" lon="7.447206732677905">
<ele>498.6084824218751</ele>
<time>2014-06-03T15:01:48Z</time>
</trkpt>
<trkpt lat="46.971900018559204" lon="7.448030732677904">
<ele>498.52848242187514</ele>
<time>2014-06-03T15:01:59Z</time>
</trkpt>
<trkpt lat="46.972094018559204" lon="7.4485027326779045">
<ele>498.25948242187513</ele>
<time>2014-06-03T15:02:06Z</time>
</trkpt>
<trkpt lat="46.9721510185592" lon="7.448636732677905">
<ele>498.32848242187515</ele>
<time>2014-06-03T15:02:08Z</time>
</trkpt>
<trkpt lat="46.9722500185592" lon="7.448871732677905">
<ele>498.3994824218752</ele>
<time>2014-06-03T15:02:11Z</time>
</trkpt>
<trkpt lat="46.9723000185592" lon="7.448989732677904">
<ele>498.40948242187517</ele>
<time>2014-06-03T15:02:14Z</time>
</trkpt>
<trkpt lat="46.9727450185592" lon="7.450042732677904">
<ele>500.26848242187515</ele>
<time>2014-06-03T15:02:34Z</time>
</trkpt>
<trkpt lat="46.9732040185592" lon="7.451021732677904">
<ele>501.84948242187517</ele>
<time>2014-06-03T15:02:53Z</time>
</trkpt>
<trkpt lat="46.973259018559204" lon="7.451136732677904">
<ele>502.09948242187517</ele>
<time>2014-06-03T15:02:55Z</time>
</trkpt>
<trkpt lat="46.9732230185592" lon="7.451201732677904">
<ele>501.7594824218752</ele>
<time>2014-06-03T15:02:56Z</time>
</trkpt>
<trkpt lat="46.973219018559206" lon="7.451275732677904">
<ele>501.6484824218752</ele>
<time>2014-06-03T15:02:57Z</time>
</trkpt>
<trkpt lat="46.97323801855921" lon="7.451322732677904">
<ele>501.7294824218752</ele>
<time>2014-06-03T15:02:57Z</time>
</trkpt>
<trkpt lat="46.97324801855921" lon="7.451345732677904">
<ele>501.7684824218752</ele>
<time>2014-06-03T15:02:58Z</time>
</trkpt>
<trkpt lat="46.97331401855921" lon="7.451376732677904">
<ele>502.2084824218752</ele>
<time>2014-06-03T15:03:02Z</time>
</trkpt>
<trkpt lat="46.97335501855921" lon="7.451357732677904">
<ele>502.9994824218752</ele>
<time>2014-06-03T15:03:04Z</time>
</trkpt>
<trkpt lat="46.97340601855921" lon="7.4514817326779035">
<ele>504.2784824218752</ele>
<time>2014-06-03T15:03:10Z</time>
</trkpt>
<trkpt lat="46.97363401855921" lon="7.452054732677904">
<ele>510.1394824218752</ele>
<time>2014-06-03T15:03:37Z</time>
</trkpt>
<trkpt lat="46.97368301855921" lon="7.452177732677904">
<ele>511.40948242187517</ele>
<time>2014-06-03T15:03:42Z</time>
</trkpt>
<trkpt lat="46.973717018559206" lon="7.452151732677904">
<ele>512.3084824218752</ele>
<time>2014-06-03T15:03:44Z</time>
</trkpt>
<trkpt lat="46.974278018559204" lon="7.453507732677904">
<ele>526.6894824218751</ele>
<time>2014-06-03T15:04:24Z</time>
</trkpt>
<trkpt lat="46.97492401855921" lon="7.4551487326779045">
<ele>532.8394824218751</ele>
<time>2014-06-03T15:05:11Z</time>
</trkpt>
<trkpt lat="46.975096018559206" lon="7.455525732677905">
<ele>532.4394824218751</ele>
<time>2014-06-03T15:05:22Z</time>
</trkpt>
<trkpt lat="46.97521901855921" lon="7.455738732677904">
<ele>531.4684824218751</ele>
<time>2014-06-03T15:05:29Z</time>
</trkpt>
<trkpt lat="46.97538201855921" lon="7.455948732677904">
<ele>530.2884824218752</ele>
<time>2014-06-03T15:05:37Z</time>
</trkpt>
<trkpt lat="46.97566301855921" lon="7.456221732677904">
<ele>528.3084824218752</ele>
<time>2014-06-03T15:05:49Z</time>
</trkpt>
<trkpt lat="46.97577201855921" lon="7.456294732677905">
<ele>527.5984824218751</ele>
<time>2014-06-03T15:05:54Z</time>
</trkpt>
<trkpt lat="46.97585501855921" lon="7.456346732677905">
<ele>526.5694824218751</ele>
<time>2014-06-03T15:05:57Z</time>
</trkpt>
<trkpt lat="46.97590501855921" lon="7.456377732677905">
<ele>525.1184824218751</ele>
<time>2014-06-03T15:05:58Z</time>
</trkpt>
<trkpt lat="46.97594601855921" lon="7.456397732677905">
<ele>523.9594824218751</ele>
<time>2014-06-03T15:05:58Z</time>
</trkpt>
<trkpt lat="46.97599101855921" lon="7.456419732677905">
<ele>522.6684824218751</ele>
<time>2014-06-03T15:05:59Z</time>
</trkpt>
<trkpt lat="46.97632101855921" lon="7.456572732677905">
<ele>513.3794824218751</ele>
<time>2014-06-03T15:06:02Z</time>
</trkpt>
<trkpt lat="46.97633301855921" lon="7.456664732677906">
<ele>512.808482421875</ele>
<time>2014-06-03T15:06:03Z</time>
</trkpt>
<trkpt lat="46.97635301855921" lon="7.456669732677906">
<ele>512.2594824218751</ele>
<time>2014-06-03T15:06:03Z</time>
</trkpt>
<trkpt lat="46.97693901855921" lon="7.456836732677906">
<ele>499.65948242187505</ele>
<time>2014-06-03T15:06:09Z</time>
</trkpt>
<trkpt lat="46.977213018559205" lon="7.456920732677906">
<ele>495.80848242187506</ele>
<time>2014-06-03T15:06:12Z</time>
</trkpt>
<trkpt lat="46.977607018559205" lon="7.457044732677906">
<ele>492.2594824218751</ele>
<time>2014-06-03T15:06:16Z</time>
</trkpt>
<trkpt lat="46.977770018559205" lon="7.457075732677906">
<ele>492.6484824218751</ele>
<time>2014-06-03T15:06:23Z</time>
</trkpt>
<trkpt lat="46.97830101855921" lon="7.457073732677905">
<ele>493.9194824218751</ele>
<time>2014-06-03T15:06:44Z</time>
</trkpt>
<trkpt lat="46.978975018559204" lon="7.457006732677906">
<ele>499.2494824218751</ele>
<time>2014-06-03T15:07:11Z</time>
</trkpt>
<trkpt lat="46.9796170185592" lon="7.456977732677906">
<ele>506.5594824218751</ele>
<time>2014-06-03T15:07:36Z</time>
</trkpt>
<trkpt lat="46.979900018559206" lon="7.456949732677906">
<ele>510.0784824218751</ele>
<time>2014-06-03T15:07:51Z</time>
</trkpt>
<trkpt lat="46.9804950185592" lon="7.456895732677905">
<ele>515.8484824218751</ele>
<time>2014-06-03T15:08:23Z</time>
</trkpt>
<trkpt lat="46.980598018559206" lon="7.456898732677906">
<ele>516.8594824218751</ele>
<time>2014-06-03T15:08:28Z</time>
</trkpt>
<trkpt lat="46.98062201855921" lon="7.456970732677906">
<ele>517.4284824218751</ele>
<time>2014-06-03T15:08:30Z</time>
</trkpt>
<trkpt lat="46.98067301855921" lon="7.457016732677906">
<ele>518.1394824218751</ele>
<time>2014-06-03T15:08:33Z</time>
</trkpt>
<trkpt lat="46.98074001855921" lon="7.457002732677906">
<ele>518.7284824218751</ele>
<time>2014-06-03T15:08:36Z</time>
</trkpt>
<trkpt lat="46.98078301855921" lon="7.456943732677906">
<ele>518.8484824218751</ele>
<time>2014-06-03T15:08:38Z</time>
</trkpt>
<trkpt lat="46.98079601855921" lon="7.456872732677906">
<ele>518.6294824218751</ele>
<time>2014-06-03T15:08:40Z</time>
</trkpt>
<trkpt lat="46.98093401855921" lon="7.456849732677906">
<ele>519.0984824218751</ele>
<time>2014-06-03T15:08:42Z</time>
</trkpt>
<trkpt lat="46.98234201855921" lon="7.456740732677906">
<ele>517.8394824218751</ele>
<time>2014-06-03T15:09:04Z</time>
</trkpt>
<trkpt lat="46.98246501855921" lon="7.4567577326779055">
<ele>517.4494824218751</ele>
<time>2014-06-03T15:09:06Z</time>
</trkpt>
<trkpt lat="46.98272801855921" lon="7.4568717326779055">
<ele>516.7794824218752</ele>
<time>2014-06-03T15:09:11Z</time>
</trkpt>
<trkpt lat="46.98277501855921" lon="7.456898732677906">
<ele>516.6994824218751</ele>
<time>2014-06-03T15:09:11Z</time>
</trkpt>
<trkpt lat="46.98271201855921" lon="7.457198732677906">
<ele>518.2194824218751</ele>
<time>2014-06-03T15:09:20Z</time>
</trkpt>
<trkpt lat="46.98266801855921" lon="7.457406732677906">
<ele>519.2184824218751</ele>
<time>2014-06-03T15:09:25Z</time>
</trkpt>
<trkpt lat="46.98268101855921" lon="7.457516732677906">
<ele>519.6094824218751</ele>
<time>2014-06-03T15:09:28Z</time>
</trkpt>
<trkpt lat="46.98273701855921" lon="7.457520732677906">
<ele>519.4894824218751</ele>
<time>2014-06-03T15:09:29Z</time>
</trkpt>
<trkpt lat="46.982838018559214" lon="7.457527732677906">
<ele>519.2694824218751</ele>
<time>2014-06-03T15:09:30Z</time>
</trkpt>
<trkpt lat="46.98287801855921" lon="7.457529732677906">
<ele>519.1784824218751</ele>
<time>2014-06-03T15:09:31Z</time>
</trkpt>
<trkpt lat="46.98291801855921" lon="7.457620732677906">
<ele>519.358482421875</ele>
<time>2014-06-03T15:09:33Z</time>
</trkpt>
<trkpt lat="46.98292101855921" lon="7.457662732677906">
<ele>519.478482421875</ele>
<time>2014-06-03T15:09:34Z</time>
</trkpt>
<trkpt lat="46.98289301855921" lon="7.457740732677906">
<ele>519.7694824218751</ele>
<time>2014-06-03T15:09:36Z</time>
</trkpt>
<trkpt lat="46.98271701855921" lon="7.457996732677906">
<ele>520.829482421875</ele>
<time>2014-06-03T15:09:45Z</time>
</trkpt>
<trkpt lat="46.98261001855921" lon="7.458228732677906">
<ele>521.598482421875</ele>
<time>2014-06-03T15:09:51Z</time>
</trkpt>
<trkpt lat="46.982568018559206" lon="7.458380732677906">
<ele>522.0294824218751</ele>
<time>2014-06-03T15:09:55Z</time>
</trkpt>
<trkpt lat="46.98253301855921" lon="7.458514732677906">
<ele>522.3994824218751</ele>
<time>2014-06-03T15:09:58Z</time>
</trkpt>
<trkpt lat="46.98245001855921" lon="7.459018732677906">
<ele>523.289482421875</ele>
<time>2014-06-03T15:10:10Z</time>
</trkpt>
<trkpt lat="46.98244201855921" lon="7.459070732677906">
<ele>524.1784824218751</ele>
<time>2014-06-03T15:10:12Z</time>
</trkpt>
<trkpt lat="46.98220701855921" lon="7.4597957326779065">
<ele>528.1494824218751</ele>
<time>2014-06-03T15:10:30Z</time>
</trkpt>
<trkpt lat="46.98217801855921" lon="7.459985732677906">
<ele>529.0484824218751</ele>
<time>2014-06-03T15:10:35Z</time>
</trkpt>
<trkpt lat="46.98218301855921" lon="7.460307732677906">
<ele>529.9184824218751</ele>
<time>2014-06-03T15:10:42Z</time>
</trkpt>
<trkpt lat="46.982213018559214" lon="7.460413732677906">
<ele>529.919482421875</ele>
<time>2014-06-03T15:10:45Z</time>
</trkpt>
<trkpt lat="46.982382018559214" lon="7.460725732677906">
<ele>528.9994824218751</ele>
<time>2014-06-03T15:10:49Z</time>
</trkpt>
<trkpt lat="46.98251801855921" lon="7.460985732677906">
<ele>528.1394824218751</ele>
<time>2014-06-03T15:10:52Z</time>
</trkpt>
<trkpt lat="46.98267501855921" lon="7.461166732677906">
<ele>528.058482421875</ele>
<time>2014-06-03T15:10:55Z</time>
</trkpt>
<trkpt lat="46.98275401855921" lon="7.461284732677906">
<ele>528.0994824218751</ele>
<time>2014-06-03T15:10:57Z</time>
</trkpt>
<trkpt lat="46.982838018559214" lon="7.461374732677906">
<ele>528.0984824218751</ele>
<time>2014-06-03T15:11:00Z</time>
</trkpt>
<trkpt lat="46.982981018559215" lon="7.4614727326779064">
<ele>528.0584824218752</ele>
<time>2014-06-03T15:11:04Z</time>
</trkpt>
<trkpt lat="46.983074018559215" lon="7.461496732677906">
<ele>527.9684824218751</ele>
<time>2014-06-03T15:11:07Z</time>
</trkpt>
<trkpt lat="46.98344401855921" lon="7.461513732677906">
<ele>528.5894824218751</ele>
<time>2014-06-03T15:11:17Z</time>
</trkpt>
<trkpt lat="46.98373401855921" lon="7.461488732677906">
<ele>531.0384824218751</ele>
<time>2014-06-03T15:11:25Z</time>
</trkpt>
<trkpt lat="46.983823018559214" lon="7.461484732677906">
<ele>531.809482421875</ele>
<time>2014-06-03T15:11:28Z</time>
</trkpt>
<trkpt lat="46.983941018559214" lon="7.461502732677906">
<ele>532.858482421875</ele>
<time>2014-06-03T15:11:33Z</time>
</trkpt>
<trkpt lat="46.98408501855921" lon="7.461562732677907">
<ele>534.1784824218751</ele>
<time>2014-06-03T15:11:39Z</time>
</trkpt>
<trkpt lat="46.984219018559216" lon="7.461620732677907">
<ele>535.2694824218751</ele>
<time>2014-06-03T15:11:45Z</time>
</trkpt>
<trkpt lat="46.984374018559215" lon="7.461699732677907">
<ele>536.2794824218751</ele>
<time>2014-06-03T15:11:49Z</time>
</trkpt>
<trkpt lat="46.985810018559214" lon="7.462506732677907">
<ele>539.9994824218751</ele>
<time>2014-06-03T15:12:22Z</time>
</trkpt>
<trkpt lat="46.98595401855921" lon="7.462544732677907">
<ele>539.9994824218751</ele>
<time>2014-06-03T15:12:25Z</time>
</trkpt>
<trkpt lat="46.98609001855921" lon="7.462537732677907">
<ele>539.9994824218751</ele>
<time>2014-06-03T15:12:28Z</time>
</trkpt>
<trkpt lat="46.98745301855921" lon="7.461906732677907">
<ele>539.9994824218751</ele>
<time>2014-06-03T15:12:59Z</time>
</trkpt>
<trkpt lat="46.98782501855921" lon="7.461746732677907">
<ele>539.9994824218751</ele>
<time>2014-06-03T15:13:07Z</time>
</trkpt>
<trkpt lat="46.988011018559206" lon="7.4616127326779065">
<ele>539.9994824218751</ele>
<time>2014-06-03T15:13:11Z</time>
</trkpt>
<trkpt lat="46.98817101855921" lon="7.461531732677907">
<ele>539.9994824218751</ele>
<time>2014-06-03T15:13:14Z</time>
</trkpt>
<trkpt lat="46.988276018559205" lon="7.461503732677906">
<ele>539.9994824218751</ele>
<time>2014-06-03T15:13:16Z</time>
</trkpt>
<trkpt lat="46.988425018559205" lon="7.461499732677907">
<ele>539.9994824218751</ele>
<time>2014-06-03T15:13:19Z</time>
</trkpt>
<trkpt lat="46.988493018559204" lon="7.4615687326779065">
<ele>539.9994824218751</ele>
<time>2014-06-03T15:13:20Z</time>
</trkpt>
<trkpt lat="46.9886180185592" lon="7.461986732677906">
<ele>539.9994824218751</ele>
<time>2014-06-03T15:13:25Z</time>
</trkpt>
<trkpt lat="46.9888980185592" lon="7.462820732677907">
<ele>539.9994824218751</ele>
<time>2014-06-03T15:13:37Z</time>
</trkpt>
<trkpt lat="46.9889540185592" lon="7.462894732677906">
<ele>539.9994824218751</ele>
<time>2014-06-03T15:13:38Z</time>
</trkpt>
<trkpt lat="46.989042018559196" lon="7.4629347326779065">
<ele>539.9994824218751</ele>
<time>2014-06-03T15:13:40Z</time>
</trkpt>
<trkpt lat="46.9891280185592" lon="7.462938732677906">
<ele>539.9994824218751</ele>
<time>2014-06-03T15:13:41Z</time>
</trkpt>
<trkpt lat="46.9892000185592" lon="7.462917732677906">
<ele>539.9994824218751</ele>
<time>2014-06-03T15:13:42Z</time>
</trkpt>
<trkpt lat="46.989281018559204" lon="7.462862732677906">
<ele>539.9994824218751</ele>
<time>2014-06-03T15:13:44Z</time>
</trkpt>
<trkpt lat="46.9898950185592" lon="7.464728732677906">
<ele>540.669482421875</ele>
<time>2014-06-03T15:14:12Z</time>
</trkpt>
<trkpt lat="46.9901150185592" lon="7.465319732677906">
<ele>542.618482421875</ele>
<time>2014-06-03T15:14:29Z</time>
</trkpt>
<trkpt lat="46.9901540185592" lon="7.465785732677906">
<ele>544.779482421875</ele>
<time>2014-06-03T15:14:40Z</time>
</trkpt>
<trkpt lat="46.990162018559204" lon="7.465880732677906">
<ele>545.229482421875</ele>
<time>2014-06-03T15:14:43Z</time>
</trkpt>
<trkpt lat="46.9902110185592" lon="7.466464732677906">
<ele>548.029482421875</ele>
<time>2014-06-03T15:14:59Z</time>
</trkpt>
<trkpt lat="46.9907160185592" lon="7.4677767326779065">
<ele>554.279482421875</ele>
<time>2014-06-03T15:15:39Z</time>
</trkpt>
<trkpt lat="46.990675018559195" lon="7.467845732677906">
<ele>554.5794824218749</ele>
<time>2014-06-03T15:15:41Z</time>
</trkpt>
<trkpt lat="46.990512018559194" lon="7.468065732677906">
<ele>555.4594824218749</ele>
<time>2014-06-03T15:15:47Z</time>
</trkpt>
<trkpt lat="46.99004901855919" lon="7.468546732677906">
<ele>557.3394824218749</ele>
<time>2014-06-03T15:16:02Z</time>
</trkpt>
<trkpt lat="46.98967601855919" lon="7.469077732677905">
<ele>560.1184824218749</ele>
<time>2014-06-03T15:16:16Z</time>
</trkpt>
<trkpt lat="46.98903101855919" lon="7.4700887326779055">
<ele>562.7094824218749</ele>
<time>2014-06-03T15:16:41Z</time>
</trkpt>
<trkpt lat="46.98865301855919" lon="7.470898732677906">
<ele>562.7184824218749</ele>
<time>2014-06-03T15:16:58Z</time>
</trkpt>
<trkpt lat="46.98838201855919" lon="7.471284732677906">
<ele>562.3484824218749</ele>
<time>2014-06-03T15:17:08Z</time>
</trkpt>
<trkpt lat="46.98830701855919" lon="7.471363732677906">
<ele>562.0994824218749</ele>
<time>2014-06-03T15:17:11Z</time>
</trkpt>
<trkpt lat="46.98836001855919" lon="7.471454732677906">
<ele>562.6394824218748</ele>
<time>2014-06-03T15:17:14Z</time>
</trkpt>
<trkpt lat="46.98828501855919" lon="7.471537732677906">
<ele>562.3494824218749</ele>
<time>2014-06-03T15:17:15Z</time>
</trkpt>
<trkpt lat="46.98801701855919" lon="7.471812732677907">
<ele>560.8994824218748</ele>
<time>2014-06-03T15:17:19Z</time>
</trkpt>
<trkpt lat="46.98778801855919" lon="7.4720467326779065">
<ele>559.5294824218748</ele>
<time>2014-06-03T15:17:22Z</time>
</trkpt>
<trkpt lat="46.98760301855919" lon="7.472235732677906">
<ele>558.4294824218748</ele>
<time>2014-06-03T15:17:25Z</time>
</trkpt>
<trkpt lat="46.98730001855919" lon="7.472544732677906">
<ele>557.5694824218748</ele>
<time>2014-06-03T15:17:32Z</time>
</trkpt>
<trkpt lat="46.98693501855919" lon="7.4729547326779056">
<ele>557.1894824218748</ele>
<time>2014-06-03T15:17:39Z</time>
</trkpt>
<trkpt lat="46.98665301855919" lon="7.473348732677906">
<ele>557.1994824218748</ele>
<time>2014-06-03T15:17:46Z</time>
</trkpt>
<trkpt lat="46.986567018559185" lon="7.4734687326779055">
<ele>557.2094824218748</ele>
<time>2014-06-03T15:17:48Z</time>
</trkpt>
<trkpt lat="46.98641301855918" lon="7.473728732677905">
<ele>557.6494824218748</ele>
<time>2014-06-03T15:17:52Z</time>
</trkpt>
<trkpt lat="46.98813301855918" lon="7.476580732677905">
<ele>574.3684824218749</ele>
<time>2014-06-03T15:19:27Z</time>
</trkpt>
<trkpt lat="46.98749501855918" lon="7.478390732677905">
<ele>580.6494824218748</ele>
<time>2014-06-03T15:20:18Z</time>
</trkpt>
<trkpt lat="46.98754201855918" lon="7.478401732677905">
<ele>580.6184824218749</ele>
<time>2014-06-03T15:20:18Z</time>
</trkpt>
<trkpt lat="46.98931601855918" lon="7.478708732677905">
<ele>580.1394824218748</ele>
<time>2014-06-03T15:20:52Z</time>
</trkpt>
<trkpt lat="46.98939301855918" lon="7.478746732677905">
<ele>580.7594824218748</ele>
<time>2014-06-03T15:20:54Z</time>
</trkpt>
<trkpt lat="46.98937001855918" lon="7.478849732677905">
<ele>580.6784824218748</ele>
<time>2014-06-03T15:20:58Z</time>
</trkpt>
<trkpt lat="46.98927401855918" lon="7.479362732677905">
<ele>581.1784824218748</ele>
<time>2014-06-03T15:21:20Z</time>
</trkpt>
<trkpt lat="46.98906901855918" lon="7.480306732677905">
<ele>587.9394824218748</ele>
<time>2014-06-03T15:22:00Z</time>
</trkpt>
<trkpt lat="46.98891101855918" lon="7.481250732677904">
<ele>600.3084824218748</ele>
<time>2014-06-03T15:22:40Z</time>
</trkpt>
<trkpt lat="46.98881601855918" lon="7.481794732677904">
<ele>608.8594824218749</ele>
<time>2014-06-03T15:23:03Z</time>
</trkpt>
<trkpt lat="46.989664018559175" lon="7.482146732677904">
<ele>605.7184824218749</ele>
<time>2014-06-03T15:23:28Z</time>
</trkpt>
<trkpt lat="46.990201018559176" lon="7.482347732677904">
<ele>608.048482421875</ele>
<time>2014-06-03T15:23:43Z</time>
</trkpt>
<trkpt lat="46.99050101855918" lon="7.482503732677904">
<ele>610.6894824218749</ele>
<time>2014-06-03T15:23:52Z</time>
</trkpt>
<trkpt lat="46.99064101855918" lon="7.482606732677904">
<ele>612.8494824218749</ele>
<time>2014-06-03T15:23:57Z</time>
</trkpt>
<trkpt lat="46.99071801855918" lon="7.482662732677904">
<ele>614.0194824218748</ele>
<time>2014-06-03T15:24:01Z</time>
</trkpt>
<trkpt lat="46.99116301855918" lon="7.483018732677904">
<ele>620.2284824218748</ele>
<time>2014-06-03T15:24:28Z</time>
</trkpt>
<trkpt lat="46.99165001855918" lon="7.483412732677904">
<ele>625.4994824218747</ele>
<time>2014-06-03T15:24:57Z</time>
</trkpt>
<trkpt lat="46.99180401855918" lon="7.483537732677903">
<ele>627.1644824218747</ele>
<time>2014-06-03T15:25:03Z</time>
</trkpt>
<trkpt lat="46.99210001855918" lon="7.483776732677903">
<ele>628.8294824218747</ele>
<time>2014-06-03T15:25:13Z</time>
</trkpt>
<trkpt lat="46.993308018559176" lon="7.484802732677903">
<ele>632.7294824218746</ele>
<time>2014-06-03T15:25:54Z</time>
</trkpt>
<trkpt lat="46.99320801855917" lon="7.484838732677903">
<ele>634.5594824218747</ele>
<time>2014-06-03T15:26:02Z</time>
</trkpt>
<trkpt lat="46.99249101855917" lon="7.484623732677903">
<ele>640.3194824218747</ele>
<time>2014-06-03T15:26:37Z</time>
</trkpt>
<trkpt lat="46.99228001855917" lon="7.484622732677903">
<ele>642.6494824218747</ele>
<time>2014-06-03T15:26:47Z</time>
</trkpt>
<trkpt lat="46.99119301855917" lon="7.484819732677903">
<ele>657.6294824218747</ele>
<time>2014-06-03T15:27:40Z</time>
</trkpt>
<trkpt lat="46.99010501855917" lon="7.484931732677903">
<ele>664.0994824218748</ele>
<time>2014-06-03T15:28:31Z</time>
</trkpt>
<trkpt lat="46.98956501855917" lon="7.4848277326779025">
<ele>659.2634824218748</ele>
<time>2014-06-03T15:28:37Z</time>
</trkpt>
<trkpt lat="46.98921601855917" lon="7.484759732677903">
<ele>654.4284824218747</ele>
<time>2014-06-03T15:28:41Z</time>
</trkpt>
<trkpt lat="46.98838801855917" lon="7.485139732677903">
<ele>648.2194824218748</ele>
<time>2014-06-03T15:28:51Z</time>
</trkpt>
<trkpt lat="46.98813701855917" lon="7.4852157326779025">
<ele>646.1684824218747</ele>
<time>2014-06-03T15:28:54Z</time>
</trkpt>
<trkpt lat="46.98767001855917" lon="7.485300732677903">
<ele>641.8084824218747</ele>
<time>2014-06-03T15:29:00Z</time>
</trkpt>
<trkpt lat="46.987089018559175" lon="7.485525732677903">
<ele>640.6994824218747</ele>
<time>2014-06-03T15:29:08Z</time>
</trkpt>
<trkpt lat="46.987086018559175" lon="7.485530732677903">
<ele>640.6694824218747</ele>
<time>2014-06-03T15:29:08Z</time>
</trkpt>
<trkpt lat="46.98692101855917" lon="7.485782732677903">
<ele>638.4184824218747</ele>
<time>2014-06-03T15:29:10Z</time>
</trkpt>
<trkpt lat="46.986650018559175" lon="7.4862767326779025">
<ele>632.6584824218747</ele>
<time>2014-06-03T15:29:15Z</time>
</trkpt>
<trkpt lat="46.98660701855918" lon="7.486356732677902">
<ele>631.6594824218747</ele>
<time>2014-06-03T15:29:15Z</time>
</trkpt>
<trkpt lat="46.98655501855918" lon="7.4864737326779025">
<ele>630.1184824218747</ele>
<time>2014-06-03T15:29:16Z</time>
</trkpt>
<trkpt lat="46.98641901855918" lon="7.4867917326779025">
<ele>626.7284824218747</ele>
<time>2014-06-03T15:29:19Z</time>
</trkpt>
<trkpt lat="46.986322018559186" lon="7.487020732677903">
<ele>625.4994824218746</ele>
<time>2014-06-03T15:29:21Z</time>
</trkpt>
<trkpt lat="46.98611501855918" lon="7.487558732677902">
<ele>622.8194824218747</ele>
<time>2014-06-03T15:29:29Z</time>
</trkpt>
<trkpt lat="46.98597401855918" lon="7.487786732677902">
<ele>621.6394824218747</ele>
<time>2014-06-03T15:29:33Z</time>
</trkpt>
<trkpt lat="46.985757018559184" lon="7.488062732677903">
<ele>619.9994824218747</ele>
<time>2014-06-03T15:29:38Z</time>
</trkpt>
<trkpt lat="46.985545018559186" lon="7.488381732677903">
<ele>620.2094824218748</ele>
<time>2014-06-03T15:29:44Z</time>
</trkpt>
<trkpt lat="46.98529301855918" lon="7.488876732677903">
<ele>620.9494824218748</ele>
<time>2014-06-03T15:29:51Z</time>
</trkpt>
<trkpt lat="46.985118018559184" lon="7.489462732677903">
<ele>621.0094824218747</ele>
<time>2014-06-03T15:29:59Z</time>
</trkpt>
<trkpt lat="46.98503801855919" lon="7.490055732677903">
<ele>621.6784824218747</ele>
<time>2014-06-03T15:30:07Z</time>
</trkpt>
<trkpt lat="46.98502601855919" lon="7.4903567326779035">
<ele>621.8994824218747</ele>
<time>2014-06-03T15:30:10Z</time>
</trkpt>
<trkpt lat="46.98501201855919" lon="7.4909227326779035">
<ele>622.6684824218747</ele>
<time>2014-06-03T15:30:19Z</time>
</trkpt>
<trkpt lat="46.98499801855919" lon="7.491080732677903">
<ele>623.1584824218747</ele>
<time>2014-06-03T15:30:21Z</time>
</trkpt>
<trkpt lat="46.984957018559186" lon="7.4912277326779035">
<ele>623.2184824218747</ele>
<time>2014-06-03T15:30:24Z</time>
</trkpt>
<trkpt lat="46.984651018559184" lon="7.491812732677904">
<ele>621.3394824218747</ele>
<time>2014-06-03T15:30:34Z</time>
</trkpt>
<trkpt lat="46.984546018559186" lon="7.492119732677904">
<ele>621.3894824218746</ele>
<time>2014-06-03T15:30:39Z</time>
</trkpt>
<trkpt lat="46.984515018559186" lon="7.492316732677904">
<ele>622.0094824218746</ele>
<time>2014-06-03T15:30:42Z</time>
</trkpt>
<trkpt lat="46.98432801855919" lon="7.494612732677904">
<ele>627.9394824218746</ele>
<time>2014-06-03T15:31:16Z</time>
</trkpt>
<trkpt lat="46.984273018559186" lon="7.495156732677904">
<ele>628.4784824218746</ele>
<time>2014-06-03T15:31:25Z</time>
</trkpt>
<trkpt lat="46.98411101855918" lon="7.496003732677904">
<ele>626.2184824218746</ele>
<time>2014-06-03T15:31:37Z</time>
</trkpt>
<trkpt lat="46.98406101855918" lon="7.496696732677904">
<ele>625.1494824218746</ele>
<time>2014-06-03T15:31:48Z</time>
</trkpt>
<trkpt lat="46.983953018559184" lon="7.497348732677904">
<ele>625.0194824218746</ele>
<time>2014-06-03T15:31:58Z</time>
</trkpt>
<trkpt lat="46.98396001855918" lon="7.497762732677904">
<ele>626.8484824218746</ele>
<time>2014-06-03T15:32:10Z</time>
</trkpt>
<trkpt lat="46.98400401855918" lon="7.498051732677904">
<ele>628.9394824218746</ele>
<time>2014-06-03T15:32:19Z</time>
</trkpt>
<trkpt lat="46.984803018559184" lon="7.4987517326779045">
<ele>639.4694824218745</ele>
<time>2014-06-03T15:33:08Z</time>
</trkpt>
<trkpt lat="46.98477101855919" lon="7.498953732677904">
<ele>640.2694824218745</ele>
<time>2014-06-03T15:33:12Z</time>
</trkpt>
<trkpt lat="46.98461901855919" lon="7.499355732677905">
<ele>641.0384824218745</ele>
<time>2014-06-03T15:33:21Z</time>
</trkpt>
<trkpt lat="46.98443201855919" lon="7.499820732677905">
<ele>641.7994824218745</ele>
<time>2014-06-03T15:33:31Z</time>
</trkpt>
<trkpt lat="46.98433801855919" lon="7.500053732677904">
<ele>642.2284824218744</ele>
<time>2014-06-03T15:33:38Z</time>
</trkpt>
<trkpt lat="46.98426001855919" lon="7.500408732677904">
<ele>643.0294824218745</ele>
<time>2014-06-03T15:33:47Z</time>
</trkpt>
<trkpt lat="46.98420701855919" lon="7.500903732677904">
<ele>644.5794824218744</ele>
<time>2014-06-03T15:33:59Z</time>
</trkpt>
<trkpt lat="46.98432501855919" lon="7.501645732677904">
<ele>648.6684824218745</ele>
<time>2014-06-03T15:34:18Z</time>
</trkpt>
<trkpt lat="46.98443301855919" lon="7.502110732677904">
<ele>650.8794824218745</ele>
<time>2014-06-03T15:34:31Z</time>
</trkpt>
<trkpt lat="46.984504018559186" lon="7.502653732677905">
<ele>653.1794824218745</ele>
<time>2014-06-03T15:34:46Z</time>
</trkpt>
<trkpt lat="46.98453701855919" lon="7.502908732677905">
<ele>654.2494824218745</ele>
<time>2014-06-03T15:34:54Z</time>
</trkpt>
<trkpt lat="46.98447501855919" lon="7.504110732677905">
<ele>659.5584824218745</ele>
<time>2014-06-03T15:35:33Z</time>
</trkpt>
<trkpt lat="46.98457301855919" lon="7.505128732677905">
<ele>667.0094824218745</ele>
<time>2014-06-03T15:36:06Z</time>
</trkpt>
<trkpt lat="46.98467201855919" lon="7.505790732677905">
<ele>673.2884824218745</ele>
<time>2014-06-03T15:36:29Z</time>
</trkpt>
<trkpt lat="46.98478501855919" lon="7.506077732677905">
<ele>676.5894824218745</ele>
<time>2014-06-03T15:36:39Z</time>
</trkpt>
<trkpt lat="46.984594018559186" lon="7.505984732677906">
<ele>675.4094824218746</ele>
<time>2014-06-03T15:36:42Z</time>
</trkpt>
<trkpt lat="46.98478501855919" lon="7.506077732677905">
<ele>676.5894824218745</ele>
<time>2014-06-03T15:36:50Z</time>
</trkpt>
<trkpt lat="46.98486301855919" lon="7.506172732677905">
<ele>677.9284824218746</ele>
<time>2014-06-03T15:36:55Z</time>
</trkpt>
<trkpt lat="46.98579701855919" lon="7.507084732677905">
<ele>689.4494824218746</ele>
<time>2014-06-03T15:37:49Z</time>
</trkpt>
<trkpt lat="46.98646201855919" lon="7.5079967326779045">
<ele>695.5094824218745</ele>
<time>2014-06-03T15:38:32Z</time>
</trkpt>
<trkpt lat="46.98655501855919" lon="7.508124732677905">
<ele>695.7294824218745</ele>
<time>2014-06-03T15:38:35Z</time>
</trkpt>
<trkpt lat="46.987302018559184" lon="7.509313732677905">
<ele>698.7494824218745</ele>
<time>2014-06-03T15:38:59Z</time>
</trkpt>
<trkpt lat="46.98797901855919" lon="7.5104117326779045">
<ele>701.4394824218746</ele>
<time>2014-06-03T15:39:21Z</time>
</trkpt>
<trkpt lat="46.989162018559185" lon="7.512668732677905">
<ele>700.3194824218746</ele>
<time>2014-06-03T15:40:02Z</time>
</trkpt>
<trkpt lat="46.989528018559184" lon="7.513214732677905">
<ele>698.8794824218745</ele>
<time>2014-06-03T15:40:09Z</time>
</trkpt>
<trkpt lat="46.98984701855918" lon="7.513565732677905">
<ele>696.1294824218745</ele>
<time>2014-06-03T15:40:14Z</time>
</trkpt>
<trkpt lat="46.99097801855918" lon="7.515023732677905">
<ele>687.3484824218746</ele>
<time>2014-06-03T15:40:31Z</time>
</trkpt>
<trkpt lat="46.991639018559184" lon="7.5159027326779055">
<ele>679.0694824218746</ele>
<time>2014-06-03T15:40:42Z</time>
</trkpt>
<trkpt lat="46.991692018559185" lon="7.516019732677906">
<ele>678.4994824218745</ele>
<time>2014-06-03T15:40:43Z</time>
</trkpt>
<trkpt lat="46.99183901855918" lon="7.516370732677906">
<ele>676.9694824218745</ele>
<time>2014-06-03T15:40:46Z</time>
</trkpt>
<trkpt lat="46.99192401855918" lon="7.516709732677906">
<ele>675.4884824218746</ele>
<time>2014-06-03T15:40:49Z</time>
</trkpt>
<trkpt lat="46.99207601855918" lon="7.517411732677907">
<ele>671.6684824218745</ele>
<time>2014-06-03T15:40:55Z</time>
</trkpt>
<trkpt lat="46.992348018559184" lon="7.518106732677907">
<ele>666.8394824218745</ele>
<time>2014-06-03T15:41:02Z</time>
</trkpt>
<trkpt lat="46.993625018559186" lon="7.519743732677907">
<ele>661.7094824218746</ele>
<time>2014-06-03T15:41:23Z</time>
</trkpt>
<trkpt lat="46.99381601855919" lon="7.519881732677907">
<ele>657.8294824218746</ele>
<time>2014-06-03T15:41:25Z</time>
</trkpt>
<trkpt lat="46.994056018559185" lon="7.520056732677906">
<ele>651.5984824218746</ele>
<time>2014-06-03T15:41:31Z</time>
</trkpt>
<trkpt lat="46.99454701855918" lon="7.520159732677906">
<ele>645.2184824218746</ele>
<time>2014-06-03T15:41:40Z</time>
</trkpt>
<trkpt lat="46.995545018559184" lon="7.520743732677906">
<ele>641.1394824218746</ele>
<time>2014-06-03T15:42:00Z</time>
</trkpt>
<trkpt lat="46.99646301855918" lon="7.521586732677906">
<ele>640.8084824218746</ele>
<time>2014-06-03T15:42:21Z</time>
</trkpt>
<trkpt lat="46.996822018559186" lon="7.521956732677906">
<ele>640.9284824218746</ele>
<time>2014-06-03T15:42:29Z</time>
</trkpt>
<trkpt lat="46.99771801855918" lon="7.523425732677906">
<ele>642.1584824218746</ele>
<time>2014-06-03T15:42:55Z</time>
</trkpt>
<trkpt lat="46.99781101855918" lon="7.523626732677906">
<ele>644.5894824218747</ele>
<time>2014-06-03T15:42:58Z</time>
</trkpt>
<trkpt lat="46.99789601855918" lon="7.523873732677906">
<ele>646.3084824218747</ele>
<time>2014-06-03T15:43:02Z</time>
</trkpt>
<trkpt lat="46.997965018559185" lon="7.524190732677906">
<ele>647.4884824218747</ele>
<time>2014-06-03T15:43:06Z</time>
</trkpt>
<trkpt lat="46.998013018559185" lon="7.524496732677906">
<ele>647.1784824218747</ele>
<time>2014-06-03T15:43:10Z</time>
</trkpt>
<trkpt lat="46.99806001855919" lon="7.525047732677906">
<ele>646.5584824218747</ele>
<time>2014-06-03T15:43:17Z</time>
</trkpt>
<trkpt lat="46.99809301855919" lon="7.5252937326779055">
<ele>643.9094824218747</ele>
<time>2014-06-03T15:43:20Z</time>
</trkpt>
<trkpt lat="46.99826201855919" lon="7.526195732677905">
<ele>633.4994824218747</ele>
<time>2014-06-03T15:43:28Z</time>
</trkpt>
<trkpt lat="46.99836301855919" lon="7.526825732677906">
<ele>630.7884824218747</ele>
<time>2014-06-03T15:43:33Z</time>
</trkpt>
<trkpt lat="46.99840601855919" lon="7.5272507326779055">
<ele>630.5484824218747</ele>
<time>2014-06-03T15:43:37Z</time>
</trkpt>
<trkpt lat="46.99844201855919" lon="7.527913732677906">
<ele>628.7494824218747</ele>
<time>2014-06-03T15:43:42Z</time>
</trkpt>
<trkpt lat="46.998474018559186" lon="7.5281277326779055">
<ele>627.4994824218747</ele>
<time>2014-06-03T15:43:44Z</time>
</trkpt>
<trkpt lat="46.998533018559186" lon="7.528447732677906">
<ele>625.3894824218747</ele>
<time>2014-06-03T15:43:46Z</time>
</trkpt>
<trkpt lat="46.99883601855919" lon="7.529676732677906">
<ele>616.8894824218747</ele>
<time>2014-06-03T15:43:56Z</time>
</trkpt>
<trkpt lat="46.99888301855919" lon="7.530007732677906">
<ele>615.3794824218747</ele>
<time>2014-06-03T15:43:59Z</time>
</trkpt>
<trkpt lat="46.99889801855919" lon="7.530277732677907">
<ele>614.3394824218748</ele>
<time>2014-06-03T15:44:01Z</time>
</trkpt>
<trkpt lat="46.998902018559185" lon="7.530627732677907">
<ele>613.1894824218748</ele>
<time>2014-06-03T15:44:04Z</time>
</trkpt>
<trkpt lat="46.99885301855919" lon="7.531103732677907">
<ele>612.1184824218748</ele>
<time>2014-06-03T15:44:08Z</time>
</trkpt>
<trkpt lat="46.99878001855919" lon="7.531563732677907">
<ele>611.1394824218747</ele>
<time>2014-06-03T15:44:12Z</time>
</trkpt>
<trkpt lat="46.99862801855919" lon="7.532455732677907">
<ele>608.7594824218747</ele>
<time>2014-06-03T15:44:20Z</time>
</trkpt>
<trkpt lat="46.99860701855919" lon="7.532651732677907">
<ele>608.1994824218748</ele>
<time>2014-06-03T15:44:22Z</time>
</trkpt>
<trkpt lat="46.99860901855919" lon="7.532835732677907">
<ele>607.5984824218748</ele>
<time>2014-06-03T15:44:24Z</time>
</trkpt>
<trkpt lat="46.998729018559196" lon="7.533979732677907">
<ele>603.6084824218748</ele>
<time>2014-06-03T15:44:34Z</time>
</trkpt>
<trkpt lat="46.998744018559194" lon="7.535206732677907">
<ele>600.7594824218747</ele>
<time>2014-06-03T15:44:45Z</time>
</trkpt>
<trkpt lat="46.99874201855919" lon="7.535850732677908">
<ele>599.9994824218747</ele>
<time>2014-06-03T15:44:50Z</time>
</trkpt>
<trkpt lat="46.99873401855919" lon="7.536144732677908">
<ele>599.9994824218747</ele>
<time>2014-06-03T15:44:54Z</time>
</trkpt>
<trkpt lat="46.99872601855919" lon="7.538363732677908">
<ele>600.0594824218747</ele>
<time>2014-06-03T15:45:21Z</time>
</trkpt>
<trkpt lat="46.99874901855919" lon="7.538672732677908">
<ele>600.6094824218746</ele>
<time>2014-06-03T15:45:27Z</time>
</trkpt>
<trkpt lat="46.99877101855919" lon="7.538974732677907">
<ele>601.0984824218747</ele>
<time>2014-06-03T15:45:31Z</time>
</trkpt>
<trkpt lat="46.99897901855919" lon="7.540041732677907">
<ele>601.3894824218747</ele>
<time>2014-06-03T15:45:45Z</time>
</trkpt>
<trkpt lat="46.99916001855919" lon="7.540808732677907">
<ele>600.0694824218747</ele>
<time>2014-06-03T15:45:55Z</time>
</trkpt>
<trkpt lat="46.99918001855919" lon="7.541065732677907">
<ele>599.9994824218746</ele>
<time>2014-06-03T15:45:58Z</time>
</trkpt>
<trkpt lat="46.99917701855919" lon="7.541293732677907">
<ele>599.9994824218746</ele>
<time>2014-06-03T15:46:00Z</time>
</trkpt>
<trkpt lat="46.999172018559186" lon="7.541679732677907">
<ele>599.9994824218746</ele>
<time>2014-06-03T15:46:05Z</time>
</trkpt>
<trkpt lat="46.99921801855918" lon="7.542089732677907">
<ele>599.9994824218746</ele>
<time>2014-06-03T15:46:10Z</time>
</trkpt>
<trkpt lat="46.999310018559186" lon="7.542529732677907">
<ele>600.0294824218746</ele>
<time>2014-06-03T15:46:16Z</time>
</trkpt>
<trkpt lat="46.999792018559184" lon="7.543647732677907">
<ele>601.2794824218746</ele>
<time>2014-06-03T15:46:33Z</time>
</trkpt>
<trkpt lat="46.99995001855918" lon="7.544307732677907">
<ele>601.6494824218746</ele>
<time>2014-06-03T15:46:41Z</time>
</trkpt>
<trkpt lat="47.00006001855918" lon="7.544830732677907">
<ele>590.1994824218746</ele>
<time>2014-06-03T15:46:48Z</time>
</trkpt>
<trkpt lat="47.000135018559185" lon="7.544937732677907">
<ele>590.0694824218746</ele>
<time>2014-06-03T15:46:50Z</time>
</trkpt>
<trkpt lat="47.000163018559185" lon="7.5452087326779065">
<ele>589.9994824218745</ele>
<time>2014-06-03T15:46:59Z</time>
</trkpt>
<trkpt lat="47.000219018559186" lon="7.545690732677906">
<ele>589.9994824218745</ele>
<time>2014-06-03T15:47:15Z</time>
</trkpt>
<trkpt lat="47.00087001855918" lon="7.547546732677906">
<ele>604.3094824218745</ele>
<time>2014-06-03T15:48:23Z</time>
</trkpt>
<trkpt lat="47.001224018559185" lon="7.548542732677906">
<ele>620.4094824218745</ele>
<time>2014-06-03T15:49:37Z</time>
</trkpt>
<trkpt lat="47.001533018559186" lon="7.549358732677907">
<ele>611.8294824218744</ele>
<time>2014-06-03T15:49:48Z</time>
</trkpt>
<trkpt lat="47.001764018559186" lon="7.549841732677907">
<ele>611.6184824218744</ele>
<time>2014-06-03T15:49:55Z</time>
</trkpt>
<trkpt lat="47.001953018559185" lon="7.550197732677907">
<ele>609.2194824218744</ele>
<time>2014-06-03T15:50:01Z</time>
</trkpt>
<trkpt lat="47.002473018559186" lon="7.551172732677907">
<ele>606.8194824218745</ele>
<time>2014-06-03T15:50:16Z</time>
</trkpt>
<trkpt lat="47.002592018559184" lon="7.551411732677907">
<ele>606.5994824218744</ele>
<time>2014-06-03T15:50:19Z</time>
</trkpt>
<trkpt lat="47.002803018559185" lon="7.551837732677907">
<ele>608.5094824218744</ele>
<time>2014-06-03T15:50:32Z</time>
</trkpt>
<trkpt lat="47.003048018559184" lon="7.552368732677906">
<ele>611.5094824218744</ele>
<time>2014-06-03T15:50:48Z</time>
</trkpt>
<trkpt lat="47.00334401855918" lon="7.552899732677906">
<ele>612.5984824218745</ele>
<time>2014-06-03T15:51:05Z</time>
</trkpt>
<trkpt lat="47.003943018559184" lon="7.554140732677906">
<ele>618.3994824218745</ele>
<time>2014-06-03T15:51:43Z</time>
</trkpt>
<trkpt lat="47.00410801855919" lon="7.554453732677906">
<ele>616.9494824218744</ele>
<time>2014-06-03T15:51:53Z</time>
</trkpt>
<trkpt lat="47.004548018559184" lon="7.555291732677906">
<ele>614.4994824218744</ele>
<time>2014-06-03T15:52:06Z</time>
</trkpt>
<trkpt lat="47.00527301855919" lon="7.556699732677906">
<ele>599.9294824218744</ele>
<time>2014-06-03T15:52:23Z</time>
</trkpt>
<trkpt lat="47.005713018559184" lon="7.557709732677906">
<ele>590.4094824218744</ele>
<time>2014-06-03T15:52:35Z</time>
</trkpt>
<trkpt lat="47.00613601855918" lon="7.558620732677906">
<ele>587.4884824218743</ele>
<time>2014-06-03T15:52:48Z</time>
</trkpt>
<trkpt lat="47.006568018559186" lon="7.559553732677906">
<ele>583.1994824218743</ele>
<time>2014-06-03T15:53:01Z</time>
</trkpt>
<trkpt lat="47.00730701855919" lon="7.561458732677906">
<ele>581.8484824218743</ele>
<time>2014-06-03T15:53:26Z</time>
</trkpt>
<trkpt lat="47.007885018559186" lon="7.563176732677906">
<ele>581.0984824218743</ele>
<time>2014-06-03T15:53:48Z</time>
</trkpt>
<trkpt lat="47.00792901855919" lon="7.563252732677906">
<ele>581.0484824218744</ele>
<time>2014-06-03T15:53:49Z</time>
</trkpt>
<trkpt lat="47.00798501855919" lon="7.563294732677906">
<ele>581.0194824218744</ele>
<time>2014-06-03T15:53:50Z</time>
</trkpt>
<trkpt lat="47.00805901855919" lon="7.563295732677906">
<ele>581.0094824218744</ele>
<time>2014-06-03T15:53:52Z</time>
</trkpt>
<trkpt lat="47.008088018559185" lon="7.563425732677906">
<ele>581.2184824218743</ele>
<time>2014-06-03T15:53:54Z</time>
</trkpt>
<trkpt lat="47.008122018559185" lon="7.563593732677907">
<ele>581.6294824218743</ele>
<time>2014-06-03T15:53:58Z</time>
</trkpt>
<trkpt lat="47.008144018559186" lon="7.563656732677907">
<ele>581.7794824218743</ele>
<time>2014-06-03T15:53:59Z</time>
</trkpt>
<trkpt lat="47.00818001855919" lon="7.563761732677906">
<ele>582.0294824218743</ele>
<time>2014-06-03T15:54:01Z</time>
</trkpt>
<trkpt lat="47.00831201855919" lon="7.564065732677906">
<ele>582.7594824218743</ele>
<time>2014-06-03T15:54:08Z</time>
</trkpt>
<trkpt lat="47.00841001855919" lon="7.564005732677906">
<ele>582.6294824218743</ele>
<time>2014-06-03T15:54:10Z</time>
</trkpt>
<trkpt lat="47.008476018559186" lon="7.564029732677906">
<ele>582.6994824218743</ele>
<time>2014-06-03T15:54:11Z</time>
</trkpt>
<trkpt lat="47.00851201855919" lon="7.564109732677905">
<ele>582.8794824218743</ele>
<time>2014-06-03T15:54:12Z</time>
</trkpt>
<trkpt lat="47.00859001855919" lon="7.5641877326779055">
<ele>582.9884824218743</ele>
<time>2014-06-03T15:54:14Z</time>
</trkpt>
<trkpt lat="47.00905601855919" lon="7.564474732677906">
<ele>582.6784824218744</ele>
<time>2014-06-03T15:54:23Z</time>
</trkpt>
<trkpt lat="47.009185018559194" lon="7.564527732677906">
<ele>582.5484824218744</ele>
<time>2014-06-03T15:54:26Z</time>
</trkpt>
<trkpt lat="47.009320018559194" lon="7.564502732677906">
<ele>582.4494824218743</ele>
<time>2014-06-03T15:54:28Z</time>
</trkpt>
<trkpt lat="47.0093750185592" lon="7.564635732677906">
<ele>582.3584824218743</ele>
<time>2014-06-03T15:54:30Z</time>
</trkpt>
<trkpt lat="47.009407018559195" lon="7.564689732677906">
<ele>582.3394824218743</ele>
<time>2014-06-03T15:54:31Z</time>
</trkpt>
<trkpt lat="47.010265018559195" lon="7.565222732677906">
<ele>582.5794824218743</ele>
<time>2014-06-03T15:54:49Z</time>
</trkpt>
<trkpt lat="47.0105510185592" lon="7.565400732677906">
<ele>582.4884824218743</ele>
<time>2014-06-03T15:54:54Z</time>
</trkpt>
<trkpt lat="47.0106810185592" lon="7.565471732677906">
<ele>582.5384824218743</ele>
<time>2014-06-03T15:54:57Z</time>
</trkpt>
<trkpt lat="47.01082301855919" lon="7.565471732677906">
<ele>582.5584824218743</ele>
<time>2014-06-03T15:55:00Z</time>
</trkpt>
<trkpt lat="47.010870018559196" lon="7.5654977326779065">
<ele>582.5584824218743</ele>
<time>2014-06-03T15:55:01Z</time>
</trkpt>
<trkpt lat="47.0109280185592" lon="7.5655807326779065">
<ele>582.6294824218743</ele>
<time>2014-06-03T15:55:02Z</time>
</trkpt>
<trkpt lat="47.011005018559196" lon="7.565674732677906">
<ele>582.7284824218743</ele>
<time>2014-06-03T15:55:05Z</time>
</trkpt>
<trkpt lat="47.011093018559194" lon="7.565754732677906">
<ele>582.8484824218743</ele>
<time>2014-06-03T15:55:07Z</time>
</trkpt>
<trkpt lat="47.012455018559194" lon="7.566553732677906">
<ele>582.8694824218743</ele>
<time>2014-06-03T15:55:42Z</time>
</trkpt>
<trkpt lat="47.013744018559194" lon="7.567310732677906">
<ele>582.8894824218743</ele>
<time>2014-06-03T15:56:15Z</time>
</trkpt>
<trkpt lat="47.01383801855919" lon="7.567353732677906">
<ele>582.7794824218743</ele>
<time>2014-06-03T15:56:17Z</time>
</trkpt>
<trkpt lat="47.01381901855919" lon="7.567388732677905">
<ele>583.0494824218742</ele>
<time>2014-06-03T15:56:19Z</time>
</trkpt>
<trkpt lat="47.01378501855919" lon="7.567451732677905">
<ele>583.5494824218742</ele>
<time>2014-06-03T15:56:22Z</time>
</trkpt>
<trkpt lat="47.01365201855919" lon="7.567575732677905">
<ele>584.9284824218743</ele>
<time>2014-06-03T15:56:31Z</time>
</trkpt>
<trkpt lat="47.01343601855919" lon="7.567736732677905">
<ele>587.3294824218742</ele>
<time>2014-06-03T15:56:45Z</time>
</trkpt>
<trkpt lat="47.01332801855919" lon="7.567849732677905">
<ele>588.9694824218742</ele>
<time>2014-06-03T15:56:53Z</time>
</trkpt>
<trkpt lat="47.01280301855919" lon="7.5676947326779045">
<ele>589.8994824218742</ele>
<time>2014-06-03T15:57:16Z</time>
</trkpt>
<trkpt lat="47.01195701855919" lon="7.567518732677905">
<ele>600.6894824218741</ele>
<time>2014-06-03T15:57:54Z</time>
</trkpt>
<trkpt lat="47.01161601855919" lon="7.567419732677905">
<ele>605.3894824218742</ele>
<time>2014-06-03T15:58:14Z</time>
</trkpt>
<trkpt lat="47.01153501855919" lon="7.567670732677905">
<ele>614.4394824218741</ele>
<time>2014-06-03T15:58:47Z</time>
</trkpt>
<trkpt lat="47.01137701855919" lon="7.568113732677904">
<ele>631.9284824218742</ele>
<time>2014-06-03T15:59:46Z</time>
</trkpt>
<trkpt lat="47.01135401855919" lon="7.568207732677904">
<ele>635.4884824218741</ele>
<time>2014-06-03T15:59:58Z</time>
</trkpt>
<trkpt lat="47.01134901855919" lon="7.568319732677904">
<ele>639.7384824218741</ele>
<time>2014-06-03T16:00:12Z</time>
</trkpt>
<trkpt lat="47.01136001855919" lon="7.568426732677904">
<ele>642.7394824218741</ele>
<time>2014-06-03T16:00:24Z</time>
</trkpt>
<trkpt lat="47.01137701855919" lon="7.568501732677904">
<ele>644.8294824218741</ele>
<time>2014-06-03T16:00:31Z</time>
</trkpt>
<trkpt lat="47.01155301855919" lon="7.568835732677903">
<ele>657.0194824218742</ele>
<time>2014-06-03T16:01:07Z</time>
</trkpt>
<trkpt lat="47.01181201855919" lon="7.569291732677903">
<ele>667.9794824218742</ele>
<time>2014-06-03T16:01:57Z</time>
</trkpt>
<trkpt lat="47.01209801855919" lon="7.569819732677903">
<ele>670.0984824218742</ele>
<time>2014-06-03T16:02:12Z</time>
</trkpt>
<trkpt lat="47.01224201855919" lon="7.5701337326779035">
<ele>670.8584824218742</ele>
<time>2014-06-03T16:02:21Z</time>
</trkpt>
<trkpt lat="47.01228701855919" lon="7.570439732677904">
<ele>671.0484824218743</ele>
<time>2014-06-03T16:02:28Z</time>
</trkpt>
<trkpt lat="47.012272018559194" lon="7.570711732677903">
<ele>673.1394824218743</ele>
<time>2014-06-03T16:02:35Z</time>
</trkpt>
<trkpt lat="47.01215701855919" lon="7.571282732677903">
<ele>677.0094824218743</ele>
<time>2014-06-03T16:02:49Z</time>
</trkpt>
<trkpt lat="47.012170018559196" lon="7.571477732677903">
<ele>675.6294824218743</ele>
<time>2014-06-03T16:02:53Z</time>
</trkpt>
<trkpt lat="47.0122120185592" lon="7.571597732677903">
<ele>673.1194824218743</ele>
<time>2014-06-03T16:02:56Z</time>
</trkpt>
<trkpt lat="47.0121050185592" lon="7.571985732677903">
<ele>677.5384824218743</ele>
<time>2014-06-03T16:03:05Z</time>
</trkpt>
<trkpt lat="47.012061018559194" lon="7.572339732677903">
<ele>678.4784824218743</ele>
<time>2014-06-03T16:03:12Z</time>
</trkpt>
<trkpt lat="47.01206701855919" lon="7.5724717326779025">
<ele>677.9994824218743</ele>
<time>2014-06-03T16:03:15Z</time>
</trkpt>
<trkpt lat="47.01213301855919" lon="7.572552732677902">
<ele>676.6084824218743</ele>
<time>2014-06-03T16:03:17Z</time>
</trkpt>
<trkpt lat="47.01247101855919" lon="7.572829732677902">
<ele>670.6684824218743</ele>
<time>2014-06-03T16:03:29Z</time>
</trkpt>
<trkpt lat="47.01257201855919" lon="7.572868732677902">
<ele>670.0384824218743</ele>
<time>2014-06-03T16:03:32Z</time>
</trkpt>
<trkpt lat="47.01266901855919" lon="7.572866732677902">
<ele>669.4994824218743</ele>
<time>2014-06-03T16:03:35Z</time>
</trkpt>
<trkpt lat="47.01284901855919" lon="7.572763732677902">
<ele>666.8894824218743</ele>
<time>2014-06-03T16:03:41Z</time>
</trkpt>
<trkpt lat="47.01296101855919" lon="7.572753732677902">
<ele>665.9684824218742</ele>
<time>2014-06-03T16:03:44Z</time>
</trkpt>
<trkpt lat="47.01304701855919" lon="7.572823732677902">
<ele>666.6894824218742</ele>
<time>2014-06-03T16:03:47Z</time>
</trkpt>
<trkpt lat="47.013102018559195" lon="7.572893732677902">
<ele>667.6784824218743</ele>
<time>2014-06-03T16:03:54Z</time>
</trkpt>
<trkpt lat="47.0131460185592" lon="7.573007732677902">
<ele>669.6684824218743</ele>
<time>2014-06-03T16:04:03Z</time>
</trkpt>
<trkpt lat="47.013167018559194" lon="7.573205732677902">
<ele>673.4994824218743</ele>
<time>2014-06-03T16:04:16Z</time>
</trkpt>
<trkpt lat="47.01317101855919" lon="7.573261732677902">
<ele>674.5894824218743</ele>
<time>2014-06-03T16:04:20Z</time>
</trkpt>
<trkpt lat="47.01318901855919" lon="7.573513732677902">
<ele>679.4084824218743</ele>
<time>2014-06-03T16:04:41Z</time>
</trkpt>
<trkpt lat="47.01321301855919" lon="7.5737417326779015">
<ele>683.6394824218743</ele>
<time>2014-06-03T16:05:00Z</time>
</trkpt>
<trkpt lat="47.01318601855919" lon="7.573998732677902">
<ele>688.5384824218743</ele>
<time>2014-06-03T16:05:15Z</time>
</trkpt>
<trkpt lat="47.01300801855919" lon="7.575353732677902">
<ele>703.0794824218743</ele>
<time>2014-06-03T16:06:30Z</time>
</trkpt>
<trkpt lat="47.01304301855919" lon="7.575446732677902">
<ele>703.4494824218743</ele>
<time>2014-06-03T16:06:35Z</time>
</trkpt>
<trkpt lat="47.01298401855919" lon="7.575827732677902">
<ele>704.7184824218743</ele>
<time>2014-06-03T16:06:41Z</time>
</trkpt>
<trkpt lat="47.012886018559186" lon="7.576139732677902">
<ele>704.4184824218744</ele>
<time>2014-06-03T16:06:47Z</time>
</trkpt>
<trkpt lat="47.01272201855919" lon="7.576444732677902">
<ele>704.1394824218744</ele>
<time>2014-06-03T16:06:53Z</time>
</trkpt>
<trkpt lat="47.012664018559185" lon="7.576606732677902">
<ele>704.1494824218744</ele>
<time>2014-06-03T16:06:56Z</time>
</trkpt>
<trkpt lat="47.01265201855919" lon="7.576780732677903">
<ele>704.4994824218744</ele>
<time>2014-06-03T16:06:58Z</time>
</trkpt>
<trkpt lat="47.012667018559185" lon="7.5770907326779025">
<ele>705.3194824218745</ele>
<time>2014-06-03T16:07:03Z</time>
</trkpt>
<trkpt lat="47.012698018559185" lon="7.577223732677902">
<ele>705.6094824218744</ele>
<time>2014-06-03T16:07:06Z</time>
</trkpt>
<trkpt lat="47.01314901855918" lon="7.577832732677902">
<ele>704.6584824218744</ele>
<time>2014-06-03T16:07:15Z</time>
</trkpt>
<trkpt lat="47.01330501855918" lon="7.578055732677902">
<ele>704.0984824218745</ele>
<time>2014-06-03T16:07:18Z</time>
</trkpt>
<trkpt lat="47.01345101855918" lon="7.578257732677902">
<ele>704.0294824218745</ele>
<time>2014-06-03T16:07:22Z</time>
</trkpt>
<trkpt lat="47.01352801855918" lon="7.578332732677902">
<ele>703.9994824218745</ele>
<time>2014-06-03T16:07:23Z</time>
</trkpt>
<trkpt lat="47.01366001855918" lon="7.578368732677902">
<ele>703.9694824218745</ele>
<time>2014-06-03T16:07:25Z</time>
</trkpt>
<trkpt lat="47.01371301855918" lon="7.578276732677901">
<ele>704.0584824218746</ele>
<time>2014-06-03T16:07:27Z</time>
</trkpt>
<trkpt lat="47.01385201855918" lon="7.578099732677901">
<ele>704.3484824218746</ele>
<time>2014-06-03T16:07:30Z</time>
</trkpt>
<trkpt lat="47.01397001855918" lon="7.578002732677901">
<ele>704.6084824218746</ele>
<time>2014-06-03T16:07:33Z</time>
</trkpt>
<trkpt lat="47.014148018559176" lon="7.577984732677901">
<ele>704.8194824218746</ele>
<time>2014-06-03T16:07:36Z</time>
</trkpt>
<trkpt lat="47.01430401855917" lon="7.578038732677902">
<ele>704.3194824218746</ele>
<time>2014-06-03T16:07:39Z</time>
</trkpt>
<trkpt lat="47.01497701855917" lon="7.578543732677902">
<ele>701.7984824218746</ele>
<time>2014-06-03T16:07:53Z</time>
</trkpt>
<trkpt lat="47.015103018559174" lon="7.578592732677902">
<ele>701.1084824218746</ele>
<time>2014-06-03T16:07:55Z</time>
</trkpt>
<trkpt lat="47.015356018559174" lon="7.5786347326779016">
<ele>699.6184824218745</ele>
<time>2014-06-03T16:08:00Z</time>
</trkpt>
<trkpt lat="47.015508018559174" lon="7.578717732677902">
<ele>698.5294824218745</ele>
<time>2014-06-03T16:08:03Z</time>
</trkpt>
<trkpt lat="47.01561601855917" lon="7.578842732677901">
<ele>697.5294824218745</ele>
<time>2014-06-03T16:08:05Z</time>
</trkpt>
<trkpt lat="47.015767018559174" lon="7.579101732677901">
<ele>695.6994824218744</ele>
<time>2014-06-03T16:08:10Z</time>
</trkpt>
<trkpt lat="47.01590101855918" lon="7.579195732677901">
<ele>695.4284824218745</ele>
<time>2014-06-03T16:08:12Z</time>
</trkpt>
<trkpt lat="47.01669701855918" lon="7.579482732677901">
<ele>698.4184824218745</ele>
<time>2014-06-03T16:08:27Z</time>
</trkpt>
<trkpt lat="47.016974018559175" lon="7.579609732677901">
<ele>698.2094824218746</ele>
<time>2014-06-03T16:08:33Z</time>
</trkpt>
<trkpt lat="47.017421018559176" lon="7.579850732677901">
<ele>697.8084824218746</ele>
<time>2014-06-03T16:08:41Z</time>
</trkpt>
<trkpt lat="47.01785301855918" lon="7.580130732677901">
<ele>698.4184824218746</ele>
<time>2014-06-03T16:08:50Z</time>
</trkpt>
<trkpt lat="47.01812701855918" lon="7.580390732677901">
<ele>698.5294824218746</ele>
<time>2014-06-03T16:08:56Z</time>
</trkpt>
<trkpt lat="47.01836301855918" lon="7.580674732677901">
<ele>698.2884824218746</ele>
<time>2014-06-03T16:09:01Z</time>
</trkpt>
<trkpt lat="47.01847901855918" lon="7.580943732677901">
<ele>697.6294824218746</ele>
<time>2014-06-03T16:09:05Z</time>
</trkpt>
<trkpt lat="47.01855901855917" lon="7.581183732677901">
<ele>696.3794824218746</ele>
<time>2014-06-03T16:09:09Z</time>
</trkpt>
<trkpt lat="47.018792018559175" lon="7.581641732677901">
<ele>694.6294824218746</ele>
<time>2014-06-03T16:09:14Z</time>
</trkpt>
<trkpt lat="47.019445018559175" lon="7.5824717326779005">
<ele>692.6294824218746</ele>
<time>2014-06-03T16:09:26Z</time>
</trkpt>
<trkpt lat="47.01996101855917" lon="7.5832757326779">
<ele>689.9794824218746</ele>
<time>2014-06-03T16:09:36Z</time>
</trkpt>
<trkpt lat="47.02012201855917" lon="7.5834097326779">
<ele>689.7494824218746</ele>
<time>2014-06-03T16:09:39Z</time>
</trkpt>
<trkpt lat="47.02107301855917" lon="7.5842097326779">
<ele>688.6394824218746</ele>
<time>2014-06-03T16:10:31Z</time>
</trkpt>
<trkpt lat="47.02198001855917" lon="7.5853837326779">
<ele>702.0484824218746</ele>
<time>2014-06-03T16:11:29Z</time>
</trkpt>
<trkpt lat="47.02241701855917" lon="7.5857497326778995">
<ele>714.5484824218746</ele>
<time>2014-06-03T16:11:53Z</time>
</trkpt>
<trkpt lat="47.02284701855917" lon="7.5863737326779">
<ele>719.6184824218747</ele>
<time>2014-06-03T16:12:22Z</time>
</trkpt>
<trkpt lat="47.02292301855917" lon="7.5865067326779">
<ele>719.8294824218747</ele>
<time>2014-06-03T16:12:28Z</time>
</trkpt>
<trkpt lat="47.02321201855917" lon="7.586592732677899">
<ele>722.3084824218747</ele>
<time>2014-06-03T16:12:35Z</time>
</trkpt>
<trkpt lat="47.02351801855917" lon="7.586650732677899">
<ele>723.2984824218747</ele>
<time>2014-06-03T16:12:44Z</time>
</trkpt>
<trkpt lat="47.02382501855917" lon="7.586625732677899">
<ele>723.6784824218747</ele>
<time>2014-06-03T16:12:52Z</time>
</trkpt>
<trkpt lat="47.023948018559174" lon="7.586536732677899">
<ele>723.8684824218748</ele>
<time>2014-06-03T16:12:55Z</time>
</trkpt>
<trkpt lat="47.024105018559176" lon="7.586326732677899">
<ele>723.7284824218748</ele>
<time>2014-06-03T16:13:01Z</time>
</trkpt>
<trkpt lat="47.02424401855917" lon="7.585948732677899">
<ele>722.8094824218748</ele>
<time>2014-06-03T16:13:09Z</time>
</trkpt>
<trkpt lat="47.02434001855917" lon="7.585568732677899">
<ele>721.9884824218748</ele>
<time>2014-06-03T16:13:12Z</time>
</trkpt>
<trkpt lat="47.02444701855917" lon="7.585340732677899">
<ele>721.1994824218748</ele>
<time>2014-06-03T16:13:15Z</time>
</trkpt>
<trkpt lat="47.024542018559174" lon="7.5852157326778995">
<ele>720.5694824218748</ele>
<time>2014-06-03T16:13:16Z</time>
</trkpt>
<trkpt lat="47.02467501855917" lon="7.5850917326779">
<ele>719.7384824218748</ele>
<time>2014-06-03T16:13:21Z</time>
</trkpt>
<trkpt lat="47.02559201855917" lon="7.5845107326778995">
<ele>711.1494824218747</ele>
<time>2014-06-03T16:13:49Z</time>
</trkpt>
<trkpt lat="47.026320018559176" lon="7.584153732677899">
<ele>723.1684824218747</ele>
<time>2014-06-03T16:14:10Z</time>
</trkpt>
<trkpt lat="47.02651001855918" lon="7.5841877326779">
<ele>726.0894824218748</ele>
<time>2014-06-03T16:14:16Z</time>
</trkpt>
<trkpt lat="47.02664801855918" lon="7.5843077326779">
<ele>726.9784824218748</ele>
<time>2014-06-03T16:14:20Z</time>
</trkpt>
<trkpt lat="47.026759018559176" lon="7.5845367326779">
<ele>724.9394824218748</ele>
<time>2014-06-03T16:14:26Z</time>
</trkpt>
<trkpt lat="47.02699501855918" lon="7.5857587326779">
<ele>710.9784824218748</ele>
<time>2014-06-03T16:14:50Z</time>
</trkpt>
<trkpt lat="47.02710101855918" lon="7.5859977326779">
<ele>710.2694824218748</ele>
<time>2014-06-03T16:14:56Z</time>
</trkpt>
<trkpt lat="47.02723901855918" lon="7.5862287326779">
<ele>710.5294824218748</ele>
<time>2014-06-03T16:15:01Z</time>
</trkpt>
<trkpt lat="47.027876018559176" lon="7.5871627326779">
<ele>711.4084824218749</ele>
<time>2014-06-03T16:15:27Z</time>
</trkpt>
<trkpt lat="47.028217018559175" lon="7.5875707326779">
<ele>715.6694824218748</ele>
<time>2014-06-03T16:15:39Z</time>
</trkpt>
<trkpt lat="47.028358018559175" lon="7.5877437326779">
<ele>715.7594824218748</ele>
<time>2014-06-03T16:15:41Z</time>
</trkpt>
<trkpt lat="47.02852801855917" lon="7.5880477326779">
<ele>711.2184824218748</ele>
<time>2014-06-03T16:15:45Z</time>
</trkpt>
<trkpt lat="47.02881901855917" lon="7.5886487326779">
<ele>698.2984824218748</ele>
<time>2014-06-03T16:15:52Z</time>
</trkpt>
<trkpt lat="47.02893201855917" lon="7.5888087326779">
<ele>694.7284824218748</ele>
<time>2014-06-03T16:15:54Z</time>
</trkpt>
<trkpt lat="47.02921801855917" lon="7.5890247326779">
<ele>692.2094824218748</ele>
<time>2014-06-03T16:15:59Z</time>
</trkpt>
<trkpt lat="47.02964601855917" lon="7.5892817326779">
<ele>692.3094824218748</ele>
<time>2014-06-03T16:16:05Z</time>
</trkpt>
<trkpt lat="47.02966301855917" lon="7.5896037326779">
<ele>688.0694824218748</ele>
<time>2014-06-03T16:16:08Z</time>
</trkpt>
<trkpt lat="47.02992401855917" lon="7.5905967326779">
<ele>679.0894824218748</ele>
<time>2014-06-03T16:16:16Z</time>
</trkpt>
<trkpt lat="47.02997301855917" lon="7.5910707326779">
<ele>675.0794824218748</ele>
<time>2014-06-03T16:16:20Z</time>
</trkpt>
<trkpt lat="47.02997601855917" lon="7.5920587326779">
<ele>668.8894824218747</ele>
<time>2014-06-03T16:16:29Z</time>
</trkpt>
<trkpt lat="47.03022001855917" lon="7.5941807326779">
<ele>662.3484824218747</ele>
<time>2014-06-03T16:16:47Z</time>
</trkpt>
<trkpt lat="47.03023401855917" lon="7.5945247326779">
<ele>661.8484824218747</ele>
<time>2014-06-03T16:16:49Z</time>
</trkpt>
<trkpt lat="47.03023401855917" lon="7.5946387326779">
<ele>661.6494824218747</ele>
<time>2014-06-03T16:16:50Z</time>
</trkpt>
<trkpt lat="47.03019101855917" lon="7.5947967326779">
<ele>660.9594824218747</ele>
<time>2014-06-03T16:16:52Z</time>
</trkpt>
<trkpt lat="47.03012201855917" lon="7.5951497326779">
<ele>660.2984824218747</ele>
<time>2014-06-03T16:16:56Z</time>
</trkpt>
<trkpt lat="47.02991701855917" lon="7.5956757326779">
<ele>659.5384824218747</ele>
<time>2014-06-03T16:17:03Z</time>
</trkpt>
<trkpt lat="47.02985701855917" lon="7.595920732677899">
<ele>659.9294824218747</ele>
<time>2014-06-03T16:17:06Z</time>
</trkpt>
<trkpt lat="47.02984201855917" lon="7.596223732677899">
<ele>663.5694824218747</ele>
<time>2014-06-03T16:17:23Z</time>
</trkpt>
<trkpt lat="47.02984901855917" lon="7.596379732677899">
<ele>665.7494824218746</ele>
<time>2014-06-03T16:17:31Z</time>
</trkpt>
<trkpt lat="47.02986301855917" lon="7.596510732677898">
<ele>667.8294824218747</ele>
<time>2014-06-03T16:17:33Z</time>
</trkpt>
<trkpt lat="47.02991801855917" lon="7.596831732677898">
<ele>671.0584824218747</ele>
<time>2014-06-03T16:17:36Z</time>
</trkpt>
<trkpt lat="47.030134018559174" lon="7.597451732677897">
<ele>671.7594824218747</ele>
<time>2014-06-03T16:17:45Z</time>
</trkpt>
<trkpt lat="47.030303018559174" lon="7.597862732677897">
<ele>670.5984824218748</ele>
<time>2014-06-03T16:17:50Z</time>
</trkpt>
<trkpt lat="47.03120501855918" lon="7.5993587326778975">
<ele>665.8994824218748</ele>
<time>2014-06-03T16:18:13Z</time>
</trkpt>
<trkpt lat="47.03167701855918" lon="7.601181732677897">
<ele>637.3894824218748</ele>
<time>2014-06-03T16:18:36Z</time>
</trkpt>
<trkpt lat="47.03174801855918" lon="7.601775732677898">
<ele>626.6084824218749</ele>
<time>2014-06-03T16:18:43Z</time>
</trkpt>
<trkpt lat="47.03186001855918" lon="7.6027007326778975">
<ele>612.8894824218748</ele>
<time>2014-06-03T16:18:54Z</time>
</trkpt>
<trkpt lat="47.03188601855918" lon="7.603013732677898">
<ele>609.8794824218749</ele>
<time>2014-06-03T16:18:57Z</time>
</trkpt>
<trkpt lat="47.031921018559174" lon="7.603288732677898">
<ele>607.0694824218749</ele>
<time>2014-06-03T16:18:59Z</time>
</trkpt>
<trkpt lat="47.03209701855918" lon="7.603726732677898">
<ele>604.2094824218749</ele>
<time>2014-06-03T16:19:02Z</time>
</trkpt>
<trkpt lat="47.03239001855918" lon="7.604198732677898">
<ele>598.4994824218749</ele>
<time>2014-06-03T16:19:07Z</time>
</trkpt>
<trkpt lat="47.03276401855918" lon="7.604902732677898">
<ele>593.7694824218748</ele>
<time>2014-06-03T16:19:14Z</time>
</trkpt>
<trkpt lat="47.03280001855918" lon="7.604995732677898">
<ele>593.2394824218749</ele>
<time>2014-06-03T16:19:15Z</time>
</trkpt>
<trkpt lat="47.03282201855918" lon="7.605056732677897">
<ele>592.9684824218749</ele>
<time>2014-06-03T16:19:15Z</time>
</trkpt>
<trkpt lat="47.03302101855918" lon="7.605648732677897">
<ele>591.038482421875</ele>
<time>2014-06-03T16:19:20Z</time>
</trkpt>
<trkpt lat="47.03319801855918" lon="7.606359732677897">
<ele>581.6894824218749</ele>
<time>2014-06-03T16:19:26Z</time>
</trkpt>
<trkpt lat="47.033296018559184" lon="7.606755732677898">
<ele>574.509482421875</ele>
<time>2014-06-03T16:19:29Z</time>
</trkpt>
<trkpt lat="47.03347201855919" lon="7.6074857326778975">
<ele>563.649482421875</ele>
<time>2014-06-03T16:19:36Z</time>
</trkpt>
<trkpt lat="47.03353901855919" lon="7.6077207326778975">
<ele>563.859482421875</ele>
<time>2014-06-03T16:19:38Z</time>
</trkpt>
<trkpt lat="47.03356501855919" lon="7.607810732677898">
<ele>563.969482421875</ele>
<time>2014-06-03T16:19:40Z</time>
</trkpt>
<trkpt lat="47.03361201855919" lon="7.6079747326778975">
<ele>564.129482421875</ele>
<time>2014-06-03T16:19:42Z</time>
</trkpt>
<trkpt lat="47.03430801855919" lon="7.609614732677898">
<ele>565.738482421875</ele>
<time>2014-06-03T16:20:05Z</time>
</trkpt>
<trkpt lat="47.034495018559184" lon="7.609991732677898">
<ele>565.228482421875</ele>
<time>2014-06-03T16:20:10Z</time>
</trkpt>
<trkpt lat="47.034618018559186" lon="7.610172732677898">
<ele>563.079482421875</ele>
<time>2014-06-03T16:20:14Z</time>
</trkpt>
<trkpt lat="47.034841018559185" lon="7.610386732677898">
<ele>559.358482421875</ele>
<time>2014-06-03T16:20:18Z</time>
</trkpt>
<trkpt lat="47.03505301855918" lon="7.610537732677898">
<ele>556.599482421875</ele>
<time>2014-06-03T16:20:22Z</time>
</trkpt>
<trkpt lat="47.03505301855918" lon="7.610697732677898">
<ele>556.239482421875</ele>
<time>2014-06-03T16:20:24Z</time>
</trkpt>
<trkpt lat="47.035134018559184" lon="7.611301732677898">
<ele>555.928482421875</ele>
<time>2014-06-03T16:20:33Z</time>
</trkpt>
<trkpt lat="47.035418018559184" lon="7.612306732677898">
<ele>558.678482421875</ele>
<time>2014-06-03T16:20:50Z</time>
</trkpt>
<trkpt lat="47.03563601855918" lon="7.612973732677898">
<ele>558.749482421875</ele>
<time>2014-06-03T16:21:01Z</time>
</trkpt>
<trkpt lat="47.03595701855918" lon="7.613691732677898">
<ele>556.639482421875</ele>
<time>2014-06-03T16:21:25Z</time>
</trkpt>
<trkpt lat="47.03614001855918" lon="7.614219732677898">
<ele>558.408482421875</ele>
<time>2014-06-03T16:21:41Z</time>
</trkpt>
<trkpt lat="47.036209018559184" lon="7.6147937326778985">
<ele>566.269482421875</ele>
<time>2014-06-03T16:21:57Z</time>
</trkpt>
<trkpt lat="47.036276018559185" lon="7.615109732677898">
<ele>569.259482421875</ele>
<time>2014-06-03T16:22:05Z</time>
</trkpt>
<trkpt lat="47.036608018559185" lon="7.615915732677898">
<ele>565.048482421875</ele>
<time>2014-06-03T16:22:31Z</time>
</trkpt>
<trkpt lat="47.036746018559185" lon="7.616500732677898">
<ele>569.918482421875</ele>
<time>2014-06-03T16:22:48Z</time>
</trkpt>
<trkpt lat="47.03683801855919" lon="7.616907732677898">
<ele>575.359482421875</ele>
<time>2014-06-03T16:22:59Z</time>
</trkpt>
<trkpt lat="47.036937018559186" lon="7.617275732677898">
<ele>578.978482421875</ele>
<time>2014-06-03T16:23:04Z</time>
</trkpt>
<trkpt lat="47.037303018559186" lon="7.618257732677898">
<ele>571.5294824218751</ele>
<time>2014-06-03T16:23:18Z</time>
</trkpt>
<trkpt lat="47.037616018559184" lon="7.619030732677897">
<ele>564.949482421875</ele>
<time>2014-06-03T16:23:30Z</time>
</trkpt>
<trkpt lat="47.03769801855918" lon="7.619320732677897">
<ele>564.848482421875</ele>
<time>2014-06-03T16:23:33Z</time>
</trkpt>
<trkpt lat="47.037751018559185" lon="7.619606732677897">
<ele>564.599482421875</ele>
<time>2014-06-03T16:23:37Z</time>
</trkpt>
<trkpt lat="47.03778001855918" lon="7.619922732677897">
<ele>564.978482421875</ele>
<time>2014-06-03T16:23:41Z</time>
</trkpt>
<trkpt lat="47.03780501855918" lon="7.620085732677897">
<ele>564.319482421875</ele>
<time>2014-06-03T16:23:44Z</time>
</trkpt>
<trkpt lat="47.037852018559185" lon="7.620279732677896">
<ele>562.5094824218751</ele>
<time>2014-06-03T16:23:45Z</time>
</trkpt>
<trkpt lat="47.03808401855918" lon="7.621072732677896">
<ele>555.0794824218751</ele>
<time>2014-06-03T16:23:51Z</time>
</trkpt>
<trkpt lat="47.03812901855918" lon="7.621294732677896">
<ele>553.6994824218751</ele>
<time>2014-06-03T16:23:53Z</time>
</trkpt>
<trkpt lat="47.03823001855918" lon="7.621816732677896">
<ele>551.2094824218751</ele>
<time>2014-06-03T16:23:57Z</time>
</trkpt>
<trkpt lat="47.03825901855918" lon="7.621980732677896">
<ele>550.4394824218751</ele>
<time>2014-06-03T16:23:59Z</time>
</trkpt>
<trkpt lat="47.038272018559184" lon="7.622048732677896">
<ele>550.0894824218751</ele>
<time>2014-06-03T16:23:59Z</time>
</trkpt>
<trkpt lat="47.03828401855918" lon="7.622105732677896">
<ele>549.7794824218752</ele>
<time>2014-06-03T16:24:00Z</time>
</trkpt>
<trkpt lat="47.038404018559184" lon="7.622710732677896">
<ele>548.0584824218752</ele>
<time>2014-06-03T16:24:07Z</time>
</trkpt>
<trkpt lat="47.03856601855919" lon="7.623630732677896">
<ele>548.3594824218752</ele>
<time>2014-06-03T16:24:18Z</time>
</trkpt>
<trkpt lat="47.03862401855919" lon="7.624113732677896">
<ele>548.9394824218753</ele>
<time>2014-06-03T16:24:25Z</time>
</trkpt>
<trkpt lat="47.03866101855919" lon="7.624434732677895">
<ele>549.3194824218753</ele>
<time>2014-06-03T16:24:31Z</time>
</trkpt>
<trkpt lat="47.03869101855919" lon="7.624613732677895">
<ele>549.5384824218753</ele>
<time>2014-06-03T16:24:33Z</time>
</trkpt>
<trkpt lat="47.03873601855919" lon="7.624817732677895">
<ele>549.7794824218753</ele>
<time>2014-06-03T16:24:36Z</time>
</trkpt>
<trkpt lat="47.03881001855919" lon="7.624998732677896">
<ele>549.9994824218753</ele>
<time>2014-06-03T16:24:39Z</time>
</trkpt>
<trkpt lat="47.03888801855919" lon="7.625145732677896">
<ele>549.9994824218753</ele>
<time>2014-06-03T16:24:41Z</time>
</trkpt>
<trkpt lat="47.03909001855919" lon="7.625423732677896">
<ele>549.9994824218753</ele>
<time>2014-06-03T16:24:47Z</time>
</trkpt>
<trkpt lat="47.03929401855919" lon="7.625719732677895">
<ele>549.8694824218753</ele>
<time>2014-06-03T16:24:53Z</time>
</trkpt>
<trkpt lat="47.03939201855919" lon="7.625930732677896">
<ele>549.6084824218754</ele>
<time>2014-06-03T16:24:55Z</time>
</trkpt>
<trkpt lat="47.03948501855919" lon="7.626196732677895">
<ele>549.1784824218754</ele>
<time>2014-06-03T16:24:59Z</time>
</trkpt>
<trkpt lat="47.03954401855919" lon="7.626591732677896">
<ele>548.6394824218754</ele>
<time>2014-06-03T16:25:03Z</time>
</trkpt>
<trkpt lat="47.03957601855919" lon="7.627225732677895">
<ele>548.5094824218754</ele>
<time>2014-06-03T16:25:10Z</time>
</trkpt>
<trkpt lat="47.03960601855919" lon="7.628011732677895">
<ele>548.4684824218754</ele>
<time>2014-06-03T16:25:20Z</time>
</trkpt>
<trkpt lat="47.039599018559194" lon="7.628106732677895">
<ele>548.4784824218754</ele>
<time>2014-06-03T16:25:21Z</time>
</trkpt>
<trkpt lat="47.03956901855919" lon="7.628184732677895">
<ele>548.5194824218754</ele>
<time>2014-06-03T16:25:22Z</time>
</trkpt>
<trkpt lat="47.039509018559194" lon="7.628273732677895">
<ele>548.5894824218755</ele>
<time>2014-06-03T16:25:24Z</time>
</trkpt>
<trkpt lat="47.039362018559196" lon="7.628539732677895">
<ele>548.8994824218754</ele>
<time>2014-06-03T16:25:29Z</time>
</trkpt>
<trkpt lat="47.0393100185592" lon="7.628641732677895">
<ele>549.0694824218754</ele>
<time>2014-06-03T16:25:31Z</time>
</trkpt>
<trkpt lat="47.0392760185592" lon="7.628914732677895">
<ele>549.3794824218753</ele>
<time>2014-06-03T16:25:36Z</time>
</trkpt>
<trkpt lat="47.0392650185592" lon="7.629156732677895">
<ele>549.6394824218753</ele>
<time>2014-06-03T16:25:40Z</time>
</trkpt>
<trkpt lat="47.0393100185592" lon="7.6292537326778955">
<ele>549.6294824218753</ele>
<time>2014-06-03T16:25:41Z</time>
</trkpt>
<trkpt lat="47.039297018559196" lon="7.629453732677896">
<ele>549.9794824218753</ele>
<time>2014-06-03T16:25:45Z</time>
</trkpt>
<trkpt lat="47.039283018559196" lon="7.629694732677896">
<ele>550.3894824218753</ele>
<time>2014-06-03T16:25:49Z</time>
</trkpt>
<trkpt lat="47.0392680185592" lon="7.6299967326778955">
<ele>550.8694824218753</ele>
<time>2014-06-03T16:25:54Z</time>
</trkpt>
<trkpt lat="47.039213018559195" lon="7.630899732677896">
<ele>551.1194824218753</ele>
<time>2014-06-03T16:26:07Z</time>
</trkpt>
<trkpt lat="47.0391670185592" lon="7.630899732677896">
<ele>550.9994824218753</ele>
<time>2014-06-03T16:26:07Z</time>
</trkpt>
<trkpt lat="47.039131018559196" lon="7.631400732677895">
<ele>550.9944824218753</ele>
<time>2014-06-03T16:26:14Z</time>
</trkpt>
<trkpt lat="47.039109018559195" lon="7.631714732677896">
<ele>550.9894824218753</ele>
<time>2014-06-03T16:26:17Z</time>
</trkpt>
<trkpt lat="47.0390970185592" lon="7.631841732677896">
<ele>551.1094824218753</ele>
<time>2014-06-03T16:26:19Z</time>
</trkpt>
<trkpt lat="47.0390830185592" lon="7.6319797326778955">
<ele>551.2394824218753</ele>
<time>2014-06-03T16:26:22Z</time>
</trkpt>
<trkpt lat="47.039171018559195" lon="7.632203732677896">
<ele>551.6494824218753</ele>
<time>2014-06-03T16:26:25Z</time>
</trkpt>
<trkpt lat="47.0393700185592" lon="7.632558732677896">
<ele>551.8494824218753</ele>
<time>2014-06-03T16:26:32Z</time>
</trkpt>
<trkpt lat="47.039531018559195" lon="7.632844732677896">
<ele>551.8484824218754</ele>
<time>2014-06-03T16:26:36Z</time>
</trkpt>
<trkpt lat="47.03970901855919" lon="7.633036732677896">
<ele>551.3794824218753</ele>
<time>2014-06-03T16:26:39Z</time>
</trkpt>
<trkpt lat="47.03979401855919" lon="7.6331107326778955">
<ele>551.0594824218753</ele>
<time>2014-06-03T16:26:41Z</time>
</trkpt>
<trkpt lat="47.039880018559195" lon="7.6331867326778955">
<ele>550.6794824218753</ele>
<time>2014-06-03T16:26:42Z</time>
</trkpt>
<trkpt lat="47.03978001855919" lon="7.633214732677896">
<ele>551.0894824218752</ele>
<time>2014-06-03T16:26:47Z</time>
</trkpt>
<trkpt lat="47.036787018559195" lon="7.634071732677896">
<ele>557.5694824218753</ele>
<time>2014-06-03T16:28:38Z</time>
</trkpt>
<trkpt lat="47.03668101855919" lon="7.634102732677896">
<ele>558.4494824218752</ele>
<time>2014-06-03T16:28:43Z</time>
</trkpt>
<trkpt lat="47.03661201855919" lon="7.634140732677896">
<ele>558.4894824218752</ele>
<time>2014-06-03T16:28:47Z</time>
</trkpt>
<trkpt lat="47.036422018559186" lon="7.634284732677895">
<ele>558.0194824218752</ele>
<time>2014-06-03T16:28:52Z</time>
</trkpt>
<trkpt lat="47.03637101855919" lon="7.634462732677895">
<ele>558.5694824218751</ele>
<time>2014-06-03T16:28:57Z</time>
</trkpt>
<trkpt lat="47.03623201855919" lon="7.6348957326778955">
<ele>560.4284824218752</ele>
<time>2014-06-03T16:29:09Z</time>
</trkpt>
<trkpt lat="47.03615001855919" lon="7.635047732677895">
<ele>560.9884824218751</ele>
<time>2014-06-03T16:29:13Z</time>
</trkpt>
<trkpt lat="47.03488701855919" lon="7.635962732677895">
<ele>561.2884824218751</ele>
<time>2014-06-03T16:30:05Z</time>
</trkpt>
<trkpt lat="47.034421018559186" lon="7.6366247326778955">
<ele>562.6494824218751</ele>
<time>2014-06-03T16:30:29Z</time>
</trkpt>
<trkpt lat="47.03374701855919" lon="7.637779732677895">
<ele>562.4994824218751</ele>
<time>2014-06-03T16:30:59Z</time>
</trkpt>
<trkpt lat="47.03356901855919" lon="7.637873732677895">
<ele>562.2694824218751</ele>
<time>2014-06-03T16:31:05Z</time>
</trkpt>
<trkpt lat="47.02999001855919" lon="7.642108732677896">
<ele>566.5294824218751</ele>
<time>2014-06-03T16:33:30Z</time>
</trkpt>
<trkpt lat="47.02818201855919" lon="7.644380732677895">
<ele>566.2394824218751</ele>
<time>2014-06-03T16:34:46Z</time>
</trkpt>
<trkpt lat="47.027705018559196" lon="7.644934732677895">
<ele>565.4594824218751</ele>
<time>2014-06-03T16:35:02Z</time>
</trkpt>
<trkpt lat="47.027416018559194" lon="7.645111732677895">
<ele>565.8084824218752</ele>
<time>2014-06-03T16:35:11Z</time>
</trkpt>
<trkpt lat="47.02662001855919" lon="7.645584732677896">
<ele>564.7494824218752</ele>
<time>2014-06-03T16:35:36Z</time>
</trkpt>
<trkpt lat="47.026152018559195" lon="7.645764732677896">
<ele>565.0694824218753</ele>
<time>2014-06-03T16:35:51Z</time>
</trkpt>
<trkpt lat="47.025544018559195" lon="7.645884732677896">
<ele>564.9394824218753</ele>
<time>2014-06-03T16:36:09Z</time>
</trkpt>
<trkpt lat="47.02331601855919" lon="7.646203732677896">
<ele>564.9884824218752</ele>
<time>2014-06-03T16:37:15Z</time>
</trkpt>
<trkpt lat="47.02281901855919" lon="7.646305732677896">
<ele>564.8194824218753</ele>
<time>2014-06-03T16:37:30Z</time>
</trkpt>
<trkpt lat="47.02263301855919" lon="7.646348732677896">
<ele>564.8794824218752</ele>
<time>2014-06-03T16:37:34Z</time>
</trkpt>
<trkpt lat="47.02240401855919" lon="7.646497732677896">
<ele>565.3194824218753</ele>
<time>2014-06-03T16:37:40Z</time>
</trkpt>
<trkpt lat="47.022122018559195" lon="7.646697732677897">
<ele>566.0294824218753</ele>
<time>2014-06-03T16:37:47Z</time>
</trkpt>
<trkpt lat="47.021531018559195" lon="7.647187732677897">
<ele>567.3484824218752</ele>
<time>2014-06-03T16:38:04Z</time>
</trkpt>
<trkpt lat="47.021086018559195" lon="7.647612732677897">
<ele>566.9044824218753</ele>
<time>2014-06-03T16:38:16Z</time>
</trkpt>
<trkpt lat="47.021022018559194" lon="7.647673732677896">
<ele>566.4594824218752</ele>
<time>2014-06-03T16:38:18Z</time>
</trkpt>
<trkpt lat="47.020726018559195" lon="7.648205732677896">
<ele>567.9684824218753</ele>
<time>2014-06-03T16:38:29Z</time>
</trkpt>
<trkpt lat="47.02070701855919" lon="7.648261732677896">
<ele>568.1194824218752</ele>
<time>2014-06-03T16:38:30Z</time>
</trkpt>
<trkpt lat="47.02067901855919" lon="7.6483417326778955">
<ele>568.2894824218752</ele>
<time>2014-06-03T16:38:32Z</time>
</trkpt>
<trkpt lat="47.02061801855919" lon="7.648173732677895">
<ele>567.4494824218751</ele>
<time>2014-06-03T16:38:34Z</time>
</trkpt>
<trkpt lat="47.02043201855919" lon="7.6479857326778955">
<ele>566.4084824218751</ele>
<time>2014-06-03T16:38:37Z</time>
</trkpt>
<trkpt lat="47.02022001855919" lon="7.647901732677895">
<ele>565.8894824218751</ele>
<time>2014-06-03T16:38:40Z</time>
</trkpt>
<trkpt lat="47.01993901855919" lon="7.647730732677895">
<ele>565.5994824218751</ele>
<time>2014-06-03T16:38:44Z</time>
</trkpt>
<trkpt lat="47.01971701855919" lon="7.6475157326778955">
<ele>565.308482421875</ele>
<time>2014-06-03T16:38:49Z</time>
</trkpt>
<trkpt lat="47.01958501855919" lon="7.6473757326778955">
<ele>564.8594824218751</ele>
<time>2014-06-03T16:38:51Z</time>
</trkpt>
<trkpt lat="47.01946501855919" lon="7.6473437326778955">
<ele>564.5294824218751</ele>
<time>2014-06-03T16:38:53Z</time>
</trkpt>
<trkpt lat="47.019325018559186" lon="7.647755732677895">
<ele>564.319482421875</ele>
<time>2014-06-03T16:38:59Z</time>
</trkpt>
<trkpt lat="47.019128018559186" lon="7.648285732677896">
<ele>563.9084824218751</ele>
<time>2014-06-03T16:39:07Z</time>
</trkpt>
<trkpt lat="47.018501018559185" lon="7.649736732677896">
<ele>564.5894824218751</ele>
<time>2014-06-03T16:39:30Z</time>
</trkpt>
<trkpt lat="47.019128018559186" lon="7.648285732677896">
<ele>563.9084824218751</ele>
<time>2014-06-03T16:39:52Z</time>
</trkpt>
<trkpt lat="47.019325018559186" lon="7.647755732677895">
<ele>564.319482421875</ele>
<time>2014-06-03T16:39:59Z</time>
</trkpt>
<trkpt lat="47.01946501855919" lon="7.6473437326778955">
<ele>564.5294824218751</ele>
<time>2014-06-03T16:40:05Z</time>
</trkpt>
<trkpt lat="47.019404018559186" lon="7.647190732677895">
<ele>564.199482421875</ele>
<time>2014-06-03T16:40:07Z</time>
</trkpt>
<trkpt lat="47.01927601855919" lon="7.646967732677895">
<ele>563.619482421875</ele>
<time>2014-06-03T16:40:09Z</time>
</trkpt>
<trkpt lat="47.01911901855919" lon="7.646652732677896">
<ele>562.9294824218749</ele>
<time>2014-06-03T16:40:13Z</time>
</trkpt>
<trkpt lat="47.018903018559186" lon="7.646885732677895">
<ele>562.9494824218749</ele>
<time>2014-06-03T16:40:18Z</time>
</trkpt>
<trkpt lat="47.018827018559186" lon="7.646912732677896">
<ele>562.889482421875</ele>
<time>2014-06-03T16:40:19Z</time>
</trkpt>
<trkpt lat="47.018757018559185" lon="7.646987732677895">
<ele>562.889482421875</ele>
<time>2014-06-03T16:40:21Z</time>
</trkpt>
<trkpt lat="47.018690018559184" lon="7.647001732677896">
<ele>562.829482421875</ele>
<time>2014-06-03T16:40:22Z</time>
</trkpt>
<trkpt lat="47.01857301855918" lon="7.646941732677895">
<ele>562.619482421875</ele>
<time>2014-06-03T16:40:24Z</time>
</trkpt>
<trkpt lat="47.01819901855918" lon="7.646641732677895">
<ele>562.348482421875</ele>
<time>2014-06-03T16:40:33Z</time>
</trkpt>
<trkpt lat="47.01781701855918" lon="7.646806732677895">
<ele>563.199482421875</ele>
<time>2014-06-03T16:40:41Z</time>
</trkpt>
<trkpt lat="47.01764501855918" lon="7.646846732677895">
<ele>563.509482421875</ele>
<time>2014-06-03T16:40:45Z</time>
</trkpt>
<trkpt lat="47.01752701855918" lon="7.646878732677895">
<ele>563.699482421875</ele>
<time>2014-06-03T16:40:48Z</time>
</trkpt>
<trkpt lat="47.017193018559176" lon="7.646605732677895">
<ele>564.419482421875</ele>
<time>2014-06-03T16:40:57Z</time>
</trkpt>
<trkpt lat="47.016965018559176" lon="7.646812732677895">
<ele>564.468482421875</ele>
<time>2014-06-03T16:41:02Z</time>
</trkpt>
<trkpt lat="47.016718018559175" lon="7.646880732677895">
<ele>564.679482421875</ele>
<time>2014-06-03T16:41:07Z</time>
</trkpt>
<trkpt lat="47.016315018559176" lon="7.6469237326778945">
<ele>572.319482421875</ele>
<time>2014-06-03T16:41:40Z</time>
</trkpt>
<trkpt lat="47.01631401855918" lon="7.647723732677894">
<ele>571.348482421875</ele>
<time>2014-06-03T16:41:52Z</time>
</trkpt>
<trkpt lat="47.01634001855918" lon="7.648568732677894">
<ele>573.3894824218751</ele>
<time>2014-06-03T16:42:04Z</time>
</trkpt>
<trkpt lat="47.01635301855918" lon="7.648684732677895">
<ele>573.4744824218751</ele>
<time>2014-06-03T16:42:06Z</time>
</trkpt>
<trkpt lat="47.01634001855918" lon="7.648568732677894">
<ele>573.3894824218751</ele>
<time>2014-06-03T16:42:07Z</time>
</trkpt>
<trkpt lat="47.01631401855918" lon="7.647723732677894">
<ele>571.348482421875</ele>
<time>2014-06-03T16:42:18Z</time>
</trkpt>
<trkpt lat="47.016315018559176" lon="7.6469237326778945">
<ele>572.319482421875</ele>
<time>2014-06-03T16:42:28Z</time>
</trkpt>
<trkpt lat="47.016279018559175" lon="7.646447732677895">
<ele>574.358482421875</ele>
<time>2014-06-03T16:42:45Z</time>
</trkpt>
<trkpt lat="47.01620201855918" lon="7.646096732677894">
<ele>576.968482421875</ele>
<time>2014-06-03T16:42:58Z</time>
</trkpt>
<trkpt lat="47.01594301855918" lon="7.645529732677894">
<ele>583.598482421875</ele>
<time>2014-06-03T16:43:23Z</time>
</trkpt>
<trkpt lat="47.01583901855918" lon="7.645255732677894">
<ele>585.8894824218751</ele>
<time>2014-06-03T16:43:34Z</time>
</trkpt>
<trkpt lat="47.01582501855918" lon="7.645225732677894">
<ele>585.9594824218751</ele>
<time>2014-06-03T16:43:35Z</time>
</trkpt>
<trkpt lat="47.01580501855918" lon="7.645108732677894">
<ele>585.8484824218751</ele>
<time>2014-06-03T16:43:36Z</time>
</trkpt>
<trkpt lat="47.01581001855918" lon="7.644842732677894">
<ele>585.2984824218752</ele>
<time>2014-06-03T16:43:38Z</time>
</trkpt>
<trkpt lat="47.01603901855918" lon="7.643863732677894">
<ele>578.6294824218752</ele>
<time>2014-06-03T16:43:47Z</time>
</trkpt>
<trkpt lat="47.016000018559176" lon="7.643498732677894">
<ele>577.9594824218752</ele>
<time>2014-06-03T16:43:50Z</time>
</trkpt>
<trkpt lat="47.01598201855918" lon="7.6433707326778935">
<ele>577.6994824218752</ele>
<time>2014-06-03T16:43:51Z</time>
</trkpt>
<trkpt lat="47.01583601855918" lon="7.643404732677894">
<ele>579.3194824218753</ele>
<time>2014-06-03T16:43:54Z</time>
</trkpt>
<trkpt lat="47.01574801855918" lon="7.643409732677894">
<ele>578.9594824218752</ele>
<time>2014-06-03T16:43:56Z</time>
</trkpt>
<trkpt lat="47.01560701855918" lon="7.643378732677894">
<ele>578.1394824218752</ele>
<time>2014-06-03T16:43:59Z</time>
</trkpt>
<trkpt lat="47.01515001855918" lon="7.643222732677894">
<ele>575.1994824218751</ele>
<time>2014-06-03T16:44:08Z</time>
</trkpt>
<trkpt lat="47.014845018559186" lon="7.6431427326778945">
<ele>574.5384824218752</ele>
<time>2014-06-03T16:44:13Z</time>
</trkpt>
<trkpt lat="47.01464101855919" lon="7.643111732677895">
<ele>574.7494824218752</ele>
<time>2014-06-03T16:44:17Z</time>
</trkpt>
<trkpt lat="47.01440801855919" lon="7.643074732677895">
<ele>574.9994824218752</ele>
<time>2014-06-03T16:44:23Z</time>
</trkpt>
<trkpt lat="47.01403101855919" lon="7.6429527326778945">
<ele>575.6494824218752</ele>
<time>2014-06-03T16:44:32Z</time>
</trkpt>
<trkpt lat="47.013840018559186" lon="7.642773732677894">
<ele>576.0984824218751</ele>
<time>2014-06-03T16:44:38Z</time>
</trkpt>
<trkpt lat="47.013525018559186" lon="7.642522732677895">
<ele>577.1194824218751</ele>
<time>2014-06-03T16:44:48Z</time>
</trkpt>
<trkpt lat="47.01260101855919" lon="7.6417897326778945">
<ele>582.7794824218751</ele>
<time>2014-06-03T16:45:26Z</time>
</trkpt>
<trkpt lat="47.01127501855919" lon="7.640738732677894">
<ele>600.429482421875</ele>
<time>2014-06-03T16:46:46Z</time>
</trkpt>
<trkpt lat="47.01095701855919" lon="7.640498732677894">
<ele>604.618482421875</ele>
<time>2014-06-03T16:46:59Z</time>
</trkpt>
<trkpt lat="47.00867501855919" lon="7.638282732677895">
<ele>634.488482421875</ele>
<time>2014-06-03T16:48:39Z</time>
</trkpt>
<trkpt lat="47.00797601855919" lon="7.637362732677895">
<ele>641.718482421875</ele>
<time>2014-06-03T16:49:14Z</time>
</trkpt>
<trkpt lat="47.00725601855919" lon="7.636726732677895">
<ele>639.939482421875</ele>
<time>2014-06-03T16:49:44Z</time>
</trkpt>
<trkpt lat="47.00649601855919" lon="7.6362357326778945">
<ele>631.988482421875</ele>
<time>2014-06-03T16:50:15Z</time>
</trkpt>
<trkpt lat="47.00571601855919" lon="7.6353397326778945">
<ele>643.968482421875</ele>
<time>2014-06-03T16:50:51Z</time>
</trkpt>
<trkpt lat="47.00498201855919" lon="7.633784732677895">
<ele>658.079482421875</ele>
<time>2014-06-03T16:51:38Z</time>
</trkpt>
<trkpt lat="47.00473601855919" lon="7.632824732677895">
<ele>651.119482421875</ele>
<time>2014-06-03T16:52:04Z</time>
</trkpt>
<trkpt lat="47.00459101855919" lon="7.632261732677895">
<ele>644.158482421875</ele>
<time>2014-06-03T16:52:19Z</time>
</trkpt>
<trkpt lat="47.00283701855919" lon="7.629326732677895">
<ele>660.228482421875</ele>
<time>2014-06-03T16:53:56Z</time>
</trkpt>
<trkpt lat="47.001893018559194" lon="7.627374732677895">
<ele>662.859482421875</ele>
<time>2014-06-03T16:54:56Z</time>
</trkpt>
<trkpt lat="47.00161501855919" lon="7.626722732677895">
<ele>639.499482421875</ele>
<time>2014-06-03T16:55:02Z</time>
</trkpt>
<trkpt lat="47.00124701855919" lon="7.625390732677896">
<ele>647.079482421875</ele>
<time>2014-06-03T16:56:35Z</time>
</trkpt>
<trkpt lat="47.00064001855919" lon="7.623443732677895">
<ele>694.539482421875</ele>
<time>2014-06-03T16:58:59Z</time>
</trkpt>
<trkpt lat="47.00038101855919" lon="7.622122732677895">
<ele>675.848482421875</ele>
<time>2014-06-03T16:59:21Z</time>
</trkpt>
<trkpt lat="46.999929018559186" lon="7.620834732677896">
<ele>676.058482421875</ele>
<time>2014-06-03T16:59:43Z</time>
</trkpt>
<trkpt lat="46.999592018559184" lon="7.620045732677895">
<ele>681.1194824218751</ele>
<time>2014-06-03T16:59:57Z</time>
</trkpt>
<trkpt lat="46.99947201855918" lon="7.619782732677895">
<ele>681.929482421875</ele>
<time>2014-06-03T17:00:04Z</time>
</trkpt>
<trkpt lat="46.99932801855918" lon="7.619474732677895">
<ele>681.718482421875</ele>
<time>2014-06-03T17:00:11Z</time>
</trkpt>
<trkpt lat="46.99899301855918" lon="7.619095732677895">
<ele>683.069482421875</ele>
<time>2014-06-03T17:00:23Z</time>
</trkpt>
<trkpt lat="46.99795301855918" lon="7.618163732677895">
<ele>687.359482421875</ele>
<time>2014-06-03T17:00:57Z</time>
</trkpt>
<trkpt lat="46.99753001855918" lon="7.617767732677895">
<ele>687.569482421875</ele>
<time>2014-06-03T17:01:15Z</time>
</trkpt>
<trkpt lat="46.997065018559184" lon="7.617474732677895">
<ele>691.7794824218751</ele>
<time>2014-06-03T17:01:34Z</time>
</trkpt>
<trkpt lat="46.996752018559185" lon="7.617204732677894">
<ele>696.348482421875</ele>
<time>2014-06-03T17:01:47Z</time>
</trkpt>
<trkpt lat="46.996409018559184" lon="7.616686732677895">
<ele>698.499482421875</ele>
<time>2014-06-03T17:02:05Z</time>
</trkpt>
<trkpt lat="46.99633101855918" lon="7.616559732677895">
<ele>699.389482421875</ele>
<time>2014-06-03T17:02:09Z</time>
</trkpt>
<trkpt lat="46.99515701855918" lon="7.614661732677895">
<ele>700.259482421875</ele>
<time>2014-06-03T17:02:45Z</time>
</trkpt>
<trkpt lat="46.99478101855918" lon="7.613993732677895">
<ele>700.829482421875</ele>
<time>2014-06-03T17:02:57Z</time>
</trkpt>
<trkpt lat="46.99414401855918" lon="7.612866732677895">
<ele>700.2984824218751</ele>
<time>2014-06-03T17:03:34Z</time>
</trkpt>
<trkpt lat="46.99241401855918" lon="7.611072732677894">
<ele>707.8994824218751</ele>
<time>2014-06-03T17:04:51Z</time>
</trkpt>
<trkpt lat="46.99179701855918" lon="7.610737732677895">
<ele>716.218482421875</ele>
<time>2014-06-03T17:05:15Z</time>
</trkpt>
<trkpt lat="46.990485018559184" lon="7.609316732677895">
<ele>717.4284824218751</ele>
<time>2014-06-03T17:06:15Z</time>
</trkpt>
<trkpt lat="46.989615018559185" lon="7.607802732677895">
<ele>724.2594824218751</ele>
<time>2014-06-03T17:07:04Z</time>
</trkpt>
<trkpt lat="46.989134018559184" lon="7.606024732677895">
<ele>737.2694824218751</ele>
<time>2014-06-03T17:07:52Z</time>
</trkpt>
<trkpt lat="46.98908501855919" lon="7.604513732677895">
<ele>747.1784824218751</ele>
<time>2014-06-03T17:08:30Z</time>
</trkpt>
<trkpt lat="46.988695018559184" lon="7.602077732677895">
<ele>763.4894824218751</ele>
<time>2014-06-03T17:09:32Z</time>
</trkpt>
<trkpt lat="46.988582018559185" lon="7.601531732677895">
<ele>765.3194824218751</ele>
<time>2014-06-03T17:09:51Z</time>
</trkpt>
<trkpt lat="46.98825501855919" lon="7.599407732677895">
<ele>780.4594824218751</ele>
<time>2014-06-03T17:11:02Z</time>
</trkpt>
<trkpt lat="46.988652018559186" lon="7.597797732677894">
<ele>794.5194824218751</ele>
<time>2014-06-03T17:11:57Z</time>
</trkpt>
<trkpt lat="46.98866201855919" lon="7.596551732677894">
<ele>804.1684824218751</ele>
<time>2014-06-03T17:12:38Z</time>
</trkpt>
<trkpt lat="46.98880501855919" lon="7.595536732677894">
<ele>810.468482421875</ele>
<time>2014-06-03T17:13:11Z</time>
</trkpt>
<trkpt lat="46.98901601855919" lon="7.594395732677895">
<ele>816.2884824218751</ele>
<time>2014-06-03T17:13:50Z</time>
</trkpt>
<trkpt lat="46.98939601855919" lon="7.593565732677895">
<ele>822.3584824218751</ele>
<time>2014-06-03T17:14:22Z</time>
</trkpt>
<trkpt lat="46.98990301855919" lon="7.592580732677895">
<ele>831.5384824218751</ele>
<time>2014-06-03T17:15:02Z</time>
</trkpt>
<trkpt lat="46.99024401855919" lon="7.591198732677895">
<ele>838.7594824218751</ele>
<time>2014-06-03T17:15:50Z</time>
</trkpt>
<trkpt lat="46.99013601855919" lon="7.590172732677894">
<ele>841.319482421875</ele>
<time>2014-06-03T17:16:24Z</time>
</trkpt>
<trkpt lat="46.99006401855919" lon="7.589859732677894">
<ele>841.689482421875</ele>
<time>2014-06-03T17:16:30Z</time>
</trkpt>
<trkpt lat="46.989502018559186" lon="7.588744732677894">
<ele>844.079482421875</ele>
<time>2014-06-03T17:16:55Z</time>
</trkpt>
<trkpt lat="46.98893301855919" lon="7.5875557326778935">
<ele>843.889482421875</ele>
<time>2014-06-03T17:17:21Z</time>
</trkpt>
<trkpt lat="46.988545018559186" lon="7.586699732677894">
<ele>840.149482421875</ele>
<time>2014-06-03T17:17:39Z</time>
</trkpt>
<trkpt lat="46.98838301855918" lon="7.586464732677894">
<ele>837.618482421875</ele>
<time>2014-06-03T17:17:45Z</time>
</trkpt>
<trkpt lat="46.988104018559184" lon="7.586507732677894">
<ele>836.468482421875</ele>
<time>2014-06-03T17:17:53Z</time>
</trkpt>
<trkpt lat="46.98752501855918" lon="7.587219732677894">
<ele>841.319482421875</ele>
<time>2014-06-03T17:18:13Z</time>
</trkpt>
<trkpt lat="46.987189018559185" lon="7.587285732677894">
<ele>844.6584824218751</ele>
<time>2014-06-03T17:18:22Z</time>
</trkpt>
<trkpt lat="46.987017018559186" lon="7.587151732677894">
<ele>844.9594824218751</ele>
<time>2014-06-03T17:18:27Z</time>
</trkpt>
<trkpt lat="46.986865018559186" lon="7.586441732677894">
<ele>839.5484824218752</ele>
<time>2014-06-03T17:18:40Z</time>
</trkpt>
<trkpt lat="46.98679401855919" lon="7.585824732677894">
<ele>833.7384824218752</ele>
<time>2014-06-03T17:18:51Z</time>
</trkpt>
<trkpt lat="46.98665801855919" lon="7.585219732677894">
<ele>826.3794824218752</ele>
<time>2014-06-03T17:19:03Z</time>
</trkpt>
<trkpt lat="46.98654501855919" lon="7.583872732677894">
<ele>805.2884824218752</ele>
<time>2014-06-03T17:19:28Z</time>
</trkpt>
<trkpt lat="46.98628301855919" lon="7.583614732677894">
<ele>798.1184824218752</ele>
<time>2014-06-03T17:19:36Z</time>
</trkpt>
<trkpt lat="46.98595901855919" lon="7.583542732677894">
<ele>793.0094824218752</ele>
<time>2014-06-03T17:19:45Z</time>
</trkpt>
<trkpt lat="46.98543901855919" lon="7.5838387326778935">
<ele>798.1994824218752</ele>
<time>2014-06-03T17:20:00Z</time>
</trkpt>
<trkpt lat="46.98504801855919" lon="7.584515732677893">
<ele>808.3294824218752</ele>
<time>2014-06-03T17:20:16Z</time>
</trkpt>
<trkpt lat="46.98485701855919" lon="7.584735732677893">
<ele>814.5094824218752</ele>
<time>2014-06-03T17:20:23Z</time>
</trkpt>
<trkpt lat="46.98474901855919" lon="7.584421732677892">
<ele>812.6184824218752</ele>
<time>2014-06-03T17:20:29Z</time>
</trkpt>
<trkpt lat="46.98470201855919" lon="7.583657732677892">
<ele>801.6084824218752</ele>
<time>2014-06-03T17:20:43Z</time>
</trkpt>
<trkpt lat="46.98458601855919" lon="7.583280732677892">
<ele>798.4184824218752</ele>
<time>2014-06-03T17:20:50Z</time>
</trkpt>
<trkpt lat="46.984216018559195" lon="7.582979732677892">
<ele>802.7594824218752</ele>
<time>2014-06-03T17:21:02Z</time>
</trkpt>
<trkpt lat="46.983524018559194" lon="7.582734732677892">
<ele>805.6684824218752</ele>
<time>2014-06-03T17:21:20Z</time>
</trkpt>
<trkpt lat="46.98314501855919" lon="7.582305732677892">
<ele>805.0494824218752</ele>
<time>2014-06-03T17:21:33Z</time>
</trkpt>
<trkpt lat="46.98312501855919" lon="7.582298732677892">
<ele>806.3344824218751</ele>
<time>2014-06-03T17:21:34Z</time>
</trkpt>
<trkpt lat="46.98285801855919" lon="7.582218732677893">
<ele>807.6184824218751</ele>
<time>2014-06-03T17:21:44Z</time>
</trkpt>
<trkpt lat="46.981306018559195" lon="7.5818547326778924">
<ele>817.0384824218751</ele>
<time>2014-06-03T17:22:41Z</time>
</trkpt>
<trkpt lat="46.980937018559196" lon="7.581728732677893">
<ele>817.7394824218751</ele>
<time>2014-06-03T17:22:55Z</time>
</trkpt>
<trkpt lat="46.980636018559196" lon="7.581622732677893">
<ele>817.9494824218751</ele>
<time>2014-06-03T17:23:02Z</time>
</trkpt>
<trkpt lat="46.9798130185592" lon="7.581177732677893">
<ele>817.5984824218751</ele>
<time>2014-06-03T17:23:21Z</time>
</trkpt>
<trkpt lat="46.9791800185592" lon="7.580913732677893">
<ele>817.2884824218752</ele>
<time>2014-06-03T17:23:35Z</time>
</trkpt>
<trkpt lat="46.9786200185592" lon="7.580727732677893">
<ele>820.6894824218751</ele>
<time>2014-06-03T17:23:47Z</time>
</trkpt>
<trkpt lat="46.9778620185592" lon="7.579937732677893">
<ele>822.7284824218751</ele>
<time>2014-06-03T17:24:07Z</time>
</trkpt>
<trkpt lat="46.9773540185592" lon="7.579364732677893">
<ele>821.5984824218751</ele>
<time>2014-06-03T17:24:21Z</time>
</trkpt>
<trkpt lat="46.9772260185592" lon="7.579250732677893">
<ele>820.7384824218751</ele>
<time>2014-06-03T17:24:24Z</time>
</trkpt>
<trkpt lat="46.9771190185592" lon="7.579214732677893">
<ele>820.4494824218751</ele>
<time>2014-06-03T17:24:27Z</time>
</trkpt>
<trkpt lat="46.9766180185592" lon="7.579379732677893">
<ele>822.3794824218751</ele>
<time>2014-06-03T17:24:38Z</time>
</trkpt>
<trkpt lat="46.9763970185592" lon="7.579449732677893">
<ele>822.1994824218751</ele>
<time>2014-06-03T17:24:43Z</time>
</trkpt>
<trkpt lat="46.9760510185592" lon="7.579579732677893">
<ele>821.2884824218752</ele>
<time>2014-06-03T17:24:47Z</time>
</trkpt>
<trkpt lat="46.975644018559194" lon="7.5797337326778935">
<ele>818.4594824218752</ele>
<time>2014-06-03T17:24:52Z</time>
</trkpt>
<trkpt lat="46.97531501855919" lon="7.579808732677893">
<ele>815.0384824218752</ele>
<time>2014-06-03T17:24:56Z</time>
</trkpt>
<trkpt lat="46.97487901855919" lon="7.579707732677893">
<ele>810.4684824218751</ele>
<time>2014-06-03T17:25:01Z</time>
</trkpt>
<trkpt lat="46.974754018559196" lon="7.579653732677893">
<ele>809.0694824218751</ele>
<time>2014-06-03T17:25:02Z</time>
</trkpt>
<trkpt lat="46.9743930185592" lon="7.579497732677893">
<ele>805.3794824218751</ele>
<time>2014-06-03T17:25:06Z</time>
</trkpt>
<trkpt lat="46.9742520185592" lon="7.5794347326778935">
<ele>804.0894824218751</ele>
<time>2014-06-03T17:25:08Z</time>
</trkpt>
<trkpt lat="46.973921018559196" lon="7.579300732677893">
<ele>801.6184824218751</ele>
<time>2014-06-03T17:25:12Z</time>
</trkpt>
<trkpt lat="46.9735180185592" lon="7.579117732677894">
<ele>799.1084824218751</ele>
<time>2014-06-03T17:25:17Z</time>
</trkpt>
<trkpt lat="46.9733260185592" lon="7.579069732677894">
<ele>797.5694824218751</ele>
<time>2014-06-03T17:25:19Z</time>
</trkpt>
<trkpt lat="46.9731740185592" lon="7.579032732677894">
<ele>795.2594824218752</ele>
<time>2014-06-03T17:25:21Z</time>
</trkpt>
<trkpt lat="46.972947018559196" lon="7.578967732677894">
<ele>791.8294824218752</ele>
<time>2014-06-03T17:25:24Z</time>
</trkpt>
<trkpt lat="46.972661018559194" lon="7.578806732677894">
<ele>787.9494824218752</ele>
<time>2014-06-03T17:25:28Z</time>
</trkpt>
<trkpt lat="46.972244018559195" lon="7.578402732677894">
<ele>785.2594824218752</ele>
<time>2014-06-03T17:25:35Z</time>
</trkpt>
<trkpt lat="46.972010018559196" lon="7.578259732677894">
<ele>783.6684824218752</ele>
<time>2014-06-03T17:25:38Z</time>
</trkpt>
<trkpt lat="46.9714830185592" lon="7.578098732677894">
<ele>779.9284824218752</ele>
<time>2014-06-03T17:25:45Z</time>
</trkpt>
<trkpt lat="46.9712780185592" lon="7.5779807326778945">
<ele>779.0794824218751</ele>
<time>2014-06-03T17:25:48Z</time>
</trkpt>
<trkpt lat="46.9710290185592" lon="7.577776732677894">
<ele>777.6584824218751</ele>
<time>2014-06-03T17:25:52Z</time>
</trkpt>
<trkpt lat="46.9708530185592" lon="7.577583732677894">
<ele>776.2594824218751</ele>
<time>2014-06-03T17:25:55Z</time>
</trkpt>
<trkpt lat="46.970494018559194" lon="7.576864732677894">
<ele>774.6784824218751</ele>
<time>2014-06-03T17:26:03Z</time>
</trkpt>
<trkpt lat="46.9701580185592" lon="7.576049732677894">
<ele>775.2794824218751</ele>
<time>2014-06-03T17:26:12Z</time>
</trkpt>
<trkpt lat="46.9700330185592" lon="7.575684732677893">
<ele>775.819482421875</ele>
<time>2014-06-03T17:26:15Z</time>
</trkpt>
<trkpt lat="46.9699310185592" lon="7.575545732677893">
<ele>775.459482421875</ele>
<time>2014-06-03T17:26:17Z</time>
</trkpt>
<trkpt lat="46.9697480185592" lon="7.575373732677893">
<ele>774.728482421875</ele>
<time>2014-06-03T17:26:20Z</time>
</trkpt>
<trkpt lat="46.9696380185592" lon="7.5752987326778936">
<ele>774.2794824218751</ele>
<time>2014-06-03T17:26:22Z</time>
</trkpt>
<trkpt lat="46.9687370185592" lon="7.575008732677894">
<ele>767.2884824218751</ele>
<time>2014-06-03T17:26:34Z</time>
</trkpt>
<trkpt lat="46.9685100185592" lon="7.574858732677894">
<ele>765.1784824218751</ele>
<time>2014-06-03T17:26:37Z</time>
</trkpt>
<trkpt lat="46.9681590185592" lon="7.574547732677894">
<ele>763.1184824218751</ele>
<time>2014-06-03T17:26:42Z</time>
</trkpt>
<trkpt lat="46.967251018559196" lon="7.573313732677894">
<ele>759.3084824218752</ele>
<time>2014-06-03T17:26:59Z</time>
</trkpt>
<trkpt lat="46.96707501855919" lon="7.573152732677894">
<ele>758.7984824218752</ele>
<time>2014-06-03T17:27:02Z</time>
</trkpt>
<trkpt lat="46.966987018559195" lon="7.573120732677894">
<ele>758.2694824218752</ele>
<time>2014-06-03T17:27:03Z</time>
</trkpt>
<trkpt lat="46.9667020185592" lon="7.573077732677894">
<ele>756.1994824218751</ele>
<time>2014-06-03T17:27:07Z</time>
</trkpt>
<trkpt lat="46.9663630185592" lon="7.573044732677894">
<ele>754.2194824218751</ele>
<time>2014-06-03T17:27:11Z</time>
</trkpt>
<trkpt lat="46.9662840185592" lon="7.573034732677894">
<ele>753.7794824218751</ele>
<time>2014-06-03T17:27:12Z</time>
</trkpt>
<trkpt lat="46.9659420185592" lon="7.572964732677894">
<ele>751.978482421875</ele>
<time>2014-06-03T17:27:16Z</time>
</trkpt>
<trkpt lat="46.9658000185592" lon="7.572855732677894">
<ele>751.469482421875</ele>
<time>2014-06-03T17:27:18Z</time>
</trkpt>
<trkpt lat="46.9656620185592" lon="7.572659732677894">
<ele>751.069482421875</ele>
<time>2014-06-03T17:27:20Z</time>
</trkpt>
<trkpt lat="46.9652960185592" lon="7.572112732677894">
<ele>749.749482421875</ele>
<time>2014-06-03T17:27:26Z</time>
</trkpt>
<trkpt lat="46.9646150185592" lon="7.571164732677894">
<ele>742.499482421875</ele>
<time>2014-06-03T17:27:37Z</time>
</trkpt>
<trkpt lat="46.9643060185592" lon="7.570643732677894">
<ele>737.978482421875</ele>
<time>2014-06-03T17:27:42Z</time>
</trkpt>
<trkpt lat="46.9637590185592" lon="7.569644732677894">
<ele>728.1494824218751</ele>
<time>2014-06-03T17:27:52Z</time>
</trkpt>
<trkpt lat="46.9634890185592" lon="7.569094732677894">
<ele>720.7794824218751</ele>
<time>2014-06-03T17:27:57Z</time>
</trkpt>
<trkpt lat="46.963226018559205" lon="7.568368732677894">
<ele>714.089482421875</ele>
<time>2014-06-03T17:28:04Z</time>
</trkpt>
<trkpt lat="46.96310101855921" lon="7.568001732677894">
<ele>713.069482421875</ele>
<time>2014-06-03T17:28:07Z</time>
</trkpt>
<trkpt lat="46.96284701855921" lon="7.567341732677894">
<ele>710.219482421875</ele>
<time>2014-06-03T17:28:13Z</time>
</trkpt>
<trkpt lat="46.96271901855921" lon="7.567015732677894">
<ele>708.769482421875</ele>
<time>2014-06-03T17:28:16Z</time>
</trkpt>
<trkpt lat="46.962592018559214" lon="7.566666732677894">
<ele>707.209482421875</ele>
<time>2014-06-03T17:28:19Z</time>
</trkpt>
<trkpt lat="46.962459018559215" lon="7.566422732677894">
<ele>705.079482421875</ele>
<time>2014-06-03T17:28:21Z</time>
</trkpt>
<trkpt lat="46.96230101855922" lon="7.566240732677894">
<ele>702.709482421875</ele>
<time>2014-06-03T17:28:23Z</time>
</trkpt>
<trkpt lat="46.962116018559215" lon="7.566117732677894">
<ele>699.609482421875</ele>
<time>2014-06-03T17:28:26Z</time>
</trkpt>
<trkpt lat="46.96166101855921" lon="7.565860732677893">
<ele>691.8084824218749</ele>
<time>2014-06-03T17:28:31Z</time>
</trkpt>
<trkpt lat="46.961291018559216" lon="7.565631732677893">
<ele>686.749482421875</ele>
<time>2014-06-03T17:28:35Z</time>
</trkpt>
<trkpt lat="46.961173018559215" lon="7.565568732677893">
<ele>685.0594824218749</ele>
<time>2014-06-03T17:28:36Z</time>
</trkpt>
<trkpt lat="46.96106401855921" lon="7.565395732677893">
<ele>683.788482421875</ele>
<time>2014-06-03T17:28:38Z</time>
</trkpt>
<trkpt lat="46.960914018559215" lon="7.5650807326778935">
<ele>682.149482421875</ele>
<time>2014-06-03T17:28:41Z</time>
</trkpt>
<trkpt lat="46.96077501855922" lon="7.564755732677893">
<ele>681.269482421875</ele>
<time>2014-06-03T17:28:45Z</time>
</trkpt>
<trkpt lat="46.960720018559215" lon="7.564611732677894">
<ele>681.0394824218749</ele>
<time>2014-06-03T17:28:46Z</time>
</trkpt>
<trkpt lat="46.960689018559215" lon="7.564544732677894">
<ele>680.8194824218749</ele>
<time>2014-06-03T17:28:47Z</time>
</trkpt>
<trkpt lat="46.960596018559215" lon="7.564402732677894">
<ele>679.8394824218749</ele>
<time>2014-06-03T17:28:48Z</time>
</trkpt>
<trkpt lat="46.960349018559214" lon="7.564189732677894">
<ele>676.2194824218749</ele>
<time>2014-06-03T17:28:51Z</time>
</trkpt>
<trkpt lat="46.959969018559214" lon="7.563989732677894">
<ele>669.7094824218749</ele>
<time>2014-06-03T17:28:57Z</time>
</trkpt>
<trkpt lat="46.95975901855921" lon="7.563875732677894">
<ele>667.7884824218748</ele>
<time>2014-06-03T17:28:59Z</time>
</trkpt>
<trkpt lat="46.95952801855921" lon="7.563800732677894">
<ele>665.7184824218748</ele>
<time>2014-06-03T17:29:02Z</time>
</trkpt>
<trkpt lat="46.95930101855921" lon="7.563779732677894">
<ele>663.6784824218748</ele>
<time>2014-06-03T17:29:05Z</time>
</trkpt>
<trkpt lat="46.95875801855921" lon="7.563830732677894">
<ele>662.4994824218749</ele>
<time>2014-06-03T17:29:12Z</time>
</trkpt>
<trkpt lat="46.95847601855921" lon="7.563906732677894">
<ele>662.2594824218748</ele>
<time>2014-06-03T17:29:16Z</time>
</trkpt>
<trkpt lat="46.95824701855921" lon="7.563980732677893">
<ele>661.2294824218749</ele>
<time>2014-06-03T17:29:18Z</time>
</trkpt>
<trkpt lat="46.957891018559216" lon="7.564143732677893">
<ele>656.4994824218749</ele>
<time>2014-06-03T17:29:22Z</time>
</trkpt>
<trkpt lat="46.957376018559216" lon="7.5644197326778935">
<ele>647.4084824218749</ele>
<time>2014-06-03T17:29:28Z</time>
</trkpt>
<trkpt lat="46.957146018559214" lon="7.564441732677894">
<ele>644.9594824218749</ele>
<time>2014-06-03T17:29:31Z</time>
</trkpt>
<trkpt lat="46.95682101855922" lon="7.564355732677894">
<ele>641.9394824218749</ele>
<time>2014-06-03T17:29:34Z</time>
</trkpt>
<trkpt lat="46.956487018559216" lon="7.564241732677894">
<ele>639.3394824218749</ele>
<time>2014-06-03T17:29:38Z</time>
</trkpt>
<trkpt lat="46.956166018559216" lon="7.564075732677894">
<ele>638.3084824218749</ele>
<time>2014-06-03T17:29:42Z</time>
</trkpt>
<trkpt lat="46.955882018559215" lon="7.563732732677894">
<ele>636.288482421875</ele>
<time>2014-06-03T17:29:46Z</time>
</trkpt>
<trkpt lat="46.95539601855921" lon="7.562727732677894">
<ele>632.1894824218749</ele>
<time>2014-06-03T17:29:56Z</time>
</trkpt>
<trkpt lat="46.95510701855921" lon="7.562320732677894">
<ele>626.0894824218749</ele>
<time>2014-06-03T17:30:01Z</time>
</trkpt>
<trkpt lat="46.95476601855921" lon="7.561924732677894">
<ele>621.2184824218749</ele>
<time>2014-06-03T17:30:06Z</time>
</trkpt>
<trkpt lat="46.95463701855921" lon="7.561606732677894">
<ele>618.9594824218749</ele>
<time>2014-06-03T17:30:09Z</time>
</trkpt>
<trkpt lat="46.95457801855921" lon="7.561187732677894">
<ele>617.0194824218748</ele>
<time>2014-06-03T17:30:12Z</time>
</trkpt>
<trkpt lat="46.95449601855921" lon="7.560521732677894">
<ele>612.8194824218748</ele>
<time>2014-06-03T17:30:18Z</time>
</trkpt>
<trkpt lat="46.95442401855921" lon="7.559918732677894">
<ele>608.2984824218748</ele>
<time>2014-06-03T17:30:23Z</time>
</trkpt>
<trkpt lat="46.95434501855921" lon="7.559318732677894">
<ele>603.2094824218748</ele>
<time>2014-06-03T17:30:28Z</time>
</trkpt>
<trkpt lat="46.95425101855921" lon="7.558861732677894">
<ele>599.1084824218748</ele>
<time>2014-06-03T17:30:31Z</time>
</trkpt>
<trkpt lat="46.95419201855921" lon="7.558471732677893">
<ele>596.8484824218748</ele>
<time>2014-06-03T17:30:35Z</time>
</trkpt>
<trkpt lat="46.954149018559214" lon="7.557991732677894">
<ele>595.2184824218748</ele>
<time>2014-06-03T17:30:39Z</time>
</trkpt>
<trkpt lat="46.95410201855921" lon="7.5565347326778936">
<ele>591.5794824218748</ele>
<time>2014-06-03T17:30:50Z</time>
</trkpt>
<trkpt lat="46.95412301855921" lon="7.555906732677894">
<ele>590.0294824218748</ele>
<time>2014-06-03T17:30:55Z</time>
</trkpt>
<trkpt lat="46.954169018559206" lon="7.555096732677893">
<ele>588.2894824218748</ele>
<time>2014-06-03T17:31:02Z</time>
</trkpt>
<trkpt lat="46.954234018559205" lon="7.554307732677893">
<ele>586.8584824218748</ele>
<time>2014-06-03T17:31:10Z</time>
</trkpt>
<trkpt lat="46.95416801855921" lon="7.553472732677893">
<ele>583.2094824218748</ele>
<time>2014-06-03T17:31:19Z</time>
</trkpt>
<trkpt lat="46.95422901855921" lon="7.553118732677893">
<ele>583.9194824218748</ele>
<time>2014-06-03T17:31:23Z</time>
</trkpt>
<trkpt lat="46.954346018559214" lon="7.552938732677893">
<ele>586.0384824218748</ele>
<time>2014-06-03T17:31:27Z</time>
</trkpt>
<trkpt lat="46.95471601855921" lon="7.552552732677893">
<ele>591.1294824218749</ele>
<time>2014-06-03T17:31:37Z</time>
</trkpt>
<trkpt lat="46.95494101855921" lon="7.552240732677893">
<ele>590.7884824218748</ele>
<time>2014-06-03T17:31:44Z</time>
</trkpt>
<trkpt lat="46.95517701855921" lon="7.551844732677893">
<ele>588.7694824218748</ele>
<time>2014-06-03T17:31:52Z</time>
</trkpt>
<trkpt lat="46.955384018559215" lon="7.551410732677892">
<ele>587.2284824218748</ele>
<time>2014-06-03T17:32:00Z</time>
</trkpt>
<trkpt lat="46.955666018559214" lon="7.5503507326778925">
<ele>580.0294824218748</ele>
<time>2014-06-03T17:32:18Z</time>
</trkpt>
<trkpt lat="46.95570301855921" lon="7.550158732677892">
<ele>579.3594824218749</ele>
<time>2014-06-03T17:32:21Z</time>
</trkpt>
<trkpt lat="46.95567901855921" lon="7.549952732677892">
<ele>578.6194824218749</ele>
<time>2014-06-03T17:32:23Z</time>
</trkpt>
<trkpt lat="46.95564701855921" lon="7.549844732677892">
<ele>578.5094824218748</ele>
<time>2014-06-03T17:32:24Z</time>
</trkpt>
<trkpt lat="46.95561601855921" lon="7.5497847326778915">
<ele>578.4084824218749</ele>
<time>2014-06-03T17:32:25Z</time>
</trkpt>
<trkpt lat="46.95550301855921" lon="7.549671732677892">
<ele>578.0494824218748</ele>
<time>2014-06-03T17:32:27Z</time>
</trkpt>
<trkpt lat="46.95537101855921" lon="7.549580732677891">
<ele>577.6084824218748</ele>
<time>2014-06-03T17:32:28Z</time>
</trkpt>
<trkpt lat="46.954951018559214" lon="7.549272732677891">
<ele>576.2494824218747</ele>
<time>2014-06-03T17:32:35Z</time>
</trkpt>
<trkpt lat="46.954731018559215" lon="7.549108732677891">
<ele>576.5294824218747</ele>
<time>2014-06-03T17:32:40Z</time>
</trkpt>
<trkpt lat="46.954498018559214" lon="7.5489077326778915">
<ele>576.5194824218747</ele>
<time>2014-06-03T17:32:45Z</time>
</trkpt>
<trkpt lat="46.95433501855921" lon="7.5487867326778915">
<ele>576.4084824218747</ele>
<time>2014-06-03T17:32:48Z</time>
</trkpt>
<trkpt lat="46.954269018559216" lon="7.5487427326778915">
<ele>576.3594824218748</ele>
<time>2014-06-03T17:32:49Z</time>
</trkpt>
<trkpt lat="46.95428301855922" lon="7.548692732677892">
<ele>576.1784824218747</ele>
<time>2014-06-03T17:32:50Z</time>
</trkpt>
<trkpt lat="46.95427401855922" lon="7.548586732677892">
<ele>575.8294824218747</ele>
<time>2014-06-03T17:32:50Z</time>
</trkpt>
<trkpt lat="46.95425201855922" lon="7.548542732677892">
<ele>575.6994824218747</ele>
<time>2014-06-03T17:32:51Z</time>
</trkpt>
<trkpt lat="46.954211018559214" lon="7.548379732677892">
<ele>575.1584824218746</ele>
<time>2014-06-03T17:32:52Z</time>
</trkpt>
<trkpt lat="46.954196018559216" lon="7.548292732677893">
<ele>574.8584824218747</ele>
<time>2014-06-03T17:32:53Z</time>
</trkpt>
<trkpt lat="46.95415801855921" lon="7.5480507326778925">
<ele>573.9294824218747</ele>
<time>2014-06-03T17:32:55Z</time>
</trkpt>
<trkpt lat="46.95420901855921" lon="7.547582732677893">
<ele>572.3394824218747</ele>
<time>2014-06-03T17:32:59Z</time>
</trkpt>
<trkpt lat="46.954222018559214" lon="7.547124732677893">
<ele>570.7794824218747</ele>
<time>2014-06-03T17:33:03Z</time>
</trkpt>
<trkpt lat="46.954148018559216" lon="7.546618732677893">
<ele>568.5894824218747</ele>
<time>2014-06-03T17:33:07Z</time>
</trkpt>
<trkpt lat="46.95409601855922" lon="7.546436732677893">
<ele>567.2894824218747</ele>
<time>2014-06-03T17:33:08Z</time>
</trkpt>
<trkpt lat="46.95370701855922" lon="7.5455987326778935">
<ele>561.9884824218747</ele>
<time>2014-06-03T17:33:17Z</time>
</trkpt>
<trkpt lat="46.95350001855922" lon="7.545205732677894">
<ele>560.6994824218747</ele>
<time>2014-06-03T17:33:21Z</time>
</trkpt>
<trkpt lat="46.953096018559215" lon="7.544654732677894">
<ele>560.3494824218747</ele>
<time>2014-06-03T17:33:29Z</time>
</trkpt>
<trkpt lat="46.95295701855922" lon="7.544465732677894">
<ele>559.9994824218746</ele>
<time>2014-06-03T17:33:32Z</time>
</trkpt>
<trkpt lat="46.952820018559215" lon="7.544232732677894">
<ele>559.9994824218746</ele>
<time>2014-06-03T17:33:36Z</time>
</trkpt>
<trkpt lat="46.95257901855921" lon="7.543563732677894">
<ele>559.9994824218746</ele>
<time>2014-06-03T17:33:45Z</time>
</trkpt>
<trkpt lat="46.95254001855921" lon="7.543289732677894">
<ele>560.0094824218746</ele>
<time>2014-06-03T17:33:48Z</time>
</trkpt>
<trkpt lat="46.95250601855921" lon="7.542950732677894">
<ele>560.0094824218746</ele>
<time>2014-06-03T17:33:53Z</time>
</trkpt>
<trkpt lat="46.95251201855921" lon="7.542746732677894">
<ele>560.0194824218746</ele>
<time>2014-06-03T17:33:55Z</time>
</trkpt>
<trkpt lat="46.95254001855921" lon="7.542374732677894">
<ele>560.2594824218746</ele>
<time>2014-06-03T17:34:00Z</time>
</trkpt>
<trkpt lat="46.952567018559215" lon="7.542172732677894">
<ele>560.6184824218747</ele>
<time>2014-06-03T17:34:04Z</time>
</trkpt>
<trkpt lat="46.95265301855922" lon="7.541746732677894">
<ele>561.6094824218746</ele>
<time>2014-06-03T17:34:12Z</time>
</trkpt>
<trkpt lat="46.95274901855922" lon="7.541271732677894">
<ele>563.1394824218746</ele>
<time>2014-06-03T17:34:23Z</time>
</trkpt>
<trkpt lat="46.95287501855922" lon="7.540715732677895">
<ele>564.9994824218746</ele>
<time>2014-06-03T17:34:36Z</time>
</trkpt>
<trkpt lat="46.95299801855922" lon="7.540712732677894">
<ele>565.6184824218747</ele>
<time>2014-06-03T17:34:40Z</time>
</trkpt>
<trkpt lat="46.953357018559224" lon="7.540531732677894">
<ele>567.8894824218746</ele>
<time>2014-06-03T17:34:54Z</time>
</trkpt>
<trkpt lat="46.953511018559226" lon="7.540284732677894">
<ele>569.5984824218746</ele>
<time>2014-06-03T17:34:58Z</time>
</trkpt>
<trkpt lat="46.95355801855923" lon="7.5400267326778945">
<ele>570.5484824218746</ele>
<time>2014-06-03T17:35:02Z</time>
</trkpt>
<trkpt lat="46.95354001855923" lon="7.539546732677895">
<ele>570.2184824218746</ele>
<time>2014-06-03T17:35:08Z</time>
</trkpt>
<trkpt lat="46.95355801855923" lon="7.539091732677895">
<ele>569.9784824218746</ele>
<time>2014-06-03T17:35:13Z</time>
</trkpt>
<trkpt lat="46.95392701855923" lon="7.537975732677896">
<ele>568.9494824218746</ele>
<time>2014-06-03T17:35:29Z</time>
</trkpt>
<trkpt lat="46.95433701855923" lon="7.537194732677896">
<ele>566.1584824218745</ele>
<time>2014-06-03T17:35:41Z</time>
</trkpt>
<trkpt lat="46.95451901855923" lon="7.536936732677896">
<ele>565.6184824218745</ele>
<time>2014-06-03T17:35:46Z</time>
</trkpt>
<trkpt lat="46.95458901855923" lon="7.536836732677896">
<ele>565.3694824218745</ele>
<time>2014-06-03T17:35:47Z</time>
</trkpt>
<trkpt lat="46.95482901855923" lon="7.536559732677897">
<ele>565.1294824218745</ele>
<time>2014-06-03T17:35:52Z</time>
</trkpt>
<trkpt lat="46.95560501855923" lon="7.535668732677896">
<ele>564.4394824218745</ele>
<time>2014-06-03T17:36:08Z</time>
</trkpt>
<trkpt lat="46.955807018559234" lon="7.535400732677896">
<ele>563.7794824218745</ele>
<time>2014-06-03T17:36:12Z</time>
</trkpt>
<trkpt lat="46.95596901855924" lon="7.535102732677896">
<ele>562.9184824218745</ele>
<time>2014-06-03T17:36:16Z</time>
</trkpt>
<trkpt lat="46.956043018559235" lon="7.534921732677896">
<ele>562.5194824218745</ele>
<time>2014-06-03T17:36:19Z</time>
</trkpt>
<trkpt lat="46.95606401855923" lon="7.534764732677896">
<ele>562.1894824218745</ele>
<time>2014-06-03T17:36:20Z</time>
</trkpt>
<trkpt lat="46.95605501855923" lon="7.534705732677896">
<ele>561.9494824218744</ele>
<time>2014-06-03T17:36:21Z</time>
</trkpt>
<trkpt lat="46.95643901855923" lon="7.534274732677896">
<ele>561.4284824218745</ele>
<time>2014-06-03T17:36:31Z</time>
</trkpt>
<trkpt lat="46.95721501855923" lon="7.533434732677896">
<ele>563.3194824218745</ele>
<time>2014-06-03T17:36:50Z</time>
</trkpt>
<trkpt lat="46.95736201855923" lon="7.533237732677896">
<ele>563.0484824218745</ele>
<time>2014-06-03T17:36:54Z</time>
</trkpt>
<trkpt lat="46.95746901855923" lon="7.533051732677896">
<ele>562.8794824218745</ele>
<time>2014-06-03T17:36:57Z</time>
</trkpt>
<trkpt lat="46.95757001855923" lon="7.532782732677895">
<ele>563.1794824218745</ele>
<time>2014-06-03T17:37:01Z</time>
</trkpt>
<trkpt lat="46.95763101855923" lon="7.532570732677895">
<ele>563.3294824218744</ele>
<time>2014-06-03T17:37:04Z</time>
</trkpt>
<trkpt lat="46.95765401855923" lon="7.532458732677895">
<ele>563.3194824218745</ele>
<time>2014-06-03T17:37:06Z</time>
</trkpt>
<trkpt lat="46.95777301855923" lon="7.531461732677895">
<ele>562.7884824218745</ele>
<time>2014-06-03T17:37:17Z</time>
</trkpt>
<trkpt lat="46.95778301855923" lon="7.531370732677895">
<ele>562.8094824218745</ele>
<time>2014-06-03T17:37:18Z</time>
</trkpt>
<trkpt lat="46.957822018559234" lon="7.531013732677895">
<ele>562.8694824218744</ele>
<time>2014-06-03T17:37:22Z</time>
</trkpt>
<trkpt lat="46.95784301855923" lon="7.530850732677895">
<ele>562.8994824218744</ele>
<time>2014-06-03T17:37:24Z</time>
</trkpt>
<trkpt lat="46.95796201855923" lon="7.529523732677895">
<ele>561.5794824218743</ele>
<time>2014-06-03T17:37:38Z</time>
</trkpt>
<trkpt lat="46.95796701855923" lon="7.529383732677895">
<ele>561.4094824218744</ele>
<time>2014-06-03T17:37:40Z</time>
</trkpt>
<trkpt lat="46.95797201855923" lon="7.529255732677895">
<ele>561.2594824218744</ele>
<time>2014-06-03T17:37:41Z</time>
</trkpt>
<trkpt lat="46.957974018559234" lon="7.529014732677895">
<ele>561.0294824218744</ele>
<time>2014-06-03T17:37:43Z</time>
</trkpt>
<trkpt lat="46.957974018559234" lon="7.528219732677895">
<ele>560.4894824218744</ele>
<time>2014-06-03T17:37:52Z</time>
</trkpt>
<trkpt lat="46.957963018559234" lon="7.527641732677895">
<ele>560.0894824218744</ele>
<time>2014-06-03T17:37:58Z</time>
</trkpt>
<trkpt lat="46.95797001855923" lon="7.527351732677896">
<ele>559.9994824218744</ele>
<time>2014-06-03T17:38:01Z</time>
</trkpt>
<trkpt lat="46.95797701855923" lon="7.5269887326778955">
<ele>559.9994824218744</ele>
<time>2014-06-03T17:38:05Z</time>
</trkpt>
<trkpt lat="46.957983018559226" lon="7.526723732677896">
<ele>559.9994824218744</ele>
<time>2014-06-03T17:38:09Z</time>
</trkpt>
<trkpt lat="46.95799901855923" lon="7.526590732677896">
<ele>559.9994824218744</ele>
<time>2014-06-03T17:38:10Z</time>
</trkpt>
<trkpt lat="46.958028018559226" lon="7.526411732677896">
<ele>559.9994824218744</ele>
<time>2014-06-03T17:38:13Z</time>
</trkpt>
<trkpt lat="46.958130018559224" lon="7.525828732677896">
<ele>559.9994824218744</ele>
<time>2014-06-03T17:38:20Z</time>
</trkpt>
<trkpt lat="46.95834501855922" lon="7.525253732677895">
<ele>560.0194824218744</ele>
<time>2014-06-03T17:38:28Z</time>
</trkpt>
<trkpt lat="46.95837601855922" lon="7.525145732677895">
<ele>560.0594824218743</ele>
<time>2014-06-03T17:38:30Z</time>
</trkpt>
<trkpt lat="46.95842401855922" lon="7.524937732677896">
<ele>560.1084824218743</ele>
<time>2014-06-03T17:38:32Z</time>
</trkpt>
<trkpt lat="46.95849501855922" lon="7.524446732677895">
<ele>560.1894824218743</ele>
<time>2014-06-03T17:38:39Z</time>
</trkpt>
<trkpt lat="46.958544018559216" lon="7.524223732677895">
<ele>560.2494824218743</ele>
<time>2014-06-03T17:38:42Z</time>
</trkpt>
<trkpt lat="46.95857701855922" lon="7.524045732677895">
<ele>560.2494824218743</ele>
<time>2014-06-03T17:38:44Z</time>
</trkpt>
<trkpt lat="46.95863301855922" lon="7.523831732677896">
<ele>560.2194824218743</ele>
<time>2014-06-03T17:38:46Z</time>
</trkpt>
<trkpt lat="46.95868901855922" lon="7.523616732677896">
<ele>560.1494824218743</ele>
<time>2014-06-03T17:38:49Z</time>
</trkpt>
<trkpt lat="46.95874001855922" lon="7.523312732677896">
<ele>559.9994824218743</ele>
<time>2014-06-03T17:38:53Z</time>
</trkpt>
<trkpt lat="46.95876001855922" lon="7.522976732677896">
<ele>559.9994824218743</ele>
<time>2014-06-03T17:38:57Z</time>
</trkpt>
<trkpt lat="46.95876801855922" lon="7.522582732677896">
<ele>559.9994824218743</ele>
<time>2014-06-03T17:39:01Z</time>
</trkpt>
<trkpt lat="46.95876801855922" lon="7.522152732677896">
<ele>559.9994824218743</ele>
<time>2014-06-03T17:39:06Z</time>
</trkpt>
<trkpt lat="46.958772018559216" lon="7.521681732677896">
<ele>559.9994824218743</ele>
<time>2014-06-03T17:39:13Z</time>
</trkpt>
<trkpt lat="46.958770018559214" lon="7.521275732677896">
<ele>559.9994824218743</ele>
<time>2014-06-03T17:39:18Z</time>
</trkpt>
<trkpt lat="46.958787018559214" lon="7.521056732677896">
<ele>559.9994824218743</ele>
<time>2014-06-03T17:39:21Z</time>
</trkpt>
<trkpt lat="46.95886701855921" lon="7.520487732677896">
<ele>560.2694824218743</ele>
<time>2014-06-03T17:39:28Z</time>
</trkpt>
<trkpt lat="46.95890201855921" lon="7.520251732677896">
<ele>560.4794824218743</ele>
<time>2014-06-03T17:39:31Z</time>
</trkpt>
<trkpt lat="46.95902901855921" lon="7.520112732677896">
<ele>560.7184824218743</ele>
<time>2014-06-03T17:39:37Z</time>
</trkpt>
<trkpt lat="46.959204018559205" lon="7.519589732677896">
<ele>561.7594824218744</ele>
<time>2014-06-03T17:39:52Z</time>
</trkpt>
<trkpt lat="46.959396018559204" lon="7.519165732677896">
<ele>563.6494824218744</ele>
<time>2014-06-03T17:40:04Z</time>
</trkpt>
<trkpt lat="46.9595960185592" lon="7.518794732677896">
<ele>565.5384824218744</ele>
<time>2014-06-03T17:40:16Z</time>
</trkpt>
<trkpt lat="46.9597790185592" lon="7.518529732677896">
<ele>567.1794824218744</ele>
<time>2014-06-03T17:40:26Z</time>
</trkpt>
<trkpt lat="46.959953018559204" lon="7.518390732677896">
<ele>568.5984824218743</ele>
<time>2014-06-03T17:40:31Z</time>
</trkpt>
<trkpt lat="46.96003901855921" lon="7.5182847326778965">
<ele>569.3194824218743</ele>
<time>2014-06-03T17:40:34Z</time>
</trkpt>
<trkpt lat="46.960122018559204" lon="7.518116732677896">
<ele>569.9884824218743</ele>
<time>2014-06-03T17:40:38Z</time>
</trkpt>
<trkpt lat="46.960240018559205" lon="7.517832732677896">
<ele>570.8494824218743</ele>
<time>2014-06-03T17:40:44Z</time>
</trkpt>
<trkpt lat="46.960442018559206" lon="7.517341732677896">
<ele>571.7094824218743</ele>
<time>2014-06-03T17:40:55Z</time>
</trkpt>
<trkpt lat="46.96060701855921" lon="7.516950732677897">
<ele>571.5694824218743</ele>
<time>2014-06-03T17:41:04Z</time>
</trkpt>
<trkpt lat="46.96065701855921" lon="7.516831732677897">
<ele>571.4894824218743</ele>
<time>2014-06-03T17:41:06Z</time>
</trkpt>
<trkpt lat="46.960757018559214" lon="7.516591732677897">
<ele>571.0094824218743</ele>
<time>2014-06-03T17:41:08Z</time>
</trkpt>
<trkpt lat="46.961117018559214" lon="7.515722732677897">
<ele>566.9994824218743</ele>
<time>2014-06-03T17:41:17Z</time>
</trkpt>
<trkpt lat="46.96124501855921" lon="7.515414732677897">
<ele>565.7094824218743</ele>
<time>2014-06-03T17:41:20Z</time>
</trkpt>
<trkpt lat="46.96132801855921" lon="7.515244732677897">
<ele>565.0194824218743</ele>
<time>2014-06-03T17:41:24Z</time>
</trkpt>
<trkpt lat="46.96141401855921" lon="7.5151207326778975">
<ele>564.6184824218743</ele>
<time>2014-06-03T17:41:27Z</time>
</trkpt>
<trkpt lat="46.96151601855921" lon="7.515023732677897">
<ele>564.4494824218743</ele>
<time>2014-06-03T17:41:29Z</time>
</trkpt>
<trkpt lat="46.96163701855921" lon="7.514938732677897">
<ele>564.5694824218743</ele>
<time>2014-06-03T17:41:33Z</time>
</trkpt>
<trkpt lat="46.96178101855921" lon="7.514872732677897">
<ele>565.4494824218743</ele>
<time>2014-06-03T17:41:36Z</time>
</trkpt>
<trkpt lat="46.96198101855921" lon="7.514726732677897">
<ele>566.4594824218743</ele>
<time>2014-06-03T17:41:41Z</time>
</trkpt>
<trkpt lat="46.962134018559205" lon="7.514583732677897">
<ele>566.9294824218744</ele>
<time>2014-06-03T17:41:46Z</time>
</trkpt>
<trkpt lat="46.9628720185592" lon="7.514021732677897">
<ele>571.7694824218744</ele>
<time>2014-06-03T17:42:22Z</time>
</trkpt>
<trkpt lat="46.963088018559205" lon="7.513865732677897">
<ele>575.0984824218743</ele>
<time>2014-06-03T17:42:32Z</time>
</trkpt>
<trkpt lat="46.9633840185592" lon="7.513742732677897">
<ele>579.8684824218743</ele>
<time>2014-06-03T17:42:46Z</time>
</trkpt>
<trkpt lat="46.9637950185592" lon="7.513653732677897">
<ele>583.3294824218743</ele>
<time>2014-06-03T17:43:04Z</time>
</trkpt>
<trkpt lat="46.964200018559204" lon="7.513482732677897">
<ele>587.9084824218743</ele>
<time>2014-06-03T17:43:22Z</time>
</trkpt>
<trkpt lat="46.9644850185592" lon="7.513246732677897">
<ele>587.5894824218743</ele>
<time>2014-06-03T17:43:36Z</time>
</trkpt>
<trkpt lat="46.9646460185592" lon="7.512989732677896">
<ele>588.9294824218744</ele>
<time>2014-06-03T17:43:46Z</time>
</trkpt>
<trkpt lat="46.9646540185592" lon="7.512748732677896">
<ele>591.7384824218743</ele>
<time>2014-06-03T17:43:53Z</time>
</trkpt>
<trkpt lat="46.9649600185592" lon="7.512146732677897">
<ele>593.7284824218743</ele>
<time>2014-06-03T17:44:15Z</time>
</trkpt>
<trkpt lat="46.965137018559204" lon="7.511723732677897">
<ele>594.7884824218743</ele>
<time>2014-06-03T17:44:30Z</time>
</trkpt>
<trkpt lat="46.96525701855921" lon="7.511511732677897">
<ele>592.6894824218742</ele>
<time>2014-06-03T17:44:38Z</time>
</trkpt>
<trkpt lat="46.9654300185592" lon="7.511245732677897">
<ele>589.8894824218743</ele>
<time>2014-06-03T17:44:45Z</time>
</trkpt>
<trkpt lat="46.965764018559206" lon="7.510739732677897">
<ele>587.7794824218743</ele>
<time>2014-06-03T17:44:58Z</time>
</trkpt>
<trkpt lat="46.966037018559206" lon="7.510393732677897">
<ele>588.0484824218743</ele>
<time>2014-06-03T17:45:07Z</time>
</trkpt>
<trkpt lat="46.966254018559205" lon="7.510056732677897">
<ele>588.6294824218743</ele>
<time>2014-06-03T17:45:15Z</time>
</trkpt>
<trkpt lat="46.96652301855921" lon="7.509766732677897">
<ele>588.5584824218743</ele>
<time>2014-06-03T17:45:24Z</time>
</trkpt>
<trkpt lat="46.96689701855921" lon="7.509449732677897">
<ele>588.5094824218743</ele>
<time>2014-06-03T17:45:36Z</time>
</trkpt>
<trkpt lat="46.96731501855921" lon="7.508922732677897">
<ele>586.8484824218743</ele>
<time>2014-06-03T17:45:50Z</time>
</trkpt>
<trkpt lat="46.96760001855921" lon="7.5085057326778974">
<ele>585.7394824218743</ele>
<time>2014-06-03T17:46:01Z</time>
</trkpt>
<trkpt lat="46.96797301855921" lon="7.508006732677898">
<ele>586.4594824218743</ele>
<time>2014-06-03T17:46:18Z</time>
</trkpt>
<trkpt lat="46.96816201855921" lon="7.507789732677898">
<ele>586.7994824218744</ele>
<time>2014-06-03T17:46:26Z</time>
</trkpt>
<trkpt lat="46.96842401855921" lon="7.507532732677897">
<ele>587.8084824218744</ele>
<time>2014-06-03T17:46:38Z</time>
</trkpt>
<trkpt lat="46.96870501855921" lon="7.507344732677898">
<ele>591.2884824218744</ele>
<time>2014-06-03T17:46:51Z</time>
</trkpt>
<trkpt lat="46.969070018559215" lon="7.507167732677898">
<ele>596.6994824218743</ele>
<time>2014-06-03T17:47:06Z</time>
</trkpt>
<trkpt lat="46.96931101855922" lon="7.507022732677898">
<ele>599.3294824218743</ele>
<time>2014-06-03T17:47:16Z</time>
</trkpt>
<trkpt lat="46.96964901855922" lon="7.506681732677898">
<ele>602.3994824218744</ele>
<time>2014-06-03T17:47:33Z</time>
</trkpt>
<trkpt lat="46.969976018559215" lon="7.506463732677898">
<ele>604.6894824218743</ele>
<time>2014-06-03T17:47:47Z</time>
</trkpt>
<trkpt lat="46.969999018559214" lon="7.506448732677898">
<ele>606.9784824218743</ele>
<time>2014-06-03T17:47:48Z</time>
</trkpt>
<trkpt lat="46.970376018559215" lon="7.506106732677898">
<ele>611.2184824218743</ele>
<time>2014-06-03T17:48:06Z</time>
</trkpt>
<trkpt lat="46.97058501855921" lon="7.505680732677898">
<ele>614.0984824218743</ele>
<time>2014-06-03T17:48:20Z</time>
</trkpt>
<trkpt lat="46.97078601855921" lon="7.505130732677898">
<ele>617.1784824218744</ele>
<time>2014-06-03T17:48:37Z</time>
</trkpt>
<trkpt lat="46.97110001855921" lon="7.5046117326778985">
<ele>618.6394824218744</ele>
<time>2014-06-03T17:48:56Z</time>
</trkpt>
<trkpt lat="46.97131201855921" lon="7.5043067326778985">
<ele>618.9284824218744</ele>
<time>2014-06-03T17:49:07Z</time>
</trkpt>
<trkpt lat="46.97181801855921" lon="7.503681732677898">
<ele>617.2284824218743</ele>
<time>2014-06-03T17:49:33Z</time>
</trkpt>
<trkpt lat="46.971927018559214" lon="7.503559732677898">
<ele>615.8194824218743</ele>
<time>2014-06-03T17:49:39Z</time>
</trkpt>
<trkpt lat="46.97202601855921" lon="7.503499732677898">
<ele>614.5094824218744</ele>
<time>2014-06-03T17:49:40Z</time>
</trkpt>
<trkpt lat="46.97216801855921" lon="7.503414732677897">
<ele>612.5584824218744</ele>
<time>2014-06-03T17:49:43Z</time>
</trkpt>
<trkpt lat="46.97250201855921" lon="7.503261732677897">
<ele>607.8194824218743</ele>
<time>2014-06-03T17:49:47Z</time>
</trkpt>
<trkpt lat="46.97269901855921" lon="7.503141732677897">
<ele>606.5294824218744</ele>
<time>2014-06-03T17:49:50Z</time>
</trkpt>
<trkpt lat="46.97312401855921" lon="7.502944732677897">
<ele>603.7184824218743</ele>
<time>2014-06-03T17:49:56Z</time>
</trkpt>
<trkpt lat="46.973562018559214" lon="7.502671732677897">
<ele>602.1684824218744</ele>
<time>2014-06-03T17:50:03Z</time>
</trkpt>
<trkpt lat="46.973916018559216" lon="7.502365732677897">
<ele>601.6084824218744</ele>
<time>2014-06-03T17:50:08Z</time>
</trkpt>
<trkpt lat="46.97423301855922" lon="7.502052732677897">
<ele>601.0984824218745</ele>
<time>2014-06-03T17:50:13Z</time>
</trkpt>
<trkpt lat="46.97440501855922" lon="7.501909732677897">
<ele>601.0294824218745</ele>
<time>2014-06-03T17:50:16Z</time>
</trkpt>
<trkpt lat="46.974375018559215" lon="7.501599732677898">
<ele>599.1684824218745</ele>
<time>2014-06-03T17:50:19Z</time>
</trkpt>
<trkpt lat="46.974412018559214" lon="7.501457732677897">
<ele>598.0984824218745</ele>
<time>2014-06-03T17:50:20Z</time>
</trkpt>
<trkpt lat="46.974608018559216" lon="7.5010967326778974">
<ele>596.2094824218744</ele>
<time>2014-06-03T17:50:23Z</time>
</trkpt>
<trkpt lat="46.97472601855922" lon="7.5008877326778975">
<ele>595.4194824218745</ele>
<time>2014-06-03T17:50:26Z</time>
</trkpt>
<trkpt lat="46.975168018559216" lon="7.500103732677897">
<ele>591.3294824218744</ele>
<time>2014-06-03T17:50:33Z</time>
</trkpt>
<trkpt lat="46.97522701855922" lon="7.499928732677898">
<ele>590.3484824218745</ele>
<time>2014-06-03T17:50:35Z</time>
</trkpt>
<trkpt lat="46.975239018559215" lon="7.499697732677897">
<ele>588.6894824218745</ele>
<time>2014-06-03T17:50:37Z</time>
</trkpt>
<trkpt lat="46.97520101855921" lon="7.499450732677897">
<ele>586.3994824218745</ele>
<time>2014-06-03T17:50:39Z</time>
</trkpt>
<trkpt lat="46.97519101855921" lon="7.499386732677897">
<ele>585.7994824218745</ele>
<time>2014-06-03T17:50:39Z</time>
</trkpt>
<trkpt lat="46.97514501855921" lon="7.499075732677897">
<ele>583.0984824218745</ele>
<time>2014-06-03T17:50:42Z</time>
</trkpt>
<trkpt lat="46.97508901855921" lon="7.498600732677898">
<ele>580.1084824218744</ele>
<time>2014-06-03T17:50:45Z</time>
</trkpt>
<trkpt lat="46.97504201855921" lon="7.498394732677897">
<ele>578.6584824218744</ele>
<time>2014-06-03T17:50:47Z</time>
</trkpt>
<trkpt lat="46.97504401855921" lon="7.498278732677897">
<ele>578.1694824218744</ele>
<time>2014-06-03T17:50:48Z</time>
</trkpt>
<trkpt lat="46.97514301855921" lon="7.497869732677897">
<ele>577.3394824218743</ele>
<time>2014-06-03T17:50:51Z</time>
</trkpt>
<trkpt lat="46.97517301855921" lon="7.497703732677897">
<ele>576.8794824218743</ele>
<time>2014-06-03T17:50:53Z</time>
</trkpt>
<trkpt lat="46.97517901855921" lon="7.497541732677896">
<ele>576.2494824218743</ele>
<time>2014-06-03T17:50:54Z</time>
</trkpt>
<trkpt lat="46.97516601855921" lon="7.497438732677896">
<ele>575.8484824218743</ele>
<time>2014-06-03T17:50:55Z</time>
</trkpt>
<trkpt lat="46.97511201855921" lon="7.497292732677896">
<ele>575.1794824218744</ele>
<time>2014-06-03T17:50:56Z</time>
</trkpt>
<trkpt lat="46.97504901855921" lon="7.497155732677896">
<ele>574.4684824218743</ele>
<time>2014-06-03T17:50:58Z</time>
</trkpt>
<trkpt lat="46.97502301855921" lon="7.4971057326778965">
<ele>574.1894824218743</ele>
<time>2014-06-03T17:50:58Z</time>
</trkpt>
<trkpt lat="46.97512001855921" lon="7.497023732677897">
<ele>574.5794824218743</ele>
<time>2014-06-03T17:51:02Z</time>
</trkpt>
<trkpt lat="46.97514501855921" lon="7.497001732677896">
<ele>574.6784824218744</ele>
<time>2014-06-03T17:51:03Z</time>
</trkpt>
<trkpt lat="46.97537701855921" lon="7.496957732677896">
<ele>575.9594824218743</ele>
<time>2014-06-03T17:51:09Z</time>
</trkpt>
<trkpt lat="46.97550301855921" lon="7.497006732677896">
<ele>576.8294824218743</ele>
<time>2014-06-03T17:51:13Z</time>
</trkpt>
<trkpt lat="46.97557501855921" lon="7.496575732677896">
<ele>576.5294824218744</ele>
<time>2014-06-03T17:51:22Z</time>
</trkpt>
<trkpt lat="46.97567601855921" lon="7.496340732677896">
<ele>577.3694824218744</ele>
<time>2014-06-03T17:51:28Z</time>
</trkpt>
<trkpt lat="46.975754018559215" lon="7.496166732677896">
<ele>578.0584824218744</ele>
<time>2014-06-03T17:51:33Z</time>
</trkpt>
<trkpt lat="46.975943018559214" lon="7.495556732677896">
<ele>580.0594824218743</ele>
<time>2014-06-03T17:51:48Z</time>
</trkpt>
<trkpt lat="46.975996018559215" lon="7.495384732677896">
<ele>580.6584824218744</ele>
<time>2014-06-03T17:51:53Z</time>
</trkpt>
<trkpt lat="46.97604801855921" lon="7.4951857326778955">
<ele>581.3294824218744</ele>
<time>2014-06-03T17:51:58Z</time>
</trkpt>
<trkpt lat="46.976103018559215" lon="7.494840732677895">
<ele>582.4184824218745</ele>
<time>2014-06-03T17:52:05Z</time>
</trkpt>
<trkpt lat="46.97613201855921" lon="7.494367732677895">
<ele>583.8584824218746</ele>
<time>2014-06-03T17:52:15Z</time>
</trkpt>
<trkpt lat="46.97619701855921" lon="7.493801732677895">
<ele>585.3684824218745</ele>
<time>2014-06-03T17:52:28Z</time>
</trkpt>
<trkpt lat="46.97628701855921" lon="7.493414732677895">
<ele>586.5694824218746</ele>
<time>2014-06-03T17:52:37Z</time>
</trkpt>
<trkpt lat="46.976325018559216" lon="7.493275732677895">
<ele>587.0294824218746</ele>
<time>2014-06-03T17:52:40Z</time>
</trkpt>
<trkpt lat="46.97651201855921" lon="7.492644732677895">
<ele>589.4194824218746</ele>
<time>2014-06-03T17:52:56Z</time>
</trkpt>
<trkpt lat="46.976857018559215" lon="7.491638732677894">
<ele>591.4594824218746</ele>
<time>2014-06-03T17:53:16Z</time>
</trkpt>
<trkpt lat="46.976942018559214" lon="7.491346732677894">
<ele>590.6584824218745</ele>
<time>2014-06-03T17:53:19Z</time>
</trkpt>
<trkpt lat="46.977122018559214" lon="7.490877732677895">
<ele>589.5294824218745</ele>
<time>2014-06-03T17:53:25Z</time>
</trkpt>
<trkpt lat="46.97731501855922" lon="7.490432732677895">
<ele>588.8584824218744</ele>
<time>2014-06-03T17:53:30Z</time>
</trkpt>
<trkpt lat="46.977462018559216" lon="7.490147732677895">
<ele>588.4794824218744</ele>
<time>2014-06-03T17:53:33Z</time>
</trkpt>
<trkpt lat="46.97767801855922" lon="7.489837732677895">
<ele>588.5194824218744</ele>
<time>2014-06-03T17:53:39Z</time>
</trkpt>
<trkpt lat="46.97787801855922" lon="7.489524732677895">
<ele>588.3194824218743</ele>
<time>2014-06-03T17:53:44Z</time>
</trkpt>
<trkpt lat="46.97835501855921" lon="7.488718732677895">
<ele>587.4394824218743</ele>
<time>2014-06-03T17:53:55Z</time>
</trkpt>
<trkpt lat="46.97841201855921" lon="7.488594732677895">
<ele>587.0394824218744</ele>
<time>2014-06-03T17:53:57Z</time>
</trkpt>
<trkpt lat="46.97844901855921" lon="7.488472732677895">
<ele>586.5294824218744</ele>
<time>2014-06-03T17:53:58Z</time>
</trkpt>
<trkpt lat="46.97854301855921" lon="7.488084732677895">
<ele>584.8394824218743</ele>
<time>2014-06-03T17:54:01Z</time>
</trkpt>
<trkpt lat="46.97863201855921" lon="7.487674732677895">
<ele>581.8444824218743</ele>
<time>2014-06-03T17:54:05Z</time>
</trkpt>
<trkpt lat="46.97891001855921" lon="7.486394732677895">
<ele>578.8494824218743</ele>
<time>2014-06-03T17:54:16Z</time>
</trkpt>
<trkpt lat="46.97888501855921" lon="7.486228732677895">
<ele>577.8794824218743</ele>
<time>2014-06-03T17:54:17Z</time>
</trkpt>
<trkpt lat="46.97907301855921" lon="7.485384732677895">
<ele>575.7094824218743</ele>
<time>2014-06-03T17:54:26Z</time>
</trkpt>
<trkpt lat="46.97918101855921" lon="7.484915732677895">
<ele>574.8484824218743</ele>
<time>2014-06-03T17:54:31Z</time>
</trkpt>
<trkpt lat="46.97932601855921" lon="7.484507732677895">
<ele>574.9594824218743</ele>
<time>2014-06-03T17:54:36Z</time>
</trkpt>
<trkpt lat="46.97976801855921" lon="7.483846732677895">
<ele>577.6194824218743</ele>
<time>2014-06-03T17:54:56Z</time>
</trkpt>
<trkpt lat="46.97968201855921" lon="7.483740732677895">
<ele>576.3484824218743</ele>
<time>2014-06-03T17:54:57Z</time>
</trkpt>
<trkpt lat="46.97942401855921" lon="7.483580732677895">
<ele>572.8894824218744</ele>
<time>2014-06-03T17:55:02Z</time>
</trkpt>
<trkpt lat="46.97937601855921" lon="7.483467732677895">
<ele>571.9594824218744</ele>
<time>2014-06-03T17:55:03Z</time>
</trkpt>
<trkpt lat="46.97936801855921" lon="7.483298732677896">
<ele>571.2884824218744</ele>
<time>2014-06-03T17:55:05Z</time>
</trkpt>
<trkpt lat="46.9797380185592" lon="7.482385732677896">
<ele>571.7594824218744</ele>
<time>2014-06-03T17:55:17Z</time>
</trkpt>
<trkpt lat="46.9799950185592" lon="7.481474732677896">
<ele>571.2594824218744</ele>
<time>2014-06-03T17:55:28Z</time>
</trkpt>
<trkpt lat="46.9805330185592" lon="7.479972732677895">
<ele>569.3594824218744</ele>
<time>2014-06-03T17:55:46Z</time>
</trkpt>
<trkpt lat="46.9803860185592" lon="7.479992732677895">
<ele>568.2094824218744</ele>
<time>2014-06-03T17:55:48Z</time>
</trkpt>
<trkpt lat="46.9798990185592" lon="7.480072732677895">
<ele>564.4784824218744</ele>
<time>2014-06-03T17:55:53Z</time>
</trkpt>
<trkpt lat="46.9796150185592" lon="7.480096732677895">
<ele>562.1294824218744</ele>
<time>2014-06-03T17:55:57Z</time>
</trkpt>
<trkpt lat="46.9795110185592" lon="7.480059732677895">
<ele>561.0994824218744</ele>
<time>2014-06-03T17:55:58Z</time>
</trkpt>
<trkpt lat="46.9794240185592" lon="7.480033732677895">
<ele>560.2694824218744</ele>
<time>2014-06-03T17:55:59Z</time>
</trkpt>
<trkpt lat="46.9794340185592" lon="7.479962732677895">
<ele>560.1394824218744</ele>
<time>2014-06-03T17:55:59Z</time>
</trkpt>
<trkpt lat="46.979416018559206" lon="7.479887732677895">
<ele>559.7794824218744</ele>
<time>2014-06-03T17:56:00Z</time>
</trkpt>
<trkpt lat="46.97936501855921" lon="7.479843732677895">
<ele>559.2494824218744</ele>
<time>2014-06-03T17:56:01Z</time>
</trkpt>
<trkpt lat="46.979312018559206" lon="7.479853732677895">
<ele>558.8394824218744</ele>
<time>2014-06-03T17:56:01Z</time>
</trkpt>
<trkpt lat="46.97927701855921" lon="7.479893732677895">
<ele>558.6594824218745</ele>
<time>2014-06-03T17:56:02Z</time>
</trkpt>
<trkpt lat="46.97919301855921" lon="7.479815732677895">
<ele>557.7694824218745</ele>
<time>2014-06-03T17:56:03Z</time>
</trkpt>
<trkpt lat="46.979160018559206" lon="7.479889732677894">
<ele>557.6894824218745</ele>
<time>2014-06-03T17:56:09Z</time>
</trkpt>
<trkpt lat="46.9791670185592" lon="7.479986732677895">
<ele>557.9784824218744</ele>
<time>2014-06-03T17:56:15Z</time>
</trkpt>
<trkpt lat="46.979149018559205" lon="7.480080732677894">
<ele>558.0784824218745</ele>
<time>2014-06-03T17:56:21Z</time>
</trkpt>
<trkpt lat="46.97912801855921" lon="7.480191732677895">
<ele>558.1794824218745</ele>
<time>2014-06-03T17:56:29Z</time>
</trkpt>
<trkpt lat="46.97925501855921" lon="7.480240732677895">
<ele>559.3794824218745</ele>
<time>2014-06-03T17:56:41Z</time>
</trkpt>
<trkpt lat="46.97930201855921" lon="7.480079732677894">
<ele>559.3594824218745</ele>
<time>2014-06-03T17:56:43Z</time>
</trkpt>
<trkpt lat="46.97934401855921" lon="7.480088732677895">
<ele>559.7494824218745</ele>
<time>2014-06-03T17:56:45Z</time>
</trkpt>
<trkpt lat="46.97939001855921" lon="7.480077732677895">
<ele>560.1084824218746</ele>
<time>2014-06-03T17:56:47Z</time>
</trkpt>
<trkpt lat="46.97942401855921" lon="7.480033732677895">
<ele>560.2694824218745</ele>
<time>2014-06-03T17:56:49Z</time>
</trkpt>
<trkpt lat="46.97943401855921" lon="7.479962732677895">
<ele>560.1394824218745</ele>
<time>2014-06-03T17:56:49Z</time>
</trkpt>
<trkpt lat="46.97941601855921" lon="7.479887732677895">
<ele>559.7794824218745</ele>
<time>2014-06-03T17:56:50Z</time>
</trkpt>
<trkpt lat="46.979365018559214" lon="7.479843732677895">
<ele>559.2494824218745</ele>
<time>2014-06-03T17:56:51Z</time>
</trkpt>
<trkpt lat="46.97939701855921" lon="7.479685732677895">
<ele>559.0794824218746</ele>
<time>2014-06-03T17:56:52Z</time>
</trkpt>
<trkpt lat="46.97946501855921" lon="7.479324732677895">
<ele>558.5984824218746</ele>
<time>2014-06-03T17:56:56Z</time>
</trkpt>
<trkpt lat="46.97952901855921" lon="7.478981732677895">
<ele>558.0694824218746</ele>
<time>2014-06-03T17:57:00Z</time>
</trkpt>
<trkpt lat="46.979579018559214" lon="7.478883732677895">
<ele>558.1194824218745</ele>
<time>2014-06-03T17:57:01Z</time>
</trkpt>
<trkpt lat="46.97957401855921" lon="7.478736732677895">
<ele>557.6494824218745</ele>
<time>2014-06-03T17:57:03Z</time>
</trkpt>
<trkpt lat="46.97974601855921" lon="7.477637732677895">
<ele>555.5494824218745</ele>
<time>2014-06-03T17:57:13Z</time>
</trkpt>
<trkpt lat="46.97980901855921" lon="7.477192732677895">
<ele>554.6084824218744</ele>
<time>2014-06-03T17:57:18Z</time>
</trkpt>
<trkpt lat="46.97984901855921" lon="7.476800732677895">
<ele>553.5484824218745</ele>
<time>2014-06-03T17:57:21Z</time>
</trkpt>
<trkpt lat="46.97993301855921" lon="7.476048732677895">
<ele>552.1094824218745</ele>
<time>2014-06-03T17:57:28Z</time>
</trkpt>
<trkpt lat="46.98000901855921" lon="7.475195732677895">
<ele>550.5294824218745</ele>
<time>2014-06-03T17:57:37Z</time>
</trkpt>
<trkpt lat="46.980041018559206" lon="7.474765732677895">
<ele>549.6994824218744</ele>
<time>2014-06-03T17:57:41Z</time>
</trkpt>
<trkpt lat="46.9800590185592" lon="7.474553732677895">
<ele>549.3194824218745</ele>
<time>2014-06-03T17:57:43Z</time>
</trkpt>
<trkpt lat="46.980013018559205" lon="7.474494732677894">
<ele>548.8694824218744</ele>
<time>2014-06-03T17:57:44Z</time>
</trkpt>
<trkpt lat="46.980019018559204" lon="7.474139732677894">
<ele>548.0394824218744</ele>
<time>2014-06-03T17:57:47Z</time>
</trkpt>
<trkpt lat="46.98003501855921" lon="7.473225732677895">
<ele>545.0794824218743</ele>
<time>2014-06-03T17:57:55Z</time>
</trkpt>
<trkpt lat="46.98002901855921" lon="7.472743732677895">
<ele>543.8594824218743</ele>
<time>2014-06-03T17:57:59Z</time>
</trkpt>
<trkpt lat="46.98003501855921" lon="7.472491732677895">
<ele>543.3194824218743</ele>
<time>2014-06-03T17:58:01Z</time>
</trkpt>
<trkpt lat="46.97999201855921" lon="7.472413732677895">
<ele>542.7494824218743</ele>
<time>2014-06-03T17:58:02Z</time>
</trkpt>
<trkpt lat="46.979993018559206" lon="7.472264732677894">
<ele>542.3994824218743</ele>
<time>2014-06-03T17:58:04Z</time>
</trkpt>
<trkpt lat="46.97999501855921" lon="7.4722017326778944">
<ele>542.2594824218743</ele>
<time>2014-06-03T17:58:04Z</time>
</trkpt>
<trkpt lat="46.98000601855921" lon="7.471344732677895">
<ele>540.2894824218743</ele>
<time>2014-06-03T17:58:12Z</time>
</trkpt>
<trkpt lat="46.98000101855921" lon="7.471122732677895">
<ele>539.6994824218742</ele>
<time>2014-06-03T17:58:14Z</time>
</trkpt>
<trkpt lat="46.97998601855921" lon="7.470911732677894">
<ele>539.0894824218742</ele>
<time>2014-06-03T17:58:16Z</time>
</trkpt>
<trkpt lat="46.97989101855921" lon="7.470128732677894">
<ele>536.4194824218742</ele>
<time>2014-06-03T17:58:23Z</time>
</trkpt>
<trkpt lat="46.97985401855921" lon="7.469770732677894">
<ele>535.4494824218742</ele>
<time>2014-06-03T17:58:26Z</time>
</trkpt>
<trkpt lat="46.979723018559206" lon="7.468918732677894">
<ele>532.6494824218743</ele>
<time>2014-06-03T17:58:34Z</time>
</trkpt>
<trkpt lat="46.9796370185592" lon="7.467849732677894">
<ele>528.9994824218743</ele>
<time>2014-06-03T17:58:43Z</time>
</trkpt>
<trkpt lat="46.979630018559206" lon="7.467710732677894">
<ele>528.5994824218743</ele>
<time>2014-06-03T17:58:44Z</time>
</trkpt>
<trkpt lat="46.97961801855921" lon="7.467615732677894">
<ele>528.2284824218743</ele>
<time>2014-06-03T17:58:45Z</time>
</trkpt>
<trkpt lat="46.97959201855921" lon="7.467498732677893">
<ele>527.6194824218743</ele>
<time>2014-06-03T17:58:46Z</time>
</trkpt>
<trkpt lat="46.97946201855921" lon="7.466903732677894">
<ele>525.4494824218743</ele>
<time>2014-06-03T17:58:51Z</time>
</trkpt>
<trkpt lat="46.979320018559214" lon="7.466282732677894">
<ele>522.9184824218744</ele>
<time>2014-06-03T17:58:57Z</time>
</trkpt>
<trkpt lat="46.979280018559216" lon="7.466097732677894">
<ele>522.1294824218744</ele>
<time>2014-06-03T17:58:59Z</time>
</trkpt>
<trkpt lat="46.97928801855922" lon="7.465965732677894">
<ele>522.1584824218744</ele>
<time>2014-06-03T17:59:00Z</time>
</trkpt>
<trkpt lat="46.97926501855922" lon="7.4659177326778945">
<ele>521.7284824218744</ele>
<time>2014-06-03T17:59:01Z</time>
</trkpt>
<trkpt lat="46.97919801855922" lon="7.465590732677894">
<ele>520.2494824218744</ele>
<time>2014-06-03T17:59:04Z</time>
</trkpt>
<trkpt lat="46.97899701855922" lon="7.464988732677894">
<ele>515.5194824218744</ele>
<time>2014-06-03T17:59:09Z</time>
</trkpt>
<trkpt lat="46.97878701855922" lon="7.464369732677894">
<ele>510.0884824218744</ele>
<time>2014-06-03T17:59:14Z</time>
</trkpt>
<trkpt lat="46.97873901855922" lon="7.464140732677894">
<ele>508.7194824218744</ele>
<time>2014-06-03T17:59:16Z</time>
</trkpt>
<trkpt lat="46.978650018559215" lon="7.463695732677894">
<ele>506.4394824218744</ele>
<time>2014-06-03T17:59:20Z</time>
</trkpt>
<trkpt lat="46.978593018559216" lon="7.4634067326778935">
<ele>504.15948242187443</ele>
<time>2014-06-03T17:59:22Z</time>
</trkpt>
<trkpt lat="46.97850201855922" lon="7.462927732677893">
<ele>501.64948242187444</ele>
<time>2014-06-03T17:59:26Z</time>
</trkpt>
<trkpt lat="46.978472018559216" lon="7.4627967326778935">
<ele>500.9194824218744</ele>
<time>2014-06-03T17:59:27Z</time>
</trkpt>
<trkpt lat="46.978450018559215" lon="7.462696732677894">
<ele>500.35848242187444</ele>
<time>2014-06-03T17:59:28Z</time>
</trkpt>
<trkpt lat="46.97837301855922" lon="7.462386732677894">
<ele>498.69948242187445</ele>
<time>2014-06-03T17:59:31Z</time>
</trkpt>
<trkpt lat="46.978363018559214" lon="7.462346732677894">
<ele>498.51948242187444</ele>
<time>2014-06-03T17:59:31Z</time>
</trkpt>
<trkpt lat="46.97828501855921" lon="7.462026732677893">
<ele>497.8494824218744</ele>
<time>2014-06-03T17:59:35Z</time>
</trkpt>
<trkpt lat="46.978273018559214" lon="7.461652732677893">
<ele>497.7684824218744</ele>
<time>2014-06-03T17:59:39Z</time>
</trkpt>
<trkpt lat="46.97828901855922" lon="7.461510732677893">
<ele>497.6494824218744</ele>
<time>2014-06-03T17:59:40Z</time>
</trkpt>
<trkpt lat="46.978343018559215" lon="7.461272732677893">
<ele>497.6784824218744</ele>
<time>2014-06-03T17:59:45Z</time>
</trkpt>
<trkpt lat="46.97839201855921" lon="7.461140732677893">
<ele>498.2384824218744</ele>
<time>2014-06-03T17:59:48Z</time>
</trkpt>
<trkpt lat="46.97852701855921" lon="7.460770732677893">
<ele>499.7594824218744</ele>
<time>2014-06-03T17:59:57Z</time>
</trkpt>
<trkpt lat="46.978490018559214" lon="7.4606677326778925">
<ele>499.1894824218744</ele>
<time>2014-06-03T17:59:58Z</time>
</trkpt>
<trkpt lat="46.97846901855922" lon="7.460593732677893">
<ele>498.8594824218744</ele>
<time>2014-06-03T17:59:59Z</time>
</trkpt>
<trkpt lat="46.978481018559215" lon="7.460551732677893">
<ele>499.0094824218744</ele>
<time>2014-06-03T17:59:59Z</time>
</trkpt>
<trkpt lat="46.97846601855922" lon="7.460444732677893">
<ele>498.7594824218744</ele>
<time>2014-06-03T18:00:00Z</time>
</trkpt>
<trkpt lat="46.978433018559215" lon="7.460403732677893">
<ele>498.3094824218744</ele>
<time>2014-06-03T18:00:01Z</time>
</trkpt>
<trkpt lat="46.97845701855922" lon="7.460300732677893">
<ele>498.5994824218744</ele>
<time>2014-06-03T18:00:03Z</time>
</trkpt>
<trkpt lat="46.978565018559216" lon="7.4599177326778925">
<ele>499.64948242187444</ele>
<time>2014-06-03T18:00:12Z</time>
</trkpt>
<trkpt lat="46.978625018559214" lon="7.459655732677892">
<ele>499.93948242187446</ele>
<time>2014-06-03T18:00:15Z</time>
</trkpt>
<trkpt lat="46.97865901855921" lon="7.459405732677892">
<ele>499.9194824218745</ele>
<time>2014-06-03T18:00:18Z</time>
</trkpt>
<trkpt lat="46.978692018559215" lon="7.458877732677892">
<ele>499.37948242187446</ele>
<time>2014-06-03T18:00:25Z</time>
</trkpt>
<trkpt lat="46.97872701855921" lon="7.458560732677892">
<ele>499.18948242187446</ele>
<time>2014-06-03T18:00:30Z</time>
</trkpt>
<trkpt lat="46.97881401855921" lon="7.458224732677892">
<ele>499.4794824218745</ele>
<time>2014-06-03T18:00:34Z</time>
</trkpt>
<trkpt lat="46.97886801855921" lon="7.458090732677892">
<ele>499.8394824218745</ele>
<time>2014-06-03T18:00:36Z</time>
</trkpt>
<trkpt lat="46.97897301855921" lon="7.457825732677892">
<ele>500.5294824218745</ele>
<time>2014-06-03T18:00:42Z</time>
</trkpt>
<trkpt lat="46.97921201855921" lon="7.457269732677893">
<ele>502.07848242187447</ele>
<time>2014-06-03T18:00:57Z</time>
</trkpt>
<trkpt lat="46.97942601855921" lon="7.456872732677892">
<ele>503.75948242187445</ele>
<time>2014-06-03T18:01:08Z</time>
</trkpt>
<trkpt lat="46.97950201855921" lon="7.4567597326778925">
<ele>504.33848242187446</ele>
<time>2014-06-03T18:01:11Z</time>
</trkpt>
<trkpt lat="46.979582018559206" lon="7.456658732677893">
<ele>504.93948242187446</ele>
<time>2014-06-03T18:01:15Z</time>
</trkpt>
<trkpt lat="46.97979801855921" lon="7.456481732677893">
<ele>506.4094824218745</ele>
<time>2014-06-03T18:01:24Z</time>
</trkpt>
<trkpt lat="46.97989301855921" lon="7.456425732677893">
<ele>507.0994824218745</ele>
<time>2014-06-03T18:01:28Z</time>
</trkpt>
<trkpt lat="46.97999801855921" lon="7.456376732677893">
<ele>507.8894824218745</ele>
<time>2014-06-03T18:01:33Z</time>
</trkpt>
<trkpt lat="46.98026201855921" lon="7.456310732677893">
<ele>509.8194824218745</ele>
<time>2014-06-03T18:01:44Z</time>
</trkpt>
<trkpt lat="46.98039401855921" lon="7.4563087326778925">
<ele>510.9994824218745</ele>
<time>2014-06-03T18:01:50Z</time>
</trkpt>
<trkpt lat="46.98048101855921" lon="7.456322732677893">
<ele>511.8984824218745</ele>
<time>2014-06-03T18:01:55Z</time>
</trkpt>
<trkpt lat="46.98056701855921" lon="7.456349732677893">
<ele>512.9074824218745</ele>
<time>2014-06-03T18:02:01Z</time>
</trkpt>
<trkpt lat="46.980628018559216" lon="7.456407732677893">
<ele>513.9394824218746</ele>
<time>2014-06-03T18:02:05Z</time>
</trkpt>
<trkpt lat="46.980679018559215" lon="7.456511732677893">
<ele>515.2494824218745</ele>
<time>2014-06-03T18:02:10Z</time>
</trkpt>
<trkpt lat="46.98068101855922" lon="7.456600732677893">
<ele>515.9994824218745</ele>
<time>2014-06-03T18:02:14Z</time>
</trkpt>
<trkpt lat="46.98068301855922" lon="7.456721732677893">
<ele>516.8294824218746</ele>
<time>2014-06-03T18:02:18Z</time>
</trkpt>
<trkpt lat="46.98063501855922" lon="7.456750732677893">
<ele>516.5094824218745</ele>
<time>2014-06-03T18:02:19Z</time>
</trkpt>
<trkpt lat="46.98060601855922" lon="7.456809732677893">
<ele>516.5094824218745</ele>
<time>2014-06-03T18:02:20Z</time>
</trkpt>
<trkpt lat="46.98060001855922" lon="7.456848732677893">
<ele>516.6394824218745</ele>
<time>2014-06-03T18:02:20Z</time>
</trkpt>
<trkpt lat="46.98059801855922" lon="7.456898732677893">
<ele>516.8594824218745</ele>
<time>2014-06-03T18:02:21Z</time>
</trkpt>
<trkpt lat="46.98049501855922" lon="7.456895732677893">
<ele>515.8484824218746</ele>
<time>2014-06-03T18:02:23Z</time>
</trkpt>
<trkpt lat="46.97990001855922" lon="7.456949732677893">
<ele>510.0784824218746</ele>
<time>2014-06-03T18:02:29Z</time>
</trkpt>
<trkpt lat="46.97961701855922" lon="7.456977732677894">
<ele>506.5594824218746</ele>
<time>2014-06-03T18:02:32Z</time>
</trkpt>
<trkpt lat="46.97897501855922" lon="7.457006732677893">
<ele>499.2494824218746</ele>
<time>2014-06-03T18:02:40Z</time>
</trkpt>
<trkpt lat="46.97830101855922" lon="7.457073732677893">
<ele>493.9194824218746</ele>
<time>2014-06-03T18:02:48Z</time>
</trkpt>
<trkpt lat="46.97777001855922" lon="7.457075732677893">
<ele>492.6484824218746</ele>
<time>2014-06-03T18:02:54Z</time>
</trkpt>
<trkpt lat="46.97760701855922" lon="7.457044732677893">
<ele>492.25948242187457</ele>
<time>2014-06-03T18:02:56Z</time>
</trkpt>
<trkpt lat="46.97721301855922" lon="7.456920732677894">
<ele>495.80848242187454</ele>
<time>2014-06-03T18:03:23Z</time>
</trkpt>
<trkpt lat="46.97693901855922" lon="7.4568367326778935">
<ele>499.65948242187454</ele>
<time>2014-06-03T18:03:43Z</time>
</trkpt>
<trkpt lat="46.97635301855922" lon="7.456669732677893">
<ele>512.2594824218745</ele>
<time>2014-06-03T18:04:24Z</time>
</trkpt>
<trkpt lat="46.976333018559224" lon="7.456664732677893">
<ele>512.8084824218745</ele>
<time>2014-06-03T18:04:26Z</time>
</trkpt>
<trkpt lat="46.976321018559226" lon="7.456572732677893">
<ele>513.3794824218745</ele>
<time>2014-06-03T18:04:32Z</time>
</trkpt>
<trkpt lat="46.97599101855923" lon="7.456419732677893">
<ele>522.6684824218745</ele>
<time>2014-06-03T18:05:06Z</time>
</trkpt>
<trkpt lat="46.97594601855923" lon="7.4563977326778925">
<ele>523.9594824218746</ele>
<time>2014-06-03T18:05:10Z</time>
</trkpt>
<trkpt lat="46.97593501855923" lon="7.4563467326778925">
<ele>524.4094824218746</ele>
<time>2014-06-03T18:05:13Z</time>
</trkpt>
<trkpt lat="46.97597601855923" lon="7.456363732677892">
<ele>523.2494824218746</ele>
<time>2014-06-03T18:05:13Z</time>
</trkpt>
<trkpt lat="46.97633001855923" lon="7.456521732677892">
<ele>513.3084824218746</ele>
<time>2014-06-03T18:05:17Z</time>
</trkpt>
<trkpt lat="46.976326018559234" lon="7.456539732677892">
<ele>513.3494824218747</ele>
<time>2014-06-03T18:05:17Z</time>
</trkpt>
<trkpt lat="46.976283018559236" lon="7.456767732677892">
<ele>513.8294824218747</ele>
<time>2014-06-03T18:05:22Z</time>
</trkpt>
<trkpt lat="46.976275018559235" lon="7.456808732677892">
<ele>513.9184824218747</ele>
<time>2014-06-03T18:05:24Z</time>
</trkpt>
<trkpt lat="46.975994018559234" lon="7.456703732677893">
<ele>521.6494824218747</ele>
<time>2014-06-03T18:05:44Z</time>
</trkpt>
<trkpt lat="46.97593901855923" lon="7.456982732677893">
<ele>522.3894824218747</ele>
<time>2014-06-03T18:05:58Z</time>
</trkpt>
<trkpt lat="46.97590901855923" lon="7.4570267326778925">
<ele>523.0994824218748</ele>
<time>2014-06-03T18:06:01Z</time>
</trkpt>
<trkpt lat="46.97590401855923" lon="7.456995732677893">
<ele>523.2984824218747</ele>
<time>2014-06-03T18:06:03Z</time>
</trkpt>
<trkpt lat="46.975812018559225" lon="7.456830732677893">
<ele>525.6994824218747</ele>
<time>2014-06-03T18:06:17Z</time>
</trkpt>
<trkpt lat="46.975767018559225" lon="7.456780732677893">
<ele>526.0394824218747</ele>
<time>2014-06-03T18:06:22Z</time>
</trkpt>
<trkpt lat="46.975778018559225" lon="7.4567217326778925">
<ele>526.1294824218747</ele>
<time>2014-06-03T18:06:26Z</time>
</trkpt>
<trkpt lat="46.97570401855923" lon="7.456679732677893">
<ele>526.5894824218748</ele>
<time>2014-06-03T18:06:33Z</time>
</trkpt>
<trkpt lat="46.975454018559226" lon="7.456469732677893">
<ele>528.4184824218747</ele>
<time>2014-06-03T18:07:01Z</time>
</trkpt>
<trkpt lat="46.975384018559225" lon="7.4563847326778925">
<ele>528.9884824218748</ele>
<time>2014-06-03T18:07:09Z</time>
</trkpt>
<trkpt lat="46.975148018559224" lon="7.456044732677893">
<ele>530.9084824218747</ele>
<time>2014-06-03T18:07:41Z</time>
</trkpt>
<trkpt lat="46.97503301855922" lon="7.455848732677893">
<ele>531.8394824218748</ele>
<time>2014-06-03T18:07:58Z</time>
</trkpt>
<trkpt lat="46.974973018559226" lon="7.455728732677893">
<ele>531.9794824218748</ele>
<time>2014-06-03T18:08:07Z</time>
</trkpt>
<trkpt lat="46.97493301855923" lon="7.4556487326778935">
<ele>531.7794824218747</ele>
<time>2014-06-03T18:08:14Z</time>
</trkpt>
<trkpt lat="46.974847018559224" lon="7.455456732677893">
<ele>531.3394824218747</ele>
<time>2014-06-03T18:08:29Z</time>
</trkpt>
<trkpt lat="46.974765018559225" lon="7.455271732677893">
<ele>530.8994824218746</ele>
<time>2014-06-03T18:08:43Z</time>
</trkpt>
<trkpt lat="46.974697018559226" lon="7.455091732677893">
<ele>530.5494824218746</ele>
<time>2014-06-03T18:08:56Z</time>
</trkpt>
<trkpt lat="46.97462901855923" lon="7.454908732677893">
<ele>530.1084824218746</ele>
<time>2014-06-03T18:09:10Z</time>
</trkpt>
<trkpt lat="46.974593018559226" lon="7.4548287326778935">
<ele>529.8094824218746</ele>
<time>2014-06-03T18:09:16Z</time>
</trkpt>
<trkpt lat="46.97457801855923" lon="7.454854732677894">
<ele>529.6194824218745</ele>
<time>2014-06-03T18:09:18Z</time>
</trkpt>
<trkpt lat="46.97459401855923" lon="7.454984732677894">
<ele>529.6294824218745</ele>
<time>2014-06-03T18:09:26Z</time>
</trkpt>
<trkpt lat="46.97458001855923" lon="7.454976732677894">
<ele>529.4994824218745</ele>
<time>2014-06-03T18:09:27Z</time>
</trkpt>
<trkpt lat="46.97447701855923" lon="7.455017732677894">
<ele>528.3194824218746</ele>
<time>2014-06-03T18:09:28Z</time>
</trkpt>
<trkpt lat="46.974436018559224" lon="7.455024732677894">
<ele>527.8694824218745</ele>
<time>2014-06-03T18:09:28Z</time>
</trkpt>
<trkpt lat="46.974425018559224" lon="7.455015732677894">
<ele>527.7694824218745</ele>
<time>2014-06-03T18:09:28Z</time>
</trkpt>
<trkpt lat="46.974323018559225" lon="7.454929732677894">
<ele>526.7284824218744</ele>
<time>2014-06-03T18:09:30Z</time>
</trkpt>
<trkpt lat="46.974225018559224" lon="7.454801732677894">
<ele>525.6694824218745</ele>
<time>2014-06-03T18:09:31Z</time>
</trkpt>
<trkpt lat="46.974177018559224" lon="7.454738732677894">
<ele>525.1194824218745</ele>
<time>2014-06-03T18:09:32Z</time>
</trkpt>
<trkpt lat="46.974137018559226" lon="7.454687732677894">
<ele>524.6184824218745</ele>
<time>2014-06-03T18:09:33Z</time>
</trkpt>
<trkpt lat="46.97406501855922" lon="7.454592732677894">
<ele>523.6094824218745</ele>
<time>2014-06-03T18:09:34Z</time>
</trkpt>
<trkpt lat="46.97400701855922" lon="7.454516732677894">
<ele>522.7194824218745</ele>
<time>2014-06-03T18:09:35Z</time>
</trkpt>
<trkpt lat="46.97395301855922" lon="7.454445732677894">
<ele>521.8294824218746</ele>
<time>2014-06-03T18:09:35Z</time>
</trkpt>
<trkpt lat="46.97390301855922" lon="7.454354732677894">
<ele>520.9394824218746</ele>
<time>2014-06-03T18:09:36Z</time>
</trkpt>
<trkpt lat="46.97388301855922" lon="7.4543077326778935">
<ele>520.5194824218746</ele>
<time>2014-06-03T18:09:37Z</time>
</trkpt>
<trkpt lat="46.97383301855922" lon="7.4541937326778935">
<ele>519.4694824218747</ele>
<time>2014-06-03T18:09:38Z</time>
</trkpt>
<trkpt lat="46.97375601855922" lon="7.454016732677894">
<ele>517.5694824218747</ele>
<time>2014-06-03T18:09:39Z</time>
</trkpt>
<trkpt lat="46.97374201855922" lon="7.453967732677894">
<ele>517.1294824218746</ele>
<time>2014-06-03T18:09:40Z</time>
</trkpt>
<trkpt lat="46.97373601855922" lon="7.453928732677894">
<ele>516.8794824218746</ele>
<time>2014-06-03T18:09:40Z</time>
</trkpt>
<trkpt lat="46.973732018559225" lon="7.453901732677894">
<ele>516.6994824218747</ele>
<time>2014-06-03T18:09:40Z</time>
</trkpt>
<trkpt lat="46.97371901855922" lon="7.453810732677893">
<ele>516.0984824218747</ele>
<time>2014-06-03T18:09:41Z</time>
</trkpt>
<trkpt lat="46.97360901855922" lon="7.453542732677893">
<ele>512.6194824218746</ele>
<time>2014-06-03T18:09:43Z</time>
</trkpt>
<trkpt lat="46.973470018559226" lon="7.453206732677893">
<ele>507.8794824218746</ele>
<time>2014-06-03T18:09:46Z</time>
</trkpt>
<trkpt lat="46.97341201855922" lon="7.453066732677893">
<ele>506.0094824218746</ele>
<time>2014-06-03T18:09:47Z</time>
</trkpt>
<trkpt lat="46.97330901855922" lon="7.452825732677893">
<ele>502.9694824218746</ele>
<time>2014-06-03T18:09:50Z</time>
</trkpt>
<trkpt lat="46.97329001855922" lon="7.452780732677893">
<ele>502.6494824218746</ele>
<time>2014-06-03T18:09:50Z</time>
</trkpt>
<trkpt lat="46.97325301855922" lon="7.452695732677893">
<ele>502.0584824218746</ele>
<time>2014-06-03T18:09:51Z</time>
</trkpt>
<trkpt lat="46.97315901855922" lon="7.452468732677893">
<ele>500.7494824218746</ele>
<time>2014-06-03T18:09:53Z</time>
</trkpt>
<trkpt lat="46.97312501855922" lon="7.452384732677893">
<ele>500.4994824218746</ele>
<time>2014-06-03T18:09:54Z</time>
</trkpt>
<trkpt lat="46.97309401855922" lon="7.452315732677893">
<ele>500.27948242187455</ele>
<time>2014-06-03T18:09:55Z</time>
</trkpt>
<trkpt lat="46.97300101855922" lon="7.452103732677893">
<ele>499.60948242187453</ele>
<time>2014-06-03T18:09:57Z</time>
</trkpt>
<trkpt lat="46.972989018559225" lon="7.452074732677893">
<ele>499.51948242187456</ele>
<time>2014-06-03T18:09:57Z</time>
</trkpt>
<trkpt lat="46.97294301855923" lon="7.451970732677893">
<ele>499.1894824218746</ele>
<time>2014-06-03T18:09:58Z</time>
</trkpt>
<trkpt lat="46.972888018559225" lon="7.4518857326778924">
<ele>498.7894824218746</ele>
<time>2014-06-03T18:09:59Z</time>
</trkpt>
<trkpt lat="46.97294501855922" lon="7.451768732677892">
<ele>499.2094824218746</ele>
<time>2014-06-03T18:10:02Z</time>
</trkpt>
<trkpt lat="46.97294901855922" lon="7.451761732677892">
<ele>499.2294824218746</ele>
<time>2014-06-03T18:10:03Z</time>
</trkpt>
<trkpt lat="46.97304801855922" lon="7.451589732677892">
<ele>500.0394824218746</ele>
<time>2014-06-03T18:10:08Z</time>
</trkpt>
<trkpt lat="46.97312901855922" lon="7.451424732677892">
<ele>500.81948242187457</ele>
<time>2014-06-03T18:10:13Z</time>
</trkpt>
<trkpt lat="46.97315301855922" lon="7.451396732677892">
<ele>501.0184824218746</ele>
<time>2014-06-03T18:10:14Z</time>
</trkpt>
<trkpt lat="46.97315901855922" lon="7.451390732677892">
<ele>501.07948242187456</ele>
<time>2014-06-03T18:10:15Z</time>
</trkpt>
<trkpt lat="46.97320501855922" lon="7.4513517326778915">
<ele>501.44948242187456</ele>
<time>2014-06-03T18:10:17Z</time>
</trkpt>
<trkpt lat="46.97323801855922" lon="7.451322732677892">
<ele>501.72948242187454</ele>
<time>2014-06-03T18:10:18Z</time>
</trkpt>
<trkpt lat="46.973248018559225" lon="7.451345732677892">
<ele>501.7684824218745</ele>
<time>2014-06-03T18:10:19Z</time>
</trkpt>
<trkpt lat="46.97331401855922" lon="7.4513767326778915">
<ele>502.2084824218745</ele>
<time>2014-06-03T18:10:23Z</time>
</trkpt>
<trkpt lat="46.973355018559225" lon="7.4513577326778915">
<ele>502.9994824218745</ele>
<time>2014-06-03T18:10:25Z</time>
</trkpt>
<trkpt lat="46.97338101855922" lon="7.451316732677891">
<ele>503.80848242187454</ele>
<time>2014-06-03T18:10:26Z</time>
</trkpt>
<trkpt lat="46.973394018559226" lon="7.451246732677891">
<ele>504.30848242187454</ele>
<time>2014-06-03T18:10:29Z</time>
</trkpt>
<trkpt lat="46.97338101855922" lon="7.4511797326778915">
<ele>504.01948242187456</ele>
<time>2014-06-03T18:10:31Z</time>
</trkpt>
<trkpt lat="46.97341801855922" lon="7.451142732677892">
<ele>505.1484824218746</ele>
<time>2014-06-03T18:10:35Z</time>
</trkpt>
<trkpt lat="46.973462018559225" lon="7.451089732677891">
<ele>506.5784824218746</ele>
<time>2014-06-03T18:10:41Z</time>
</trkpt>
<trkpt lat="46.97351601855922" lon="7.451000732677891">
<ele>508.3694824218746</ele>
<time>2014-06-03T18:10:49Z</time>
</trkpt>
<trkpt lat="46.973532018559226" lon="7.4510147326778915">
<ele>508.8284824218746</ele>
<time>2014-06-03T18:10:51Z</time>
</trkpt>
<trkpt lat="46.97357801855922" lon="7.451012732677891">
<ele>510.2384824218746</ele>
<time>2014-06-03T18:10:55Z</time>
</trkpt>
<trkpt lat="46.97360701855922" lon="7.450969732677891">
<ele>511.2194824218746</ele>
<time>2014-06-03T18:10:59Z</time>
</trkpt>
<trkpt lat="46.97361001855922" lon="7.4509577326778915">
<ele>511.3294824218746</ele>
<time>2014-06-03T18:11:00Z</time>
</trkpt>
<trkpt lat="46.97361201855922" lon="7.450935732677891">
<ele>511.4494824218746</ele>
<time>2014-06-03T18:11:00Z</time>
</trkpt>
<trkpt lat="46.97359201855922" lon="7.450870732677891">
<ele>510.9884824218746</ele>
<time>2014-06-03T18:11:01Z</time>
</trkpt>
<trkpt lat="46.97358401855922" lon="7.450862732677891">
<ele>510.7694824218746</ele>
<time>2014-06-03T18:11:01Z</time>
</trkpt>
<trkpt lat="46.97361201855922" lon="7.450786732677891">
<ele>511.8794824218746</ele>
<time>2014-06-03T18:11:07Z</time>
</trkpt>
<trkpt lat="46.973712018559226" lon="7.450579732677891">
<ele>515.8494824218747</ele>
<time>2014-06-03T18:11:24Z</time>
</trkpt>
<trkpt lat="46.973755018559224" lon="7.450489732677891">
<ele>517.5894824218747</ele>
<time>2014-06-03T18:11:30Z</time>
</trkpt>
<trkpt lat="46.973780018559225" lon="7.450414732677891">
<ele>518.7184824218747</ele>
<time>2014-06-03T18:11:34Z</time>
</trkpt>
<trkpt lat="46.973791018559226" lon="7.450343732677891">
<ele>519.3594824218746</ele>
<time>2014-06-03T18:11:38Z</time>
</trkpt>
<trkpt lat="46.973794018559225" lon="7.450290732677891">
<ele>519.6894824218747</ele>
<time>2014-06-03T18:11:39Z</time>
</trkpt>
<trkpt lat="46.97377301855923" lon="7.4501367326778904">
<ele>519.6494824218747</ele>
<time>2014-06-03T18:11:42Z</time>
</trkpt>
<trkpt lat="46.973740018559226" lon="7.4500607326778905">
<ele>518.9184824218747</ele>
<time>2014-06-03T18:11:43Z</time>
</trkpt>
<trkpt lat="46.973468018559224" lon="7.449605732677891">
<ele>512.2594824218747</ele>
<time>2014-06-03T18:11:53Z</time>
</trkpt>
<trkpt lat="46.97327401855922" lon="7.449200732677891">
<ele>509.06948242187474</ele>
<time>2014-06-03T18:12:01Z</time>
</trkpt>
<trkpt lat="46.97283301855922" lon="7.4479647326778915">
<ele>512.6494824218747</ele>
<time>2014-06-03T18:12:24Z</time>
</trkpt>
<trkpt lat="46.972832018559224" lon="7.447871732677892">
<ele>513.6494824218747</ele>
<time>2014-06-03T18:12:25Z</time>
</trkpt>
<trkpt lat="46.97283901855922" lon="7.447839732677892">
<ele>514.2294824218748</ele>
<time>2014-06-03T18:12:26Z</time>
</trkpt>
<trkpt lat="46.97277701855922" lon="7.447765732677892">
<ele>513.2184824218748</ele>
<time>2014-06-03T18:12:27Z</time>
</trkpt>
<trkpt lat="46.97270601855922" lon="7.447678732677892">
<ele>511.9794824218748</ele>
<time>2014-06-03T18:12:28Z</time>
</trkpt>
<trkpt lat="46.97261401855922" lon="7.447563732677892">
<ele>510.1594824218748</ele>
<time>2014-06-03T18:12:29Z</time>
</trkpt>
<trkpt lat="46.97235401855922" lon="7.447245732677892">
<ele>509.5994824218748</ele>
<time>2014-06-03T18:12:34Z</time>
</trkpt>
<trkpt lat="46.97223301855922" lon="7.447096732677892">
<ele>509.8284824218748</ele>
<time>2014-06-03T18:12:37Z</time>
</trkpt>
<trkpt lat="46.97216401855922" lon="7.447005732677892">
<ele>509.73848242187483</ele>
<time>2014-06-03T18:12:39Z</time>
</trkpt>
<trkpt lat="46.97211401855922" lon="7.446921732677891">
<ele>509.7394824218748</ele>
<time>2014-06-03T18:12:40Z</time>
</trkpt>
<trkpt lat="46.97206101855922" lon="7.446830732677891">
<ele>509.5994824218748</ele>
<time>2014-06-03T18:12:41Z</time>
</trkpt>
<trkpt lat="46.97186801855921" lon="7.446520732677891">
<ele>508.79848242187484</ele>
<time>2014-06-03T18:12:45Z</time>
</trkpt>
<trkpt lat="46.97181301855921" lon="7.446444732677891">
<ele>508.55948242187486</ele>
<time>2014-06-03T18:12:46Z</time>
</trkpt>
<trkpt lat="46.97177401855921" lon="7.446389732677892">
<ele>508.3594824218749</ele>
<time>2014-06-03T18:12:47Z</time>
</trkpt>
<trkpt lat="46.97176501855921" lon="7.446377732677892">
<ele>508.3084824218749</ele>
<time>2014-06-03T18:12:47Z</time>
</trkpt>
<trkpt lat="46.971637018559214" lon="7.446221732677892">
<ele>507.61948242187486</ele>
<time>2014-06-03T18:12:49Z</time>
</trkpt>
<trkpt lat="46.97159301855921" lon="7.446176732677892">
<ele>507.81948242187485</ele>
<time>2014-06-03T18:12:50Z</time>
</trkpt>
<trkpt lat="46.97116801855921" lon="7.445799732677892">
<ele>506.82848242187487</ele>
<time>2014-06-03T18:12:58Z</time>
</trkpt>
<trkpt lat="46.97114501855921" lon="7.445780732677892">
<ele>506.80948242187486</ele>
<time>2014-06-03T18:12:58Z</time>
</trkpt>
<trkpt lat="46.97091501855921" lon="7.445590732677892">
<ele>506.19948242187485</ele>
<time>2014-06-03T18:13:02Z</time>
</trkpt>
<trkpt lat="46.97084101855921" lon="7.445529732677892">
<ele>505.86848242187483</ele>
<time>2014-06-03T18:13:04Z</time>
</trkpt>
<trkpt lat="46.970519018559216" lon="7.445267732677892">
<ele>506.88948242187485</ele>
<time>2014-06-03T18:13:12Z</time>
</trkpt>
<trkpt lat="46.97036101855922" lon="7.445139732677892">
<ele>506.81948242187485</ele>
<time>2014-06-03T18:13:16Z</time>
</trkpt>
<trkpt lat="46.97032601855922" lon="7.445110732677892">
<ele>506.74948242187486</ele>
<time>2014-06-03T18:13:16Z</time>
</trkpt>
<trkpt lat="46.97021201855922" lon="7.445021732677892">
<ele>506.32848242187487</ele>
<time>2014-06-03T18:13:19Z</time>
</trkpt>
<trkpt lat="46.970117018559215" lon="7.444919732677892">
<ele>506.73948242187487</ele>
<time>2014-06-03T18:13:21Z</time>
</trkpt>
<trkpt lat="46.969956018559216" lon="7.4447627326778925">
<ele>507.3494824218749</ele>
<time>2014-06-03T18:13:27Z</time>
</trkpt>
<trkpt lat="46.969737018559215" lon="7.444562732677892">
<ele>508.4194824218749</ele>
<time>2014-06-03T18:13:35Z</time>
</trkpt>
<trkpt lat="46.96956701855922" lon="7.444405732677892">
<ele>508.8084824218749</ele>
<time>2014-06-03T18:13:38Z</time>
</trkpt>
<trkpt lat="46.96936601855922" lon="7.444232732677892">
<ele>508.6594824218749</ele>
<time>2014-06-03T18:13:43Z</time>
</trkpt>
<trkpt lat="46.96929401855922" lon="7.4441717326778925">
<ele>508.4694824218749</ele>
<time>2014-06-03T18:13:44Z</time>
</trkpt>
<trkpt lat="46.969216018559216" lon="7.444105732677892">
<ele>508.8494824218749</ele>
<time>2014-06-03T18:13:47Z</time>
</trkpt>
<trkpt lat="46.968741018559214" lon="7.4438037326778925">
<ele>509.49948242187486</ele>
<time>2014-06-03T18:14:03Z</time>
</trkpt>
<trkpt lat="46.96870501855921" lon="7.443763732677892">
<ele>509.73848242187483</ele>
<time>2014-06-03T18:14:04Z</time>
</trkpt>
<trkpt lat="46.968699018559214" lon="7.443726732677892">
<ele>510.25948242187485</ele>
<time>2014-06-03T18:14:05Z</time>
</trkpt>
<trkpt lat="46.968699018559214" lon="7.443681732677892">
<ele>511.00948242187485</ele>
<time>2014-06-03T18:14:06Z</time>
</trkpt>
<trkpt lat="46.96862601855921" lon="7.443671732677893">
<ele>510.23848242187483</ele>
<time>2014-06-03T18:14:06Z</time>
</trkpt>
<trkpt lat="46.96839101855921" lon="7.4436067326778925">
<ele>508.1594824218748</ele>
<time>2014-06-03T18:14:09Z</time>
</trkpt>
<trkpt lat="46.96835201855921" lon="7.443584732677892">
<ele>507.9394824218748</ele>
<time>2014-06-03T18:14:09Z</time>
</trkpt>
<trkpt lat="46.96822801855921" lon="7.443513732677892">
<ele>507.7384824218748</ele>
<time>2014-06-03T18:14:13Z</time>
</trkpt>
<trkpt lat="46.96788801855921" lon="7.443274732677892">
<ele>507.9994824218748</ele>
<time>2014-06-03T18:14:21Z</time>
</trkpt>
<trkpt lat="46.96774501855921" lon="7.443168732677893">
<ele>508.7894824218748</ele>
<time>2014-06-03T18:14:25Z</time>
</trkpt>
<trkpt lat="46.967734018559206" lon="7.443160732677892">
<ele>508.8384824218748</ele>
<time>2014-06-03T18:14:25Z</time>
</trkpt>
<trkpt lat="46.96760701855921" lon="7.443070732677892">
<ele>509.2684824218748</ele>
<time>2014-06-03T18:14:28Z</time>
</trkpt>
<trkpt lat="46.967492018559206" lon="7.4429967326778925">
<ele>509.3794824218748</ele>
<time>2014-06-03T18:14:32Z</time>
</trkpt>
<trkpt lat="46.96741201855921" lon="7.442944732677892">
<ele>509.5184824218748</ele>
<time>2014-06-03T18:14:34Z</time>
</trkpt>
<trkpt lat="46.96739201855921" lon="7.4429327326778925">
<ele>509.52948242187483</ele>
<time>2014-06-03T18:14:34Z</time>
</trkpt>
<trkpt lat="46.96727001855921" lon="7.442857732677893">
<ele>509.50948242187485</ele>
<time>2014-06-03T18:14:36Z</time>
</trkpt>
<trkpt lat="46.96712901855921" lon="7.442772732677892">
<ele>509.2894824218748</ele>
<time>2014-06-03T18:14:39Z</time>
</trkpt>
<trkpt lat="46.967035018559216" lon="7.442707732677892">
<ele>509.1594824218748</ele>
<time>2014-06-03T18:14:40Z</time>
</trkpt>
<trkpt lat="46.96683901855921" lon="7.442569732677892">
<ele>508.52848242187486</ele>
<time>2014-06-03T18:14:45Z</time>
</trkpt>
<trkpt lat="46.966545018559216" lon="7.442381732677893">
<ele>508.99948242187486</ele>
<time>2014-06-03T18:14:52Z</time>
</trkpt>
<trkpt lat="46.96643501855922" lon="7.442306732677893">
<ele>509.8494824218749</ele>
<time>2014-06-03T18:14:55Z</time>
</trkpt>
<trkpt lat="46.96624301855922" lon="7.442174732677893">
<ele>511.1184824218749</ele>
<time>2014-06-03T18:15:01Z</time>
</trkpt>
<trkpt lat="46.96591701855922" lon="7.441989732677893">
<ele>511.6894824218749</ele>
<time>2014-06-03T18:15:11Z</time>
</trkpt>
<trkpt lat="46.965901018559215" lon="7.441982732677893">
<ele>511.6394824218749</ele>
<time>2014-06-03T18:15:11Z</time>
</trkpt>
<trkpt lat="46.965811018559215" lon="7.441945732677893">
<ele>511.3894824218749</ele>
<time>2014-06-03T18:15:13Z</time>
</trkpt>
<trkpt lat="46.965828018559215" lon="7.441900732677893">
<ele>512.5894824218749</ele>
<time>2014-06-03T18:15:17Z</time>
</trkpt>
<trkpt lat="46.96579001855921" lon="7.441857732677893">
<ele>513.0894824218749</ele>
<time>2014-06-03T18:15:18Z</time>
</trkpt>
<trkpt lat="46.965693018559215" lon="7.441759732677893">
<ele>513.8894824218748</ele>
<time>2014-06-03T18:15:22Z</time>
</trkpt>
<trkpt lat="46.965625018559216" lon="7.441720732677893">
<ele>513.6684824218748</ele>
<time>2014-06-03T18:15:24Z</time>
</trkpt>
<trkpt lat="46.964170018559216" lon="7.4411667326778925">
<ele>508.2294824218748</ele>
<time>2014-06-03T18:16:12Z</time>
</trkpt>
<trkpt lat="46.96405401855922" lon="7.441086732677893">
<ele>508.92848242187483</ele>
<time>2014-06-03T18:16:16Z</time>
</trkpt>
<trkpt lat="46.962681018559216" lon="7.439849732677893">
<ele>526.3294824218748</ele>
<time>2014-06-03T18:17:07Z</time>
</trkpt>
<trkpt lat="46.96172601855922" lon="7.439412732677893">
<ele>527.5484824218748</ele>
<time>2014-06-03T18:17:39Z</time>
</trkpt>
<trkpt lat="46.961620018559216" lon="7.439386732677893">
<ele>527.0894824218749</ele>
<time>2014-06-03T18:17:42Z</time>
</trkpt>
<trkpt lat="46.96158501855922" lon="7.439379732677893">
<ele>526.8594824218749</ele>
<time>2014-06-03T18:17:43Z</time>
</trkpt>
<trkpt lat="46.96155601855922" lon="7.4394767326778934">
<ele>523.7884824218748</ele>
<time>2014-06-03T18:17:44Z</time>
</trkpt>
<trkpt lat="46.96148001855922" lon="7.439423732677893">
<ele>524.3894824218748</ele>
<time>2014-06-03T18:17:48Z</time>
</trkpt>
<trkpt lat="46.96128401855922" lon="7.4392547326778935">
<ele>526.6084824218749</ele>
<time>2014-06-03T18:17:59Z</time>
</trkpt>
<trkpt lat="46.96126701855922" lon="7.439240732677893">
<ele>526.7494824218749</ele>
<time>2014-06-03T18:18:00Z</time>
</trkpt>
<trkpt lat="46.96121001855922" lon="7.439195732677893">
<ele>527.1994824218749</ele>
<time>2014-06-03T18:18:02Z</time>
</trkpt>
<trkpt lat="46.96115501855922" lon="7.439162732677893">
<ele>527.3594824218749</ele>
<time>2014-06-03T18:18:04Z</time>
</trkpt>
<trkpt lat="46.96108101855922" lon="7.439125732677893">
<ele>527.4084824218749</ele>
<time>2014-06-03T18:18:05Z</time>
</trkpt>
<trkpt lat="46.96085401855922" lon="7.439071732677893">
<ele>525.9884824218749</ele>
<time>2014-06-03T18:18:08Z</time>
</trkpt>
<trkpt lat="46.960723018559214" lon="7.439076732677893">
<ele>524.2694824218748</ele>
<time>2014-06-03T18:18:10Z</time>
</trkpt>
<trkpt lat="46.960582018559215" lon="7.439112732677892">
<ele>521.5384824218748</ele>
<time>2014-06-03T18:18:11Z</time>
</trkpt>
<trkpt lat="46.96053001855922" lon="7.439132732677892">
<ele>520.3294824218749</ele>
<time>2014-06-03T18:18:12Z</time>
</trkpt>
<trkpt lat="46.960407018559216" lon="7.439175732677892">
<ele>517.6894824218749</ele>
<time>2014-06-03T18:18:14Z</time>
</trkpt>
<trkpt lat="46.96017201855921" lon="7.439222732677893">
<ele>514.029482421875</ele>
<time>2014-06-03T18:18:16Z</time>
</trkpt>
<trkpt lat="46.95975301855921" lon="7.4392537326778925">
<ele>509.90948242187494</ele>
<time>2014-06-03T18:18:21Z</time>
</trkpt>
<trkpt lat="46.95940801855921" lon="7.439176732677892">
<ele>508.60848242187495</ele>
<time>2014-06-03T18:18:26Z</time>
</trkpt>
<trkpt lat="46.95931201855921" lon="7.439142732677892">
<ele>508.65948242187494</ele>
<time>2014-06-03T18:18:27Z</time>
</trkpt>
<trkpt lat="46.95912401855921" lon="7.439068732677892">
<ele>509.28948242187494</ele>
<time>2014-06-03T18:18:32Z</time>
</trkpt>
<trkpt lat="46.959131018559205" lon="7.439020732677893">
<ele>510.50948242187496</ele>
<time>2014-06-03T18:18:36Z</time>
</trkpt>
<trkpt lat="46.959170018559206" lon="7.438678732677893">
<ele>519.3194824218749</ele>
<time>2014-06-03T18:19:06Z</time>
</trkpt>
<trkpt lat="46.959185018559204" lon="7.438518732677893">
<ele>523.509482421875</ele>
<time>2014-06-03T18:19:20Z</time>
</trkpt>
<trkpt lat="46.9591860185592" lon="7.438509732677892">
<ele>523.738482421875</ele>
<time>2014-06-03T18:19:20Z</time>
</trkpt>
<trkpt lat="46.9591830185592" lon="7.438296732677893">
<ele>528.968482421875</ele>
<time>2014-06-03T18:19:39Z</time>
</trkpt>
<trkpt lat="46.9591630185592" lon="7.438080732677893">
<ele>533.4184824218751</ele>
<time>2014-06-03T18:19:57Z</time>
</trkpt>
<trkpt lat="46.9591500185592" lon="7.437980732677893">
<ele>535.4794824218751</ele>
<time>2014-06-03T18:20:05Z</time>
</trkpt>
<trkpt lat="46.9591390185592" lon="7.437924732677893">
<ele>536.5984824218751</ele>
<time>2014-06-03T18:20:08Z</time>
</trkpt>
<trkpt lat="46.9589230185592" lon="7.4370247326778935">
<ele>550.5094824218751</ele>
<time>2014-06-03T18:20:53Z</time>
</trkpt>
<trkpt lat="46.958724018559195" lon="7.4362237326778935">
<ele>556.4994824218751</ele>
<time>2014-06-03T18:21:33Z</time>
</trkpt>
<trkpt lat="46.958710018559195" lon="7.436171732677893">
<ele>556.7284824218751</ele>
<time>2014-06-03T18:21:34Z</time>
</trkpt>
<trkpt lat="46.958682018559195" lon="7.436123732677894">
<ele>556.8694824218751</ele>
<time>2014-06-03T18:21:36Z</time>
</trkpt>
<trkpt lat="46.958735018559196" lon="7.436078732677894">
<ele>557.4394824218751</ele>
<time>2014-06-03T18:21:38Z</time>
</trkpt>
<trkpt lat="46.9587140185592" lon="7.436014732677894">
<ele>557.7184824218751</ele>
<time>2014-06-03T18:21:40Z</time>
</trkpt>
<trkpt lat="46.9586540185592" lon="7.435894732677894">
<ele>558.1584824218752</ele>
<time>2014-06-03T18:21:42Z</time>
</trkpt>
<trkpt lat="46.9585190185592" lon="7.435657732677893">
<ele>558.0594824218751</ele>
<time>2014-06-03T18:21:47Z</time>
</trkpt>
<trkpt lat="46.958273018559204" lon="7.4351687326778935">
<ele>557.5694824218751</ele>
<time>2014-06-03T18:21:53Z</time>
</trkpt>
<trkpt lat="46.9582320185592" lon="7.435089732677893">
<ele>557.5094824218752</ele>
<time>2014-06-03T18:21:54Z</time>
</trkpt>
<trkpt lat="46.9580820185592" lon="7.434801732677893">
<ele>557.3294824218752</ele>
<time>2014-06-03T18:21:58Z</time>
</trkpt>
<trkpt lat="46.9577340185592" lon="7.434098732677893">
<ele>556.8994824218753</ele>
<time>2014-06-03T18:22:08Z</time>
</trkpt>
<trkpt lat="46.9575420185592" lon="7.4337077326778935">
<ele>556.6694824218753</ele>
<time>2014-06-03T18:22:13Z</time>
</trkpt>
<trkpt lat="46.9575260185592" lon="7.4336757326778935">
<ele>556.6594824218753</ele>
<time>2014-06-03T18:22:13Z</time>
</trkpt>
<trkpt lat="46.9574620185592" lon="7.433551732677894">
<ele>556.5484824218753</ele>
<time>2014-06-03T18:22:15Z</time>
</trkpt>
<trkpt lat="46.9572120185592" lon="7.433068732677894">
<ele>555.9694824218753</ele>
<time>2014-06-03T18:22:21Z</time>
</trkpt>
<trkpt lat="46.9572120185592" lon="7.433068732677894">
<ele>555.9694824218753</ele>
<time>2014-06-03T18:22:21Z</time>
</trkpt>
</trkseg>
</trk>
</gpx>
